Provisional Data: West Branch Owego Creek near Speedsville, NY


Please select a monitoring station.
Please select start date.
Please select start date.

Toggle Unit: C/F Toggle Unit: C/F
Sample Time Temperature (C) Temperature (F) Specific Conductivity (mS/cm) pH   Turbidity (NTU+) DO (mg/L)
12/4/2020 12:00:00 AM 3.43 38.174 0.138 7.74 2.96 12.44
12/4/2020 12:15:00 AM 3.44 38.192 0.139 7.74 2.92 12.43
12/4/2020 12:30:00 AM 3.45 38.21 0.139 7.74 2.87 12.43
12/4/2020 12:45:00 AM 3.45 38.21 0.139 7.73 3 12.42
12/4/2020 1:00:00 AM 3.46 38.228 0.139 7.72 2.95 12.42
12/4/2020 1:15:00 AM 3.47 38.246 0.139 7.73 2.98 12.41
12/4/2020 1:30:00 AM 3.48 38.264 0.139 7.73 3.02 12.4
12/4/2020 1:45:00 AM 3.49 38.282 0.139 7.73 3.08 12.4
12/4/2020 2:00:00 AM 3.51 38.318 0.139 7.73 3.04 12.4
12/4/2020 2:15:00 AM 3.52 38.336 0.139 7.73 2.99 12.39
12/4/2020 2:30:00 AM 3.53 38.354 0.139 7.73 3.11 12.38
12/4/2020 2:45:00 AM 3.55 38.39 0.139 7.73 3.06 12.38
12/4/2020 3:00:00 AM 3.57 38.426 0.139 7.72 3 12.37
12/4/2020 3:15:00 AM 3.59 38.462 0.139 7.72 3.15 12.36
12/4/2020 3:30:00 AM 3.61 38.498 0.139 7.72 2.92 12.36
12/4/2020 3:45:00 AM 3.62 38.516 0.139 7.72 3.21 12.35
12/4/2020 4:00:00 AM 3.63 38.534 0.139 7.73 3.01 12.34
12/4/2020 4:15:00 AM 3.65 38.57 0.139 7.73 2.99 12.34
12/4/2020 4:30:00 AM 3.66 38.588 0.139 7.72 2.96 12.33
12/4/2020 4:45:00 AM 3.68 38.624 0.139 7.72 2.88 12.33
12/4/2020 5:00:00 AM 3.69 38.642 0.139 7.72 3.08 12.31
12/4/2020 5:15:00 AM 3.7 38.66 0.139 7.73 2.92 12.32
12/4/2020 5:30:00 AM 3.71 38.678 0.139 7.73 2.99 12.31
12/4/2020 5:45:00 AM 3.73 38.714 0.139 7.73 2.95 12.3
12/4/2020 6:00:00 AM 3.74 38.732 0.139 7.73 2.89 12.29
12/4/2020 6:15:00 AM 3.75 38.75 0.139 7.73 2.94 12.28
12/4/2020 6:30:00 AM 3.77 38.786 0.139 7.73 3.29 12.28
12/4/2020 6:45:00 AM 3.79 38.822 0.139 7.73 3.33 12.27
12/4/2020 7:00:00 AM 3.8 38.84 0.139 7.74 3.25 12.26
12/4/2020 7:15:00 AM 3.81 38.858 0.139 7.74 2.91 12.26
12/4/2020 7:30:00 AM 3.83 38.894 0.139 7.74 2.87 12.26
12/4/2020 7:45:00 AM 3.85 38.93 0.139 7.74 2.87 12.24
12/4/2020 8:00:00 AM 3.86 38.948 0.14 7.74 2.86 12.26
12/4/2020 8:15:00 AM 3.88 38.984 0.139 7.75 2.8 12.27
12/4/2020 8:30:00 AM 3.9 39.02 0.14 7.75 2.76 12.27
12/4/2020 8:45:00 AM 3.92 39.056 0.14 7.76 2.63 12.3
12/4/2020 9:00:00 AM 3.94 39.092 0.14 7.76 2.56 12.32
12/4/2020 9:15:00 AM 3.97 39.146 0.14 7.79 2.54 12.37
12/4/2020 9:30:00 AM 4.01 39.218 0.139 7.79 2.58 12.42
12/4/2020 9:45:00 AM 4.05 39.29 0.139 7.81 2.41 12.47
12/4/2020 10:00:00 AM 4.09 39.362 0.139 7.81 2.62 12.51
12/4/2020 10:15:00 AM 4.12 39.416 0.139 7.84 2.56 12.56
12/4/2020 10:30:00 AM 4.16 39.488 0.139 7.85 2.57 12.59
12/4/2020 10:45:00 AM 4.2 39.56 0.139 7.86 2.41 12.64
12/4/2020 11:00:00 AM 4.24 39.632 0.139 7.88 2.64 12.66
12/4/2020 11:15:00 AM 4.27 39.686 0.139 7.88 2.49 12.67
12/4/2020 11:30:00 AM 4.3 39.74 0.139 7.9 2.53 12.68
12/4/2020 11:45:00 AM 4.34 39.812 0.139 7.9 2.51 12.7
12/4/2020 12:00:00 PM 4.39 39.902 0.139 7.89 2.47 12.7
12/4/2020 12:15:00 PM 4.42 39.956 0.139 7.91 2.5 12.73
12/4/2020 12:30:00 PM 4.45 40.01 0.139 7.92 2.48 12.72
12/4/2020 12:45:00 PM 4.48 40.064 0.139 7.94 2.49 12.71
12/4/2020 1:00:00 PM 4.5 40.1 0.139 7.94 2.48 12.7
12/4/2020 1:15:00 PM 4.53 40.154 0.139 7.94 2.44 12.68
12/4/2020 1:30:00 PM 4.57 40.226 0.139 7.94 2.49 12.68
12/4/2020 1:45:00 PM 4.6 40.28 0.139 7.95 2.37 12.69
12/4/2020 2:00:00 PM 4.63 40.334 0.139 7.96 2.47 12.7
12/4/2020 2:15:00 PM 4.66 40.388 0.139 7.97 2.44 12.71
12/4/2020 2:30:00 PM 4.7 40.46 0.139 7.98 2.5 12.72
12/4/2020 2:45:00 PM 4.74 40.532 0.139 7.98 2.46 12.72
12/4/2020 3:00:00 PM 4.77 40.586 0.139 7.98 2.46 12.68
12/4/2020 3:15:00 PM 4.78 40.604 0.139 7.97 2.45 12.63
12/4/2020 3:30:00 PM 4.79 40.622 0.139 7.96 2.4 12.56
12/4/2020 3:45:00 PM 4.81 40.658 0.139 7.95 2.36 12.49
12/4/2020 4:00:00 PM 4.82 40.676 0.139 7.93 2.38 12.44
12/4/2020 4:15:00 PM 4.83 40.694 0.139 7.91 2.33 12.36
12/4/2020 4:30:00 PM 4.83 40.694 0.139 7.91 2.44 12.31
12/4/2020 4:45:00 PM 4.83 40.694 0.139 7.91 2.35 12.24
12/4/2020 5:00:00 PM 4.82 40.676 0.139 7.9 2.47 12.21
12/4/2020 5:15:00 PM 4.82 40.676 0.139 7.88 2.46 12.15
12/4/2020 5:30:00 PM 4.82 40.676 0.139 7.86 2.45 12.11
12/4/2020 5:45:00 PM 4.82 40.676 0.139 7.86 2.42 12.08
12/4/2020 6:00:00 PM 4.82 40.676 0.139 7.86 2.57 12.05
12/4/2020 6:15:00 PM 4.82 40.676 0.139 7.85 2.5 12.03
12/4/2020 6:30:00 PM 4.81 40.658 0.14 7.84 2.7 12.01
12/4/2020 6:45:00 PM 4.81 40.658 0.14 7.84 2.49 11.99
12/4/2020 7:00:00 PM 4.8 40.64 0.14 7.83 2.82 11.97
12/4/2020 7:15:00 PM 4.8 40.64 0.14 7.82 2.66 11.96
12/4/2020 7:30:00 PM 4.8 40.64 0.14 7.81 3 11.93
12/4/2020 7:45:00 PM 4.78 40.604 0.14 7.82 2.79 11.94
12/4/2020 8:00:00 PM 4.78 40.604 0.14 7.81 2.76 11.94
12/4/2020 8:15:00 PM 4.77 40.586 0.14 7.82 2.74 11.95
12/4/2020 8:30:00 PM 4.76 40.568 0.14 7.8 2.87 11.93
12/4/2020 8:45:00 PM 4.76 40.568 0.14 7.79 2.8 11.92
12/4/2020 9:00:00 PM 4.75 40.55 0.14 7.78 2.8 11.92
12/4/2020 9:15:00 PM 4.74 40.532 0.14 7.8 2.75 11.93
12/4/2020 9:30:00 PM 4.74 40.532 0.14 7.8 3.01 11.92
12/4/2020 9:45:00 PM 4.74 40.532 0.14 7.8 2.9 11.92
12/4/2020 10:00:00 PM 4.74 40.532 0.14 7.79 2.7 11.92
12/4/2020 10:15:00 PM 4.74 40.532 0.14 7.79 2.7 11.91
12/4/2020 10:30:00 PM 4.73 40.514 0.14 7.79 2.92 11.91
12/4/2020 10:45:00 PM 4.73 40.514 0.14 7.79 2.87 11.93
12/4/2020 11:00:00 PM 4.74 40.532 0.14 7.79 2.98 11.91
12/4/2020 11:15:00 PM 4.74 40.532 0.14 7.79 2.96 11.92
12/4/2020 11:30:00 PM 4.74 40.532 0.14 7.79 3 11.91
12/4/2020 11:45:00 PM 4.74 40.532 0.14 7.79 2.84 11.9
12/5/2020 12:00:00 AM 4.75 40.55 0.14 7.78 3.1 11.9
12/5/2020 12:15:00 AM 4.74 40.532 0.14 7.79 2.92 11.91
12/5/2020 12:30:00 AM 4.74 40.532 0.14 7.79 2.79 11.9
12/5/2020 12:45:00 AM 4.74 40.532 0.14 7.79 2.91 11.9
12/5/2020 1:00:00 AM 4.75 40.55 0.14 7.79 2.75 11.89
12/5/2020 1:15:00 AM 4.75 40.55 0.141 7.79 2.75 11.89
12/5/2020 1:30:00 AM 4.75 40.55 0.141 7.8 2.84 11.9
12/5/2020 1:45:00 AM 4.75 40.55 0.141 7.79 2.73 11.89
12/5/2020 2:00:00 AM 4.75 40.55 0.141 7.78 2.74 11.88
12/5/2020 2:15:00 AM 4.76 40.568 0.141 7.79 2.66 11.87
12/5/2020 2:30:00 AM 4.75 40.55 0.141 7.79 2.77 11.89
12/5/2020 2:45:00 AM 4.75 40.55 0.141 7.79 2.66 11.88
12/5/2020 3:00:00 AM 4.75 40.55 0.141 7.79 2.77 11.87
12/5/2020 3:15:00 AM 4.75 40.55 0.141 7.79 2.67 11.88
12/5/2020 3:30:00 AM 4.75 40.55 0.141 7.8 2.7 11.87
12/5/2020 3:45:00 AM 4.76 40.568 0.141 7.8 2.72 11.87
12/5/2020 4:00:00 AM 4.76 40.568 0.141 7.79 2.71 11.87
12/5/2020 4:15:00 AM 4.77 40.586 0.141 7.79 2.79 11.86
12/5/2020 4:30:00 AM 4.77 40.586 0.141 7.78 2.86 11.87
12/5/2020 4:45:00 AM 4.77 40.586 0.141 7.79 2.72 11.86
12/5/2020 5:00:00 AM 4.78 40.604 0.141 7.79 2.96 11.86
12/5/2020 5:15:00 AM 4.78 40.604 0.141 7.79 2.82 11.85
12/5/2020 5:30:00 AM 4.78 40.604 0.141 7.78 2.9 11.85
12/5/2020 5:45:00 AM 4.78 40.604 0.141 7.79 3.18 11.85
12/5/2020 6:00:00 AM 4.79 40.622 0.141 7.79 3.18 11.84
12/5/2020 6:15:00 AM 4.78 40.604 0.141 7.8 3.14 11.85
12/5/2020 6:30:00 AM 4.78 40.604 0.141 7.8 2.98 11.84
12/5/2020 6:45:00 AM 4.79 40.622 0.141 7.78 2.95 11.83
12/5/2020 7:00:00 AM 4.78 40.604 0.141 7.8 2.93 11.86
12/5/2020 7:15:00 AM 4.79 40.622 0.141 7.78 2.79 11.84
12/5/2020 7:30:00 AM 4.79 40.622 0.141 7.79 2.85 11.85
12/5/2020 7:45:00 AM 4.79 40.622 0.141 7.8 2.74 11.87
12/5/2020 8:00:00 AM 4.79 40.622 0.141 7.8 2.74 11.88
12/5/2020 8:15:00 AM 4.8 40.64 0.141 7.8 2.72 11.91
12/5/2020 8:30:00 AM 4.8 40.64 0.141 7.82 2.57 11.96
12/5/2020 8:45:00 AM 4.81 40.658 0.141 7.82 2.66 11.96
12/5/2020 9:00:00 AM 4.8 40.64 0.141 7.82 2.69 11.94
12/5/2020 9:15:00 AM 4.8 40.64 0.141 7.82 2.65 11.94
12/5/2020 9:30:00 AM 4.81 40.658 0.141 7.82 2.52 11.97
12/5/2020 9:45:00 AM 4.82 40.676 0.141 7.83 2.66 12.01
12/5/2020 10:00:00 AM 4.83 40.694 0.141 7.83 2.55 12.05
12/5/2020 10:15:00 AM 4.85 40.73 0.141 7.85 2.51 12.13
12/5/2020 10:30:00 AM 4.87 40.766 0.141 7.87 2.6 12.2
12/5/2020 10:45:00 AM 4.88 40.784 0.141 7.87 2.6 12.25
12/5/2020 11:00:00 AM 4.88 40.784 0.141 7.88 2.53 12.27
12/5/2020 11:15:00 AM 4.88 40.784 0.141 7.89 2.52 12.27
12/5/2020 11:30:00 AM 4.9 40.82 0.141 7.9 2.43 12.33
12/5/2020 11:45:00 AM 4.95 40.91 0.141 7.92 2.5 12.41
12/5/2020 12:00:00 PM 4.98 40.964 0.141 7.94 2.41 12.48
12/5/2020 12:15:00 PM 4.99 40.982 0.141 7.95 2.49 12.51
12/5/2020 12:30:00 PM 5.02 41.036 0.141 7.96 2.51 12.53
12/5/2020 12:45:00 PM 5.06 41.108 0.141 7.98 2.63 12.56
12/5/2020 1:00:00 PM 5.06 41.108 0.141 7.99 2.63 12.56
12/5/2020 1:15:00 PM 5.07 41.126 0.141 7.99 2.48 12.53
12/5/2020 1:30:00 PM 5.11 41.198 0.141 7.99 2.46 12.53
12/5/2020 1:45:00 PM 5.13 41.234 0.141 8 2.53 12.52
12/5/2020 2:00:00 PM 5.13 41.234 0.141 8 2.35 12.53
12/5/2020 2:15:00 PM 5.14 41.252 0.141 8 2.55 12.55
12/5/2020 2:30:00 PM 5.13 41.234 0.141 8.01 2.5 12.53
12/5/2020 2:45:00 PM 5.14 41.252 0.141 8.02 2.47 12.53
12/5/2020 3:00:00 PM 5.14 41.252 0.141 8.01 2.49 12.52
12/5/2020 3:15:00 PM 5.13 41.234 0.141 8.02 2.61 12.51
12/5/2020 3:30:00 PM 5.12 41.216 0.141 8.05 2.65 12.48
12/5/2020 3:45:00 PM 5.11 41.198 0.141 8.04 2.61 12.41
12/5/2020 4:00:00 PM 5.09 41.162 0.141 7.99 2.57 12.34
12/5/2020 4:15:00 PM 5.06 41.108 0.141 7.97 2.58 12.29
12/5/2020 4:30:00 PM 5.04 41.072 0.141 7.96 2.61 12.23
12/5/2020 4:45:00 PM 5.01 41.018 0.141 7.95 2.73 12.18
12/5/2020 5:00:00 PM 4.97 40.946 0.142 7.94 2.6 12.15
12/5/2020 5:15:00 PM 4.94 40.892 0.142 7.91 2.56 12.11
12/5/2020 5:30:00 PM 4.91 40.838 0.142 7.9 2.52 12.07
12/5/2020 5:45:00 PM 4.88 40.784 0.142 7.89 2.58 12.04
12/5/2020 6:00:00 PM 4.85 40.73 0.142 7.87 2.57 12
12/5/2020 6:15:00 PM 4.82 40.676 0.142 7.86 2.52 12.01
12/5/2020 6:30:00 PM 4.79 40.622 0.142 7.86 3.05 11.99
12/5/2020 6:45:00 PM 4.75 40.55 0.142 7.84 2.9 11.97
12/5/2020 7:00:00 PM 4.72 40.496 0.142 7.84 2.75 11.97
12/5/2020 7:15:00 PM 4.7 40.46 0.142 7.83 2.9 11.97
12/5/2020 7:30:00 PM 4.68 40.424 0.143 7.82 2.95 11.95
12/5/2020 7:45:00 PM 4.66 40.388 0.143 7.84 2.86 11.95
12/5/2020 8:00:00 PM 4.64 40.352 0.143 7.82 3.19 11.95
12/5/2020 8:15:00 PM 4.62 40.316 0.143 7.82 3.06 11.95
12/5/2020 8:30:00 PM 4.6 40.28 0.143 7.82 2.88 11.96
12/5/2020 8:45:00 PM 4.58 40.244 0.143 7.84 2.99 11.95
12/5/2020 9:00:00 PM 4.56 40.208 0.143 7.82 2.84 11.96
12/5/2020 9:15:00 PM 4.53 40.154 0.143 7.83 2.78 11.97
12/5/2020 9:30:00 PM 4.51 40.118 0.143 7.83 3.26 11.96
12/5/2020 9:45:00 PM 4.48 40.064 0.143 7.84 3.39 11.97
12/5/2020 10:00:00 PM 4.45 40.01 0.143 7.84 3.1 11.96
12/5/2020 10:15:00 PM 4.43 39.974 0.143 7.82 2.98 11.97
12/5/2020 10:30:00 PM 4.39 39.902 0.143 7.83 3.15 12
12/5/2020 10:45:00 PM 4.36 39.848 0.143 7.82 3.17 12
12/5/2020 11:00:00 PM 4.34 39.812 0.143 7.82 3.16 12
12/5/2020 11:15:00 PM 4.31 39.758 0.143 7.82 3.33 12.01
12/5/2020 11:30:00 PM 4.3 39.74 0.143 7.83 3.48 12.03
12/5/2020 11:45:00 PM 4.29 39.722 0.143 7.8 3.23 12.01
12/6/2020 12:00:00 AM 4.25 39.65 0.143 7.82 3.22 12.02
12/6/2020 12:15:00 AM 4.22 39.596 0.143 7.79 3.24 12.04
12/6/2020 12:30:00 AM 4.19 39.542 0.143 7.8 3.19 12.05
12/6/2020 12:45:00 AM 4.16 39.488 0.143 7.79 3.23 12.06
12/6/2020 1:00:00 AM 4.11 39.398 0.144 7.78 3.28 12.05
12/6/2020 1:15:00 AM 4.07 39.326 0.144 7.77 3.2 12.07
12/6/2020 1:30:00 AM 4.04 39.272 0.144 7.78 3.19 12.07
12/6/2020 1:45:00 AM 4.02 39.236 0.144 7.78 3.09 12.08
12/6/2020 2:00:00 AM 3.98 39.164 0.144 7.78 3.31 12.1
12/6/2020 2:15:00 AM 3.95 39.11 0.144 7.77 3.23 12.1
12/6/2020 2:30:00 AM 3.92 39.056 0.144 7.77 3.34 12.1
12/6/2020 2:45:00 AM 3.89 39.002 0.144 7.78 3.35 12.13
12/6/2020 3:00:00 AM 3.88 38.984 0.144 7.75 3.31 12.11
12/6/2020 3:15:00 AM 3.85 38.93 0.144 7.75 3.4 12.14
12/6/2020 3:30:00 AM 3.82 38.876 0.144 7.75 3.32 12.16
12/6/2020 3:45:00 AM 3.8 38.84 0.144 7.75 3.33 12.17
12/6/2020 4:00:00 AM 3.78 38.804 0.144 7.74 2.98 12.18
12/6/2020 4:15:00 AM 3.75 38.75 0.144 7.75 3.01 12.19
12/6/2020 4:30:00 AM 3.72 38.696 0.144 7.76 3.18 12.21
12/6/2020 4:45:00 AM 3.69 38.642 0.144 7.74 3.38 12.21
12/6/2020 5:00:00 AM 3.66 38.588 0.145 7.75 3.45 12.23
12/6/2020 5:15:00 AM 3.63 38.534 0.145 7.75 3.19 12.24
12/6/2020 5:30:00 AM 3.6 38.48 0.145 7.76 3.48 12.24
12/6/2020 5:45:00 AM 3.58 38.444 0.145 7.76 3.3 12.26
12/6/2020 6:00:00 AM 3.55 38.39 0.145 7.74 3.46 12.27
12/6/2020 6:15:00 AM 3.53 38.354 0.145 7.76 3.32 12.27
12/6/2020 6:30:00 AM 3.51 38.318 0.145 7.77 3.39 12.28
12/6/2020 6:45:00 AM 3.48 38.264 0.145 7.76 3.31 12.29
12/6/2020 7:00:00 AM 3.46 38.228 0.145 7.75 3.55 12.3
12/6/2020 7:15:00 AM 3.44 38.192 0.145 7.75 3.24 12.31
12/6/2020 7:30:00 AM 3.42 38.156 0.145 7.75 3.24 12.32
12/6/2020 7:45:00 AM 3.4 38.12 0.145 7.76 2.91 12.33
12/6/2020 8:00:00 AM 3.38 38.084 0.145 7.75 2.98 12.36
12/6/2020 8:15:00 AM 3.37 38.066 0.145 7.76 3.12 12.4
12/6/2020 8:30:00 AM 3.35 38.03 0.145 7.77 3.02 12.45
12/6/2020 8:45:00 AM 3.32 37.976 0.145 7.77 2.8 12.51
12/6/2020 9:00:00 AM 3.31 37.958 0.145 7.78 2.86 12.56
12/6/2020 9:15:00 AM 3.29 37.922 0.145 7.78 2.86 12.61
12/6/2020 9:30:00 AM 3.28 37.904 0.145 7.8 2.73 12.66
12/6/2020 9:45:00 AM 3.28 37.904 0.145 7.81 2.8 12.73
12/6/2020 10:00:00 AM 3.3 37.94 0.145 7.8 2.62 12.76
12/6/2020 10:15:00 AM 3.28 37.904 0.145 7.84 2.66 12.84
12/6/2020 10:30:00 AM 3.3 37.94 0.145 7.83 2.58 12.87
12/6/2020 10:45:00 AM 3.28 37.904 0.145 7.86 2.76 12.96
12/6/2020 11:00:00 AM 3.29 37.922 0.145 7.88 2.86 13
12/6/2020 11:15:00 AM 3.32 37.976 0.145 7.87 2.63 13.02
12/6/2020 11:30:00 AM 3.32 37.976 0.145 7.91 2.61 13.08
12/6/2020 11:45:00 AM 3.34 38.012 0.145 7.9 2.45 13.08
12/6/2020 12:00:00 PM 3.34 38.012 0.145 7.89 2.51 13.1
12/6/2020 12:15:00 PM 3.35 38.03 0.145 7.91 2.35 13.11
12/6/2020 12:30:00 PM 3.32 37.976 0.145 7.96 2.61 13.14
12/6/2020 12:45:00 PM 3.34 38.012 0.145 7.92 2.48 13.11
12/6/2020 1:00:00 PM 3.34 38.012 0.145 7.91 2.57 13.11
12/6/2020 1:15:00 PM 3.33 37.994 0.145 7.93 2.57 13.11
12/6/2020 1:30:00 PM 3.31 37.958 0.145 7.94 2.49 13.14
12/6/2020 1:45:00 PM 3.32 37.976 0.145 7.92 2.48 13.11
12/6/2020 2:00:00 PM 3.33 37.994 0.145 7.93 2.48 13.12
12/6/2020 2:15:00 PM 3.33 37.994 0.145 7.93 2.45 13.12
12/6/2020 2:30:00 PM 3.32 37.976 0.145 7.93 2.55 13.11
12/6/2020 2:45:00 PM 3.33 37.994 0.145 7.95 2.57 13.12
12/6/2020 3:00:00 PM 3.32 37.976 0.145 7.94 2.39 13.1
12/6/2020 3:15:00 PM 3.3 37.94 0.145 7.95 2.43 13.12
12/6/2020 3:30:00 PM 3.3 37.94 0.145 7.94 2.52 13.05
12/6/2020 3:45:00 PM 3.29 37.922 0.145 7.93 2.38 13.01
12/6/2020 4:00:00 PM 3.29 37.922 0.145 7.91 3.06 12.96
12/6/2020 4:15:00 PM 3.26 37.868 0.145 7.9 2.38 12.91
12/6/2020 4:30:00 PM 3.24 37.832 0.146 7.9 2.32 12.87
12/6/2020 4:45:00 PM 3.23 37.814 0.146 7.89 2.41 12.82
12/6/2020 5:00:00 PM 3.2 37.76 0.146 7.88 2.31 12.77
12/6/2020 5:15:00 PM 3.18 37.724 0.146 7.86 2.52 12.74
12/6/2020 5:30:00 PM 3.15 37.67 0.146 7.86 2.46 12.7
12/6/2020 5:45:00 PM 3.14 37.652 0.146 7.84 2.6 12.66
12/6/2020 6:00:00 PM 3.12 37.616 0.146 7.84 2.63 12.63
12/6/2020 6:15:00 PM 3.11 37.598 0.146 7.84 2.58 12.61
12/6/2020 6:30:00 PM 3.08 37.544 0.147 7.83 2.52 12.6
12/6/2020 6:45:00 PM 3.06 37.508 0.147 7.83 2.62 12.57
12/6/2020 7:00:00 PM 3.01 37.418 0.147 7.82 2.59 12.62
12/6/2020 7:15:00 PM 3.01 37.418 0.147 7.82 2.45 12.56
12/6/2020 7:30:00 PM 2.98 37.364 0.147 7.8 2.62 12.56
12/6/2020 7:45:00 PM 2.96 37.328 0.147 7.81 2.71 12.56
12/6/2020 8:00:00 PM 2.94 37.292 0.147 7.81 2.55 12.55
12/6/2020 8:15:00 PM 2.94 37.292 0.147 7.81 2.72 12.53
12/6/2020 8:30:00 PM 2.91 37.238 0.147 7.8 2.64 12.55
12/6/2020 8:45:00 PM 2.91 37.238 0.147 7.8 2.59 12.54
12/6/2020 9:00:00 PM 2.89 37.202 0.147 7.79 2.63 12.53
12/6/2020 9:15:00 PM 2.88 37.184 0.147 7.79 2.87 12.55
12/6/2020 9:30:00 PM 2.87 37.166 0.147 7.76 2.83 12.54
12/6/2020 9:45:00 PM 2.85 37.13 0.148 7.75 3.06 12.55
12/6/2020 10:00:00 PM 2.85 37.13 0.148 7.74 2.75 12.53
12/6/2020 10:15:00 PM 2.85 37.13 0.148 7.74 2.76 12.53
12/6/2020 10:30:00 PM 2.83 37.094 0.148 7.73 2.69 12.54
12/6/2020 10:45:00 PM 2.83 37.094 0.148 7.74 2.64 12.53
12/6/2020 11:00:00 PM 2.8 37.04 0.148 7.75 2.54 12.58
12/6/2020 11:15:00 PM 2.82 37.076 0.148 7.74 2.59 12.54
12/6/2020 11:30:00 PM 2.82 37.076 0.148 7.75 2.93 12.53
12/6/2020 11:45:00 PM 2.81 37.058 0.149 7.73 2.81 12.53
12/7/2020 12:00:00 AM 2.79 37.022 0.149 7.74 2.7 12.53
12/7/2020 12:15:00 AM 2.79 37.022 0.149 7.73 2.67 12.52
12/7/2020 12:30:00 AM 2.78 37.004 0.149 7.73 2.73 12.54
12/7/2020 12:45:00 AM 2.77 36.986 0.149 7.72 2.72 12.52
12/7/2020 1:00:00 AM 2.76 36.968 0.149 7.73 2.69 12.53
12/7/2020 1:15:00 AM 2.74 36.932 0.15 7.72 2.92 12.55
12/7/2020 1:30:00 AM 2.73 36.914 0.15 7.72 2.95 12.53
12/7/2020 1:45:00 AM 2.73 36.914 0.15 7.72 2.84 12.53
12/7/2020 2:00:00 AM 2.71 36.878 0.15 7.72 3.05 12.53
12/7/2020 2:15:00 AM 2.69 36.842 0.15 7.72 2.88 12.54
12/7/2020 2:30:00 AM 2.67 36.806 0.15 7.72 2.8 12.54
12/7/2020 2:45:00 AM 2.65 36.77 0.15 7.72 2.78 12.55
12/7/2020 3:00:00 AM 2.63 36.734 0.15 7.72 2.62 12.57
12/7/2020 3:15:00 AM 2.62 36.716 0.15 7.71 2.69 12.56
12/7/2020 3:30:00 AM 2.61 36.698 0.15 7.72 2.69 12.58
12/7/2020 3:45:00 AM 2.6 36.68 0.15 7.72 2.68 12.57
12/7/2020 4:00:00 AM 2.58 36.644 0.15 7.71 2.59 12.58
12/7/2020 4:15:00 AM 2.57 36.626 0.15 7.72 2.55 12.57
12/7/2020 4:30:00 AM 2.56 36.608 0.15 7.72 2.6 12.58
12/7/2020 4:45:00 AM 2.55 36.59 0.15 7.72 2.83 12.58
12/7/2020 5:00:00 AM 2.53 36.554 0.15 7.71 2.87 12.59
12/7/2020 5:15:00 AM 2.52 36.536 0.15 7.72 2.91 12.59
12/7/2020 5:30:00 AM 2.51 36.518 0.15 7.72 2.8 12.59
12/7/2020 5:45:00 AM 2.49 36.482 0.15 7.72 2.81 12.61
12/7/2020 6:00:00 AM 2.49 36.482 0.15 7.72 2.76 12.6
12/7/2020 6:15:00 AM 2.48 36.464 0.15 7.73 2.87 12.61
12/7/2020 6:30:00 AM 2.47 36.446 0.15 7.72 2.89 12.61
12/7/2020 6:45:00 AM 2.46 36.428 0.15 7.71 2.96 12.61
12/7/2020 7:00:00 AM 2.44 36.392 0.15 7.72 2.95 12.62
12/7/2020 7:15:00 AM 2.43 36.374 0.15 7.71 2.93 12.62
12/7/2020 7:30:00 AM 2.41 36.338 0.15 7.72 2.85 12.64
12/7/2020 7:45:00 AM 2.41 36.338 0.15 7.71 2.73 12.67
12/7/2020 8:00:00 AM 2.42 36.356 0.15 7.73 2.8 12.69
12/7/2020 8:15:00 AM 2.42 36.356 0.15 7.74 2.75 12.75
12/7/2020 8:30:00 AM 2.42 36.356 0.15 7.74 2.65 12.79
12/7/2020 8:45:00 AM 2.43 36.374 0.15 7.75 2.67 12.87
12/7/2020 9:00:00 AM 2.43 36.374 0.15 7.76 2.5 12.94
12/7/2020 9:15:00 AM 2.44 36.392 0.15 7.77 2.4 13.02
12/7/2020 9:30:00 AM 2.46 36.428 0.15 7.79 2.46 13.1
12/7/2020 9:45:00 AM 2.49 36.482 0.15 7.81 2.45 13.17
12/7/2020 10:00:00 AM 2.53 36.554 0.15 7.82 2.34 13.22
12/7/2020 10:15:00 AM 2.55 36.59 0.15 7.84 2.47 13.26
12/7/2020 10:30:00 AM 2.56 36.608 0.15 7.85 2.39 13.3
12/7/2020 10:45:00 AM 2.57 36.626 0.15 7.86 2.32 13.33
12/7/2020 11:00:00 AM 2.59 36.662 0.15 7.87 2.3 13.34
12/7/2020 11:15:00 AM 2.63 36.734 0.15 7.88 2.3 13.36
12/7/2020 11:30:00 AM 2.65 36.77 0.15 7.9 2.33 13.39
12/7/2020 11:45:00 AM 2.68 36.824 0.15 7.91 2.26 13.42
12/7/2020 12:00:00 PM 2.69 36.842 0.15 7.92 2.35 13.44
12/7/2020 12:15:00 PM 2.7 36.86 0.15 7.92 2.28 13.44
12/7/2020 12:30:00 PM 2.72 36.896 0.15 7.93 2.28 13.46
12/7/2020 12:45:00 PM 2.74 36.932 0.15 7.95 2.36 13.45
12/7/2020 1:00:00 PM 2.77 36.986 0.15 7.95 2.28 13.45
12/7/2020 1:15:00 PM 2.79 37.022 0.15 7.96 2.41 13.45
12/7/2020 1:30:00 PM 2.79 37.022 0.15 7.97 2.38 13.47
12/7/2020 1:45:00 PM 2.8 37.04 0.15 7.98 2.29 13.46
12/7/2020 2:00:00 PM 2.81 37.058 0.15 7.98 2.42 13.42
12/7/2020 2:15:00 PM 2.81 37.058 0.15 7.99 2.41 13.41
12/7/2020 2:30:00 PM 2.81 37.058 0.15 7.99 2.33 13.41
12/7/2020 2:45:00 PM 2.82 37.076 0.15 7.99 2.41 13.41
12/7/2020 3:00:00 PM 2.83 37.094 0.15 7.99 2.38 13.4
12/7/2020 3:15:00 PM 2.84 37.112 0.15 8 2.38 13.39
12/7/2020 3:30:00 PM 2.83 37.094 0.15 7.99 2.38 13.35
12/7/2020 3:45:00 PM 2.81 37.058 0.15 7.99 2.25 13.33
12/7/2020 4:00:00 PM 2.78 37.004 0.15 7.98 2.45 13.25
12/7/2020 4:15:00 PM 2.76 36.968 0.151 7.96 2.34 13.16
12/7/2020 4:30:00 PM 2.74 36.932 0.151 7.95 2.32 13.09
12/7/2020 4:45:00 PM 2.72 36.896 0.151 7.92 2.31 13.03
12/7/2020 5:00:00 PM 2.7 36.86 0.151 7.92 2.34 12.97
12/7/2020 5:15:00 PM 2.69 36.842 0.151 7.91 2.26 12.93
12/7/2020 5:30:00 PM 2.67 36.806 0.151 7.91 2.37 12.88
12/7/2020 5:45:00 PM 2.63 36.734 0.151 7.9 2.35 12.86
12/7/2020 6:00:00 PM 2.58 36.644 0.152 7.93 2.32 12.87
12/7/2020 6:15:00 PM 2.58 36.644 0.152 7.9 2.47 12.82
12/7/2020 6:30:00 PM 2.56 36.608 0.152 7.87 2.5 12.75
12/7/2020 6:45:00 PM 2.54 36.572 0.152 7.86 2.53 12.72
12/7/2020 7:00:00 PM 2.52 36.536 0.152 7.85 2.65 12.72
12/7/2020 7:15:00 PM 2.49 36.482 0.152 7.85 2.72 12.7
12/7/2020 7:30:00 PM 2.47 36.446 0.152 7.85 2.82 12.7
12/7/2020 7:45:00 PM 2.46 36.428 0.152 7.84 2.54 12.68
12/7/2020 8:00:00 PM 2.44 36.392 0.152 7.84 2.71 12.68
12/7/2020 8:15:00 PM 2.42 36.356 0.152 7.84 2.55 12.69
12/7/2020 8:30:00 PM 2.41 36.338 0.152 7.84 2.57 12.65
12/7/2020 8:45:00 PM 2.39 36.302 0.153 7.83 2.57 12.67
12/7/2020 9:00:00 PM 2.37 36.266 0.153 7.84 2.52 12.67
12/7/2020 9:15:00 PM 2.36 36.248 0.153 7.83 2.46 12.66
12/7/2020 9:30:00 PM 2.33 36.194 0.153 7.82 2.49 12.69
12/7/2020 9:45:00 PM 2.31 36.158 0.153 7.8 2.78 12.67
12/7/2020 10:00:00 PM 2.3 36.14 0.153 7.81 2.81 12.69
12/7/2020 10:15:00 PM 2.28 36.104 0.153 7.8 2.71 12.67
12/7/2020 10:30:00 PM 2.24 36.032 0.153 7.79 2.78 12.7
12/7/2020 10:45:00 PM 2.22 35.996 0.153 7.81 2.79 12.68
12/7/2020 11:00:00 PM 2.21 35.978 0.153 7.81 3.17 12.69
12/7/2020 11:15:00 PM 2.18 35.924 0.153 7.8 2.86 12.7
12/7/2020 11:30:00 PM 2.19 35.942 0.153 7.8 2.94 12.68
12/7/2020 11:45:00 PM 2.18 35.924 0.153 7.8 2.88 12.69
12/8/2020 12:00:00 AM 2.17 35.906 0.154 7.79 3.02 12.7
12/8/2020 12:15:00 AM 2.16 35.888 0.154 7.79 2.73 12.7
12/8/2020 12:30:00 AM 2.14 35.852 0.154 7.79 2.88 12.7
12/8/2020 12:45:00 AM 2.13 35.834 0.154 7.79 2.69 12.72
12/8/2020 1:00:00 AM 2.12 35.816 0.154 7.79 2.68 12.71
12/8/2020 1:15:00 AM 2.1 35.78 0.154 7.79 3.15 12.72
12/8/2020 1:30:00 AM 2.08 35.744 0.154 7.79 3.06 12.72
12/8/2020 1:45:00 AM 2.07 35.726 0.154 7.79 3.22 12.71
12/8/2020 2:00:00 AM 2.05 35.69 0.154 7.78 2.76 12.72
12/8/2020 2:15:00 AM 2 35.6 0.154 7.78 2.77 12.75
12/8/2020 2:30:00 AM 1.98 35.564 0.155 7.79 2.49 12.75
12/8/2020 2:45:00 AM 1.95 35.51 0.155 7.79 2.7 12.76
12/8/2020 3:00:00 AM 1.92 35.456 0.155 7.78 3.14 12.77
12/8/2020 3:15:00 AM 1.89 35.402 0.155 7.79 3.52 12.76
12/8/2020 3:30:00 AM 1.87 35.366 0.155 7.79 3.11 12.77
12/8/2020 3:45:00 AM 1.83 35.294 0.155 7.79 3.75 12.78
12/8/2020 4:00:00 AM 1.8 35.24 0.155 7.79 3.81 12.8
12/8/2020 4:15:00 AM 1.77 35.186 0.155 7.79 3.57 12.82
12/8/2020 4:30:00 AM 1.74 35.132 0.155 7.78 3.18 12.81
12/8/2020 4:45:00 AM 1.74 35.132 0.155 7.79 3.09 12.8
12/8/2020 5:00:00 AM 1.72 35.096 0.156 7.79 2.99 12.83
12/8/2020 5:15:00 AM 1.71 35.078 0.156 7.79 2.84 12.83
12/8/2020 5:30:00 AM 1.71 35.078 0.156 7.79 3.02 12.82
12/8/2020 5:45:00 AM 1.7 35.06 0.156 7.78 2.63 12.85
12/8/2020 6:00:00 AM 1.68 35.024 0.156 7.77 2.76 12.85
12/8/2020 6:15:00 AM 1.68 35.024 0.156 7.76 2.88 12.85
12/8/2020 6:30:00 AM 1.67 35.006 0.156 7.76 3.25 12.86
12/8/2020 6:45:00 AM 1.66 34.988 0.156 7.76 2.95 12.87
12/8/2020 7:00:00 AM 1.66 34.988 0.156 7.76 2.8 12.86
12/8/2020 7:15:00 AM 1.66 34.988 0.156 7.77 2.74 12.86
12/8/2020 7:30:00 AM 1.66 34.988 0.156 7.76 2.84 12.87
12/8/2020 7:45:00 AM 1.65 34.97 0.156 7.77 2.62 12.89
12/8/2020 8:00:00 AM 1.64 34.952 0.156 7.77 2.46 12.91
12/8/2020 8:15:00 AM 1.64 34.952 0.156 7.79 2.6 12.94
12/8/2020 8:30:00 AM 1.65 34.97 0.156 7.79 2.71 12.99
12/8/2020 8:45:00 AM 1.65 34.97 0.156 7.78 2.6 13.06
12/8/2020 9:00:00 AM 1.68 35.024 0.156 7.81 2.54 13.14
12/8/2020 9:15:00 AM 1.71 35.078 0.156 7.82 2.53 13.23
12/8/2020 9:30:00 AM 1.74 35.132 0.156 7.81 2.46 13.3
12/8/2020 9:45:00 AM 1.78 35.204 0.156 7.83 2.57 13.37
12/8/2020 10:00:00 AM 1.81 35.258 0.156 7.84 2.65 13.45
12/8/2020 10:15:00 AM 1.85 35.33 0.155 7.87 2.58 13.48
12/8/2020 10:30:00 AM 1.86 35.348 0.155 7.88 2.52 13.53
12/8/2020 10:45:00 AM 1.9 35.42 0.155 7.89 2.33 13.55
12/8/2020 11:00:00 AM 1.91 35.438 0.155 7.92 2.41 13.59
12/8/2020 11:15:00 AM 1.95 35.51 0.155 7.93 2.43 13.61
12/8/2020 11:30:00 AM 1.99 35.582 0.155 7.93 2.33 13.66
12/8/2020 11:45:00 AM 2.04 35.672 0.155 7.95 2.31 13.69
12/8/2020 12:00:00 PM 2.1 35.78 0.155 7.96 2.28 13.72
12/8/2020 12:15:00 PM 2.14 35.852 0.155 7.96 2.39 13.74
12/8/2020 12:30:00 PM 2.18 35.924 0.155 7.98 2.38 13.77
12/8/2020 12:45:00 PM 2.25 36.05 0.155 7.99 2.44 13.79
12/8/2020 1:00:00 PM 2.3 36.14 0.155 7.99 2.35 13.79
12/8/2020 1:15:00 PM 2.36 36.248 0.155 8.01 2.47 13.79
12/8/2020 1:30:00 PM 2.49 36.482 0.155 8.02 2.41 13.78
12/8/2020 1:45:00 PM 2.51 36.518 0.155 8.03 2.43 13.77
12/8/2020 2:00:00 PM 2.53 36.554 0.155 8.04 2.31 13.72
12/8/2020 2:15:00 PM 2.5 36.5 0.155 8.03 2.43 13.69
12/8/2020 2:30:00 PM 2.47 36.446 0.156 8.03 2.42 13.65
12/8/2020 2:45:00 PM 2.44 36.392 0.156 8 2.39 13.6
12/8/2020 3:00:00 PM 2.42 36.356 0.156 8 2.43 13.55
12/8/2020 3:15:00 PM 2.39 36.302 0.156 8 2.42 13.51
12/8/2020 3:30:00 PM 2.36 36.248 0.156 7.99 2.35 13.45
12/8/2020 3:45:00 PM 2.31 36.158 0.156 7.98 2.36 13.43
12/8/2020 4:00:00 PM 2.27 36.086 0.156 7.97 2.35 13.38
12/8/2020 4:15:00 PM 2.23 36.014 0.157 7.96 2.31 13.32
12/8/2020 4:30:00 PM 2.18 35.924 0.157 7.93 2.39 13.27
12/8/2020 4:45:00 PM 2.12 35.816 0.157 7.91 2.35 13.22
12/8/2020 5:00:00 PM 2.06 35.708 0.157 7.9 2.48 13.18
12/8/2020 5:15:00 PM 2.01 35.618 0.157 7.89 2.41 13.12
12/8/2020 5:30:00 PM 1.95 35.51 0.158 7.87 2.39 13.09
12/8/2020 5:45:00 PM 1.89 35.402 0.158 7.87 2.39 13.09
12/8/2020 6:00:00 PM 1.85 35.33 0.158 7.85 2.45 13.06
12/8/2020 6:15:00 PM 1.81 35.258 0.158 7.84 2.34 13.03
12/8/2020 6:30:00 PM 1.77 35.186 0.158 7.84 2.45 13.02
12/8/2020 6:45:00 PM 1.73 35.114 0.159 7.83 2.42 13.01
12/8/2020 7:00:00 PM 1.67 35.006 0.159 7.82 2.45 13.02
12/8/2020 7:15:00 PM 1.64 34.952 0.159 7.82 2.55 13
12/8/2020 7:30:00 PM 1.59 34.862 0.159 7.8 2.66 13.01
12/8/2020 7:45:00 PM 1.54 34.772 0.159 7.79 2.62 13.01
12/8/2020 8:00:00 PM 1.5 34.7 0.159 7.78 2.59 13
12/8/2020 8:15:00 PM 1.45 34.61 0.159 7.78 2.63 13.02
12/8/2020 8:30:00 PM 1.42 34.556 0.16 7.77 2.68 13.01
12/8/2020 8:45:00 PM 1.4 34.52 0.16 7.78 2.86 13.02
12/8/2020 9:00:00 PM 1.4 34.52 0.16 7.77 2.79 13.01
12/8/2020 9:15:00 PM 1.38 34.484 0.16 7.76 2.81 13.03
12/8/2020 9:30:00 PM 1.34 34.412 0.16 7.76 2.65 13.04
12/8/2020 9:45:00 PM 1.33 34.394 0.16 7.77 2.74 13.03
12/8/2020 10:00:00 PM 1.33 34.394 0.16 7.77 2.6 13.04
12/8/2020 10:15:00 PM 1.33 34.394 0.16 7.77 2.72 13.04
12/8/2020 10:30:00 PM 1.33 34.394 0.16 7.78 2.63 13.04
12/8/2020 10:45:00 PM 1.33 34.394 0.16 7.79 2.69 13.03
12/8/2020 11:00:00 PM 1.35 34.43 0.16 7.78 2.65 13.02
12/8/2020 11:15:00 PM 1.36 34.448 0.16 7.78 2.79 13.01
12/8/2020 11:30:00 PM 1.37 34.466 0.16 7.78 3.11 13.01
12/8/2020 11:45:00 PM 1.37 34.466 0.16 7.78 2.94 13.02
12/9/2020 12:00:00 AM 1.38 34.484 0.16 7.78 2.66 13.02
12/9/2020 12:15:00 AM 1.39 34.502 0.16 7.77 2.62 13.01
12/9/2020 12:30:00 AM 1.4 34.52 0.16 7.77 2.67 13.01
12/9/2020 12:45:00 AM 1.4 34.52 0.161 7.77 2.67 13.02
12/9/2020 1:00:00 AM 1.42 34.556 0.161 7.77 2.91 13
12/9/2020 1:15:00 AM 1.43 34.574 0.161 7.77 2.74 12.98
12/9/2020 1:30:00 AM 1.44 34.592 0.161 7.77 2.73 12.97
12/9/2020 1:45:00 AM 1.45 34.61 0.161 7.78 2.82 12.98
12/9/2020 2:00:00 AM 1.46 34.628 0.161 7.79 2.78 12.97
12/9/2020 2:15:00 AM 1.47 34.646 0.161 7.79 2.53 12.96
12/9/2020 2:30:00 AM 1.48 34.664 0.161 7.77 2.61 12.96
12/9/2020 2:45:00 AM 1.5 34.7 0.161 7.77 2.59 12.94
12/9/2020 3:00:00 AM 1.5 34.7 0.161 7.77 2.76 12.95
12/9/2020 3:15:00 AM 1.51 34.718 0.162 7.77 2.73 12.94
12/9/2020 3:30:00 AM 1.52 34.736 0.162 7.76 2.85 12.94
12/9/2020 3:45:00 AM 1.54 34.772 0.162 7.75 3.04 12.92
12/9/2020 4:00:00 AM 1.55 34.79 0.162 7.76 3.04 12.92
12/9/2020 4:15:00 AM 1.56 34.808 0.162 7.76 3 12.91
12/9/2020 4:30:00 AM 1.57 34.826 0.162 7.77 2.9 12.91
12/9/2020 4:45:00 AM 1.57 34.826 0.162 7.78 2.78 12.91
12/9/2020 5:00:00 AM 1.59 34.862 0.162 7.78 2.73 12.9
12/9/2020 5:15:00 AM 1.6 34.88 0.162 7.78 2.7 12.9
12/9/2020 5:30:00 AM 1.61 34.898 0.162 7.78 2.66 12.88
12/9/2020 5:45:00 AM 1.62 34.916 0.162 7.79 2.64 12.87
12/9/2020 6:00:00 AM 1.64 34.952 0.162 7.78 2.67 12.87
12/9/2020 6:15:00 AM 1.64 34.952 0.162 7.79 2.73 12.85
12/9/2020 6:30:00 AM 1.63 34.934 0.162 7.8 2.52 12.87
12/9/2020 6:45:00 AM 1.65 34.97 0.162 7.78 2.78 12.89
12/9/2020 7:00:00 AM 1.63 34.934 0.162 7.79 2.75 12.87
12/9/2020 7:15:00 AM 1.61 34.898 0.162 7.78 2.8 12.86
12/9/2020 7:30:00 AM 1.52 34.736 0.162 7.78 2.71 12.86
12/9/2020 7:45:00 AM 1.41 34.538 0.162 7.77 2.85 12.85
12/9/2020 8:00:00 AM 1.3 34.34 0.161 7.77 2.6 12.89
12/9/2020 8:15:00 AM 1.26 34.268 0.161 7.77 2.51 12.93
12/9/2020 8:30:00 AM 1.2 34.16 0.161 7.77 2.51 12.96
12/9/2020 8:45:00 AM 1.19 34.142 0.161 7.77 2.56 13.02
12/9/2020 9:00:00 AM 1.18 34.124 0.161 7.79 2.5 13.08
12/9/2020 9:15:00 AM 1.18 34.124 0.16 7.8 2.53 13.12
12/9/2020 9:30:00 AM 1.17 34.106 0.16 7.81 2.48 13.21
12/9/2020 9:45:00 AM 1.14 34.052 0.16 7.82 2.62 13.27
12/9/2020 10:00:00 AM 1.13 34.034 0.16 7.83 2.41 13.35
12/9/2020 10:15:00 AM 1.13 34.034 0.16 7.84 2.5 13.42
12/9/2020 10:30:00 AM 1.12 34.016 0.159 7.85 2.55 13.5
12/9/2020 10:45:00 AM 1.15 34.07 0.159 7.86 2.55 13.56
12/9/2020 11:00:00 AM 1.15 34.07 0.159 7.88 2.53 13.62
12/9/2020 11:15:00 AM 1.15 34.07 0.159 7.89 2.44 13.65
12/9/2020 11:30:00 AM 1.14 34.052 0.159 7.9 2.45 13.69
12/9/2020 11:45:00 AM 1.18 34.124 0.159 7.91 2.46 13.71
12/9/2020 12:00:00 PM 1.21 34.178 0.159 7.92 2.44 13.72
12/9/2020 12:15:00 PM 1.26 34.268 0.159 7.93 2.4 13.74
12/9/2020 12:30:00 PM 1.31 34.358 0.158 7.94 2.47 13.75
12/9/2020 12:45:00 PM 1.34 34.412 0.158 7.95 2.54 13.75
12/9/2020 1:00:00 PM 1.37 34.466 0.158 7.96 2.41 13.76
12/9/2020 1:15:00 PM 1.38 34.484 0.158 7.96 2.46 13.74
12/9/2020 1:30:00 PM 1.41 34.538 0.158 7.97 2.48 13.75
12/9/2020 1:45:00 PM 1.45 34.61 0.158 7.97 2.4 13.74
12/9/2020 2:00:00 PM 1.5 34.7 0.158 7.97 2.33 13.73
12/9/2020 2:15:00 PM 1.55 34.79 0.158 7.99 2.52 13.71
12/9/2020 2:30:00 PM 1.59 34.862 0.158 7.98 2.42 13.67
12/9/2020 2:45:00 PM 1.64 34.952 0.158 7.98 2.48 13.61
12/9/2020 3:00:00 PM 1.67 35.006 0.158 7.98 2.39 13.56
12/9/2020 3:15:00 PM 1.71 35.078 0.159 7.99 2.44 13.52
12/9/2020 3:30:00 PM 1.75 35.15 0.159 7.98 2.48 13.46
12/9/2020 3:45:00 PM 1.79 35.222 0.159 7.98 2.44 13.38
12/9/2020 4:00:00 PM 1.83 35.294 0.159 7.95 2.38 13.31
12/9/2020 4:15:00 PM 1.87 35.366 0.159 7.93 2.48 13.23
12/9/2020 4:30:00 PM 1.9 35.42 0.16 7.92 2.31 13.17
12/9/2020 4:45:00 PM 1.94 35.492 0.16 7.91 2.42 13.1
12/9/2020 5:00:00 PM 1.97 35.546 0.16 7.91 2.28 13.04
12/9/2020 5:15:00 PM 2 35.6 0.16 7.9 2.28 13
12/9/2020 5:30:00 PM 2.03 35.654 0.16 7.9 2.39 12.95
12/9/2020 5:45:00 PM 2.05 35.69 0.16 7.89 2.38 12.91
12/9/2020 6:00:00 PM 2.06 35.708 0.16 7.88 2.49 12.86
12/9/2020 6:15:00 PM 2.07 35.726 0.161 7.89 2.35 12.83
12/9/2020 6:30:00 PM 2.08 35.744 0.161 7.88 2.4 12.81
12/9/2020 6:45:00 PM 2.09 35.762 0.161 7.9 2.38 12.79
12/9/2020 7:00:00 PM 2.1 35.78 0.161 7.92 2.45 12.77
12/9/2020 7:15:00 PM 2.09 35.762 0.161 7.91 2.54 12.76
12/9/2020 7:30:00 PM 2.1 35.78 0.161 7.88 2.64 12.75
12/9/2020 7:45:00 PM 2.13 35.834 0.161 7.88 2.68 12.73
12/9/2020 8:00:00 PM 2.14 35.852 0.161 7.87 2.62 12.72
12/9/2020 8:15:00 PM 2.14 35.852 0.161 7.86 2.54 12.73
12/9/2020 8:30:00 PM 2.17 35.906 0.161 7.85 2.56 12.71
12/9/2020 8:45:00 PM 2.18 35.924 0.161 7.85 2.54 12.7
12/9/2020 9:00:00 PM 2.19 35.942 0.161 7.85 2.48 12.7
12/9/2020 9:15:00 PM 2.21 35.978 0.161 7.85 2.61 12.68
12/9/2020 9:30:00 PM 2.21 35.978 0.161 7.86 2.57 12.69
12/9/2020 9:45:00 PM 2.25 36.05 0.16 7.86 2.53 12.68
12/9/2020 10:00:00 PM 2.26 36.068 0.16 7.85 2.63 12.68
12/9/2020 10:15:00 PM 2.28 36.104 0.16 7.85 2.67 12.67
12/9/2020 10:30:00 PM 2.3 36.14 0.16 7.84 2.75 12.66
12/9/2020 10:45:00 PM 2.32 36.176 0.16 7.84 2.65 12.66
12/9/2020 11:00:00 PM 2.34 36.212 0.16 7.83 2.62 12.65
12/9/2020 11:15:00 PM 2.36 36.248 0.16 7.84 2.76 12.64
12/9/2020 11:30:00 PM 2.37 36.266 0.16 7.84 2.67 12.64
12/9/2020 11:45:00 PM 2.39 36.302 0.16 7.85 3.13 12.64
12/10/2020 12:00:00 AM 2.4 36.32 0.16 7.84 3.13 12.62
12/10/2020 12:15:00 AM 2.42 36.356 0.16 7.85 2.86 12.61
12/10/2020 12:30:00 AM 2.43 36.374 0.161 7.85 2.78 12.61
12/10/2020 12:45:00 AM 2.43 36.374 0.16 7.86 3.01 12.6
12/10/2020 1:00:00 AM 2.45 36.41 0.161 7.87 2.9 12.59
12/10/2020 1:15:00 AM 2.46 36.428 0.161 7.86 3.32 12.6
12/10/2020 1:30:00 AM 2.48 36.464 0.161 7.85 3.25 12.58
12/10/2020 1:45:00 AM 2.48 36.464 0.161 7.84 3.2 12.56
12/10/2020 2:00:00 AM 2.49 36.482 0.161 7.85 3.13 12.58
12/10/2020 2:15:00 AM 2.5 36.5 0.161 7.85 3.03 12.56
12/10/2020 2:30:00 AM 2.53 36.554 0.161 7.85 2.97 12.56
12/10/2020 2:45:00 AM 2.55 36.59 0.161 7.85 2.84 12.55
12/10/2020 3:00:00 AM 2.57 36.626 0.161 7.85 3.04 12.55
12/10/2020 3:15:00 AM 2.59 36.662 0.162 7.86 3.16 12.55
12/10/2020 3:30:00 AM 2.62 36.716 0.162 7.86 2.8 12.54
12/10/2020 3:45:00 AM 2.64 36.752 0.162 7.87 3.1 12.53
12/10/2020 4:00:00 AM 2.64 36.752 0.162 7.87 2.93 12.53
12/10/2020 4:15:00 AM 2.66 36.788 0.162 7.87 3.02 12.52
12/10/2020 4:30:00 AM 2.68 36.824 0.162 7.86 2.81 12.51
12/10/2020 4:45:00 AM 2.69 36.842 0.162 7.86 2.79 12.51
12/10/2020 5:00:00 AM 2.69 36.842 0.162 7.87 2.73 12.52
12/10/2020 5:15:00 AM 2.71 36.878 0.162 7.86 2.79 12.5
12/10/2020 5:30:00 AM 2.73 36.914 0.162 7.85 2.65 12.5
12/10/2020 5:45:00 AM 2.74 36.932 0.163 7.85 2.75 12.5
12/10/2020 6:00:00 AM 2.75 36.95 0.163 7.85 2.75 12.5
12/10/2020 6:15:00 AM 2.77 36.986 0.163 7.85 2.92 12.48
12/10/2020 6:30:00 AM 2.78 37.004 0.163 7.87 2.95 12.49
12/10/2020 6:45:00 AM 2.8 37.04 0.163 7.87 3.14 12.49
12/10/2020 7:00:00 AM 2.81 37.058 0.163 7.86 3 12.48
12/10/2020 7:15:00 AM 2.83 37.094 0.163 7.86 2.97 12.48
12/10/2020 7:30:00 AM 2.85 37.13 0.163 7.86 2.98 12.49
12/10/2020 7:45:00 AM 2.86 37.148 0.163 7.87 3.03 12.5
12/10/2020 8:00:00 AM 2.87 37.166 0.163 7.86 2.92 12.54
12/10/2020 8:15:00 AM 2.89 37.202 0.163 7.88 2.92 12.58
12/10/2020 8:30:00 AM 2.91 37.238 0.163 7.89 2.75 12.63
12/10/2020 8:45:00 AM 2.95 37.31 0.163 7.9 2.83 12.69
12/10/2020 9:00:00 AM 2.97 37.346 0.163 7.91 2.66 12.78
12/10/2020 9:15:00 AM 3 37.4 0.163 7.93 2.77 12.88
12/10/2020 9:30:00 AM 3.05 37.49 0.163 7.95 2.66 12.95
12/10/2020 9:45:00 AM 3.11 37.598 0.163 7.97 2.62 13.02
12/10/2020 10:00:00 AM 3.15 37.67 0.163 8 2.54 13.11
12/10/2020 10:15:00 AM 3.2 37.76 0.163 8.01 2.58 13.16
12/10/2020 10:30:00 AM 3.25 37.85 0.163 8.02 2.54 13.23
12/10/2020 10:45:00 AM 3.32 37.976 0.163 8.04 2.56 13.29
12/10/2020 11:00:00 AM 3.42 38.156 0.162 8.06 2.59 13.34
12/10/2020 11:15:00 AM 3.49 38.282 0.162 8.07 2.55 13.41
12/10/2020 11:30:00 AM 3.56 38.408 0.162 8.08 2.49 13.44
12/10/2020 11:45:00 AM 3.62 38.516 0.162 8.11 2.59 13.48
12/10/2020 12:00:00 PM 3.69 38.642 0.162 8.12 2.45 13.47
12/10/2020 12:15:00 PM 3.74 38.732 0.162 8.13 2.49 13.49
12/10/2020 12:30:00 PM 3.82 38.876 0.162 8.14 2.57 13.48
12/10/2020 12:45:00 PM 3.88 38.984 0.162 8.18 2.5 13.48
12/10/2020 1:00:00 PM 3.93 39.074 0.162 8.18 2.53 13.45
12/10/2020 1:15:00 PM 4 39.2 0.162 8.19 2.4 13.45
12/10/2020 1:30:00 PM 4.04 39.272 0.162 8.19 2.52 13.44
12/10/2020 1:45:00 PM 4.1 39.38 0.162 8.2 2.64 13.42
12/10/2020 2:00:00 PM 4.13 39.434 0.162 8.21 2.59 13.42
12/10/2020 2:15:00 PM 4.14 39.452 0.162 8.22 2.56 13.39
12/10/2020 2:30:00 PM 4.18 39.524 0.162 8.22 2.52 13.35
12/10/2020 2:45:00 PM 4.21 39.578 0.162 8.23 2.48 13.33
12/10/2020 3:00:00 PM 4.22 39.596 0.162 8.22 2.54 13.28
12/10/2020 3:15:00 PM 4.22 39.596 0.162 8.23 2.49 13.26
12/10/2020 3:30:00 PM 4.23 39.614 0.162 8.22 2.58 13.2
12/10/2020 3:45:00 PM 4.22 39.596 0.163 8.21 2.51 13.14
12/10/2020 4:00:00 PM 4.22 39.596 0.163 8.19 2.57 13.05
12/10/2020 4:15:00 PM 4.2 39.56 0.163 8.17 2.51 12.96
12/10/2020 4:30:00 PM 4.19 39.542 0.163 8.15 2.51 12.86
12/10/2020 4:45:00 PM 4.16 39.488 0.164 8.13 2.52 12.78
12/10/2020 5:00:00 PM 4.13 39.434 0.164 8.11 2.51 12.68
12/10/2020 5:15:00 PM 4.09 39.362 0.164 8.1 2.64 12.63
12/10/2020 5:30:00 PM 4.04 39.272 0.164 8.08 2.61 12.57
12/10/2020 5:45:00 PM 4 39.2 0.165 8.06 2.8 12.51
12/10/2020 6:00:00 PM 3.94 39.092 0.165 8.05 2.61 12.48
12/10/2020 6:15:00 PM 3.89 39.002 0.165 8.03 2.68 12.45
12/10/2020 6:30:00 PM 3.83 38.894 0.166 8.01 2.49 12.42
12/10/2020 6:45:00 PM 3.79 38.822 0.166 8 2.58 12.4
12/10/2020 7:00:00 PM 3.75 38.75 0.166 7.99 2.48 12.38
12/10/2020 7:15:00 PM 3.71 38.678 0.166 7.99 2.5 12.38
12/10/2020 7:30:00 PM 3.69 38.642 0.166 7.97 2.58 12.34
12/10/2020 7:45:00 PM 3.65 38.57 0.166 7.97 2.61 12.35
12/10/2020 8:00:00 PM 3.62 38.516 0.167 7.97 2.57 12.36
12/10/2020 8:15:00 PM 3.59 38.462 0.167 7.96 2.59 12.36
12/10/2020 8:30:00 PM 3.55 38.39 0.167 7.95 2.64 12.35
12/10/2020 8:45:00 PM 3.51 38.318 0.167 7.94 2.54 12.37
12/10/2020 9:00:00 PM 3.48 38.264 0.167 7.95 2.54 12.35
12/10/2020 9:15:00 PM 3.46 38.228 0.167 7.94 2.61 12.35
12/10/2020 9:30:00 PM 3.42 38.156 0.167 7.95 2.63 12.35
12/10/2020 9:45:00 PM 3.4 38.12 0.167 7.94 2.84 12.34
12/10/2020 10:00:00 PM 3.35 38.03 0.168 7.93 2.86 12.37
12/10/2020 10:15:00 PM 3.32 37.976 0.168 7.92 2.75 12.37
12/10/2020 10:30:00 PM 3.28 37.904 0.168 7.92 2.74 12.38
12/10/2020 10:45:00 PM 3.24 37.832 0.168 7.93 2.62 12.4
12/10/2020 11:00:00 PM 3.21 37.778 0.168 7.92 2.68 12.4
12/10/2020 11:15:00 PM 3.18 37.724 0.168 7.91 2.8 12.41
12/10/2020 11:30:00 PM 3.15 37.67 0.168 7.9 2.72 12.41
12/10/2020 11:45:00 PM 3.12 37.616 0.168 7.91 2.71 12.44
12/11/2020 12:00:00 AM 3.09 37.562 0.168 7.91 2.62 12.44
12/11/2020 12:15:00 AM 3.06 37.508 0.168 7.9 2.8 12.44
12/11/2020 12:30:00 AM 3.02 37.436 0.168 7.9 2.72 12.47
12/11/2020 12:45:00 AM 2.99 37.382 0.169 7.89 2.8 12.48
12/11/2020 1:00:00 AM 2.95 37.31 0.169 7.91 2.84 12.48
12/11/2020 1:15:00 AM 2.92 37.256 0.169 7.91 2.69 12.5
12/11/2020 1:30:00 AM 2.89 37.202 0.169 7.9 2.75 12.51
12/11/2020 1:45:00 AM 2.85 37.13 0.169 7.89 2.81 12.52
12/11/2020 2:00:00 AM 2.81 37.058 0.169 7.9 2.69 12.52
12/11/2020 2:15:00 AM 2.77 36.986 0.169 7.91 2.8 12.53
12/11/2020 2:30:00 AM 2.74 36.932 0.169 7.9 2.84 12.55
12/11/2020 2:45:00 AM 2.7 36.86 0.17 7.88 2.92 12.55
12/11/2020 3:00:00 AM 2.66 36.788 0.17 7.9 2.74 12.56
12/11/2020 3:15:00 AM 2.63 36.734 0.17 7.89 2.8 12.57
12/11/2020 3:30:00 AM 2.6 36.68 0.17 7.88 2.73 12.59
12/11/2020 3:45:00 AM 2.57 36.626 0.17 7.88 2.69 12.59
12/11/2020 4:00:00 AM 2.54 36.572 0.17 7.88 2.84 12.61
12/11/2020 4:15:00 AM 2.51 36.518 0.171 7.88 2.71 12.63
12/11/2020 4:30:00 AM 2.48 36.464 0.171 7.88 2.76 12.63
12/11/2020 4:45:00 AM 2.46 36.428 0.171 7.89 2.91 12.64
12/11/2020 5:00:00 AM 2.43 36.374 0.171 7.9 2.82 12.64
12/11/2020 5:15:00 AM 2.41 36.338 0.171 7.91 2.78 12.65
12/11/2020 5:30:00 AM 2.36 36.248 0.171 7.9 2.77 12.68
12/11/2020 5:45:00 AM 2.35 36.23 0.171 7.89 2.79 12.69
12/11/2020 6:00:00 AM 2.32 36.176 0.171 7.93 2.68 12.69
12/11/2020 6:15:00 AM 2.3 36.14 0.171 7.93 2.77 12.7
12/11/2020 6:30:00 AM 2.29 36.122 0.171 7.92 2.82 12.7
12/11/2020 6:45:00 AM 2.26 36.068 0.171 7.92 2.8 12.71
12/11/2020 7:00:00 AM 2.25 36.05 0.171 7.92 2.98 12.72
12/11/2020 7:15:00 AM 2.22 35.996 0.172 7.9 2.75 12.73
12/11/2020 7:30:00 AM 2.21 35.978 0.172 7.9 2.81 12.74
12/11/2020 7:45:00 AM 2.19 35.942 0.172 7.91 2.74 12.76
12/11/2020 8:00:00 AM 2.2 35.96 0.172 7.93 2.66 12.82
12/11/2020 8:15:00 AM 2.19 35.942 0.172 7.93 2.78 12.91
12/11/2020 8:30:00 AM 2.22 35.996 0.172 7.94 2.77 12.99
12/11/2020 8:45:00 AM 2.24 36.032 0.172 7.94 2.64 13.08
12/11/2020 9:00:00 AM 2.28 36.104 0.172 7.96 2.69 13.16
12/11/2020 9:15:00 AM 2.33 36.194 0.172 7.98 2.72 13.23
12/11/2020 9:30:00 AM 2.38 36.284 0.172 7.97 2.74 13.28
12/11/2020 9:45:00 AM 2.43 36.374 0.172 7.97 2.64 13.36
12/11/2020 10:00:00 AM 2.49 36.482 0.172 7.99 2.55 13.41
12/11/2020 10:15:00 AM 2.57 36.626 0.171 8 2.49 13.46
12/11/2020 10:30:00 AM 2.61 36.698 0.172 8.03 2.6 13.5
12/11/2020 10:45:00 AM 2.68 36.824 0.171 8.06 2.53 13.53
12/11/2020 11:00:00 AM 2.78 37.004 0.171 8.08 2.62 13.57
12/11/2020 11:15:00 AM 2.9 37.22 0.171 8.1 2.49 13.62
12/11/2020 11:30:00 AM 3.02 37.436 0.171 8.1 2.59 13.65
12/11/2020 11:45:00 AM 3.12 37.616 0.171 8.14 2.44 13.68
12/11/2020 12:00:00 PM 3.23 37.814 0.171 8.16 2.46 13.68
12/11/2020 12:15:00 PM 3.37 38.066 0.17 8.17 2.62 13.67
12/11/2020 12:30:00 PM 3.51 38.318 0.17 8.2 2.43 13.66
12/11/2020 12:45:00 PM 3.67 38.606 0.17 8.21 2.42 13.64
12/11/2020 1:00:00 PM 3.82 38.876 0.17 8.23 2.4 13.6
12/11/2020 1:15:00 PM 3.95 39.11 0.17 8.25 2.46 13.56
12/11/2020 1:30:00 PM 4.06 39.308 0.17 8.24 2.37 13.54
12/11/2020 1:45:00 PM 4.14 39.452 0.17 8.26 2.42 13.51
12/11/2020 2:00:00 PM 4.2 39.56 0.17 8.26 2.38 13.47
12/11/2020 2:15:00 PM 4.25 39.65 0.17 8.25 2.39 13.41
12/11/2020 2:30:00 PM 4.26 39.668 0.17 8.25 2.42 13.33
12/11/2020 2:45:00 PM 4.28 39.704 0.17 8.26 2.41 13.27
12/11/2020 3:00:00 PM 4.29 39.722 0.17 8.25 2.41 13.21
12/11/2020 3:15:00 PM 4.32 39.776 0.17 8.24 2.44 13.17
12/11/2020 3:30:00 PM 4.33 39.794 0.17 8.23 2.44 13.14
12/11/2020 3:45:00 PM 4.31 39.758 0.17 8.23 2.44 13.09
12/11/2020 4:00:00 PM 4.27 39.686 0.17 8.22 2.53 13.03
12/11/2020 4:15:00 PM 4.22 39.596 0.17 8.2 2.51 12.94
12/11/2020 4:30:00 PM 4.17 39.506 0.17 8.18 2.49 12.84
12/11/2020 4:45:00 PM 4.13 39.434 0.17 8.15 2.59 12.73
12/11/2020 5:00:00 PM 4.1 39.38 0.17 8.11 2.7 12.64
12/11/2020 5:15:00 PM 4.06 39.308 0.17 8.09 2.48 12.58
12/11/2020 5:30:00 PM 4.01 39.218 0.171 8.08 2.56 12.54
12/11/2020 5:45:00 PM 3.97 39.146 0.171 8.06 2.63 12.49
12/11/2020 6:00:00 PM 3.92 39.056 0.171 8.05 2.43 12.46
12/11/2020 6:15:00 PM 3.87 38.966 0.171 8.04 2.44 12.43
12/11/2020 6:30:00 PM 3.83 38.894 0.171 8.03 2.46 12.4
12/11/2020 6:45:00 PM 3.78 38.804 0.171 8.03 2.59 12.37
12/11/2020 7:00:00 PM 3.74 38.732 0.171 8.02 2.63 12.35
12/11/2020 7:15:00 PM 3.68 38.624 0.171 8.01 2.58 12.35
12/11/2020 7:30:00 PM 3.65 38.57 0.171 7.98 2.56 12.33
12/11/2020 7:45:00 PM 3.62 38.516 0.171 7.98 2.63 12.32
12/11/2020 8:00:00 PM 3.59 38.462 0.171 7.97 2.66 12.34
12/11/2020 8:15:00 PM 3.57 38.426 0.171 7.98 3 12.32
12/11/2020 8:30:00 PM 3.55 38.39 0.171 7.96 3.01 12.32
12/11/2020 8:45:00 PM 3.53 38.354 0.171 7.95 2.52 12.33
12/11/2020 9:00:00 PM 3.51 38.318 0.171 7.96 2.61 12.33
12/11/2020 9:15:00 PM 3.51 38.318 0.17 7.96 2.6 12.33
12/11/2020 9:30:00 PM 3.51 38.318 0.17 7.94 2.71 12.32
12/11/2020 9:45:00 PM 3.5 38.3 0.17 7.94 2.53 12.32
12/11/2020 10:00:00 PM 3.5 38.3 0.17 7.94 2.5 12.29
12/11/2020 10:15:00 PM 3.5 38.3 0.17 7.95 2.75 12.31
12/11/2020 10:30:00 PM 3.49 38.282 0.17 7.96 2.81 12.31
12/11/2020 10:45:00 PM 3.47 38.246 0.17 7.95 2.78 12.32
12/11/2020 11:00:00 PM 3.47 38.246 0.17 7.94 2.69 12.31
12/11/2020 11:15:00 PM 3.46 38.228 0.17 7.93 2.85 12.31
12/11/2020 11:30:00 PM 3.45 38.21 0.17 7.93 2.81 12.31
12/11/2020 11:45:00 PM 3.43 38.174 0.17 7.93 2.69 12.32
12/12/2020 12:00:00 AM 3.43 38.174 0.17 7.93 3.07 12.31
12/12/2020 12:15:00 AM 3.42 38.156 0.17 7.93 3.08 12.3
12/12/2020 12:30:00 AM 3.41 38.138 0.17 7.92 2.75 12.32
12/12/2020 12:45:00 AM 3.39 38.102 0.17 7.91 2.79 12.3
12/12/2020 1:00:00 AM 3.36 38.048 0.17 7.91 2.7 12.33
12/12/2020 1:15:00 AM 3.35 38.03 0.17 7.92 3.06 12.34
12/12/2020 1:30:00 AM 3.33 37.994 0.17 7.91 2.84 12.34
12/12/2020 1:45:00 AM 3.32 37.976 0.17 7.91 3.34 12.33
12/12/2020 2:00:00 AM 3.31 37.958 0.17 7.92 3.21 12.33
12/12/2020 2:15:00 AM 3.28 37.904 0.17 7.91 3.46 12.36
12/12/2020 2:30:00 AM 3.27 37.886 0.17 7.92 3.76 12.37
12/12/2020 2:45:00 AM 3.25 37.85 0.17 7.91 3.32 12.38
12/12/2020 3:00:00 AM 3.22 37.796 0.17 7.92 3.26 12.39
12/12/2020 3:15:00 AM 3.2 37.76 0.17 7.92 3.4 12.39
12/12/2020 3:30:00 AM 3.17 37.706 0.171 7.92 2.94 12.41
12/12/2020 3:45:00 AM 3.15 37.67 0.171 7.91 3.33 12.4
12/12/2020 4:00:00 AM 3.13 37.634 0.171 7.92 3.56 12.42
12/12/2020 4:15:00 AM 3.12 37.616 0.171 7.92 3.1 12.42
12/12/2020 4:30:00 AM 3.11 37.598 0.171 7.92 3.21 12.43
12/12/2020 4:45:00 AM 3.09 37.562 0.171 7.92 3.11 12.43
12/12/2020 5:00:00 AM 3.08 37.544 0.171 7.92 2.97 12.42
12/12/2020 5:15:00 AM 3.05 37.49 0.171 7.92 2.86 12.45
12/12/2020 5:30:00 AM 3.05 37.49 0.171 7.91 2.86 12.43
12/12/2020 5:45:00 AM 3.05 37.49 0.171 7.91 3.01 12.45
12/12/2020 6:00:00 AM 3.04 37.472 0.171 7.92 3.05 12.46
12/12/2020 6:15:00 AM 3.03 37.454 0.171 7.92 3.11 12.46
12/12/2020 6:30:00 AM 3.04 37.472 0.171 7.92 2.94 12.44
12/12/2020 6:45:00 AM 3.04 37.472 0.171 7.92 2.87 12.45
12/12/2020 7:00:00 AM 3.04 37.472 0.171 7.92 2.95 12.46
12/12/2020 7:15:00 AM 3.06 37.508 0.171 7.91 2.96 12.43
12/12/2020 7:30:00 AM 3.05 37.49 0.171 7.92 2.9 12.46
12/12/2020 7:45:00 AM 3.05 37.49 0.171 7.93 2.79 12.47
12/12/2020 8:00:00 AM 3.07 37.526 0.171 7.93 2.85 12.47
12/12/2020 8:15:00 AM 3.09 37.562 0.171 7.93 2.87 12.51
12/12/2020 8:30:00 AM 3.12 37.616 0.171 7.94 2.89 12.54
12/12/2020 8:45:00 AM 3.12 37.616 0.172 7.97 2.95 12.64
12/12/2020 9:00:00 AM 3.18 37.724 0.171 7.96 2.74 12.61
12/12/2020 9:15:00 AM 3.22 37.796 0.171 7.95 2.81 12.67
12/12/2020 9:30:00 AM 3.25 37.85 0.171 7.98 2.67 12.73
12/12/2020 9:45:00 AM 3.31 37.958 0.171 8 2.76 12.81
12/12/2020 10:00:00 AM 3.35 38.03 0.171 8.02 2.61 12.9
12/12/2020 10:15:00 AM 3.38 38.084 0.171 8.04 2.69 12.94
12/12/2020 10:30:00 AM 3.42 38.156 0.171 8.06 2.73 12.97
12/12/2020 10:45:00 AM 3.45 38.21 0.171 8.09 2.57 13.02
12/12/2020 11:00:00 AM 3.52 38.336 0.171 8.07 2.83 13.02
12/12/2020 11:15:00 AM 3.57 38.426 0.171 8.1 2.73 13.08
12/12/2020 11:30:00 AM 3.66 38.588 0.171 8.1 2.73 13.14
12/12/2020 11:45:00 AM 3.74 38.732 0.17 8.11 2.76 13.18
12/12/2020 12:00:00 PM 3.78 38.804 0.17 8.16 2.56 13.25
12/12/2020 12:15:00 PM 3.9 39.02 0.17 8.17 2.64 13.27
12/12/2020 12:30:00 PM 3.94 39.092 0.17 8.23 2.56 13.31
12/12/2020 12:45:00 PM 4 39.2 0.17 8.25 2.59 13.31
12/12/2020 1:00:00 PM 4.07 39.326 0.17 8.28 2.57 13.31
12/12/2020 1:15:00 PM 4.17 39.506 0.17 8.24 2.53 13.3
12/12/2020 1:30:00 PM 4.23 39.614 0.17 8.25 2.55 13.28
12/12/2020 1:45:00 PM 4.29 39.722 0.169 8.25 2.45 13.24
12/12/2020 2:00:00 PM 4.32 39.776 0.17 8.32 2.5 13.25
12/12/2020 2:15:00 PM 4.42 39.956 0.169 8.27 2.54 13.2
12/12/2020 2:30:00 PM 4.45 40.01 0.17 8.35 2.49 13.22
12/12/2020 2:45:00 PM 4.5 40.1 0.169 8.36 2.43 13.17
12/12/2020 3:00:00 PM 4.57 40.226 0.169 8.33 2.46 13.09
12/12/2020 3:15:00 PM 4.6 40.28 0.169 8.31 2.45 13.03
12/12/2020 3:30:00 PM 4.6 40.28 0.169 8.35 2.45 12.97
12/12/2020 3:45:00 PM 4.62 40.316 0.169 8.34 2.45 12.88
12/12/2020 4:00:00 PM 4.64 40.352 0.169 8.31 2.4 12.77
12/12/2020 4:15:00 PM 4.66 40.388 0.169 8.31 2.47 12.7
12/12/2020 4:30:00 PM 4.7 40.46 0.169 8.25 2.38 12.56
12/12/2020 4:45:00 PM 4.69 40.442 0.169 8.23 2.42 12.51
12/12/2020 5:00:00 PM 4.7 40.46 0.169 8.19 2.43 12.41
12/12/2020 5:15:00 PM 4.68 40.424 0.169 8.2 2.87 12.37
12/12/2020 5:30:00 PM 4.69 40.442 0.169 8.16 2.58 12.29
12/12/2020 5:45:00 PM 4.71 40.478 0.168 8.13 2.55 12.18
12/12/2020 6:00:00 PM 4.7 40.46 0.168 8.11 2.55 12.16
12/12/2020 6:15:00 PM 4.7 40.46 0.168 8.1 2.51 12.13
12/12/2020 6:30:00 PM 4.7 40.46 0.168 8.09 2.58 12.08
12/12/2020 6:45:00 PM 4.7 40.46 0.168 8.07 2.54 12.03
12/12/2020 7:00:00 PM 4.71 40.478 0.167 8.07 2.68 12
12/12/2020 7:15:00 PM 4.69 40.442 0.167 8.07 2.74 12.03
12/12/2020 7:30:00 PM 4.69 40.442 0.167 8.05 3.48 11.98
12/12/2020 7:45:00 PM 4.67 40.406 0.167 8.06 3 12
12/12/2020 8:00:00 PM 4.68 40.424 0.167 8.05 3.07 11.97
12/12/2020 8:15:00 PM 4.67 40.406 0.167 8.06 2.93 11.98
12/12/2020 8:30:00 PM 4.67 40.406 0.167 8.07 3.9 11.97
12/12/2020 8:45:00 PM 4.67 40.406 0.166 8.05 3.75 11.96
12/12/2020 9:00:00 PM 4.67 40.406 0.166 8.05 3.37 11.95
12/12/2020 9:15:00 PM 4.67 40.406 0.166 8.04 3.11 11.95
12/12/2020 9:30:00 PM 4.67 40.406 0.165 8.04 2.95 11.93
12/12/2020 9:45:00 PM 4.67 40.406 0.165 8.03 3.02 11.92
12/12/2020 10:00:00 PM 4.67 40.406 0.165 8.02 3.39 11.93
12/12/2020 10:15:00 PM 4.67 40.406 0.164 8.04 3.43 11.92
12/12/2020 10:30:00 PM 4.67 40.406 0.164 8.02 3.63 11.93
12/12/2020 10:45:00 PM 4.66 40.388 0.164 8.02 3.65 11.92
12/12/2020 11:00:00 PM 4.65 40.37 0.164 8.02 3.8 11.91
12/12/2020 11:15:00 PM 4.64 40.352 0.163 8.03 3.16 11.92
12/12/2020 11:30:00 PM 4.63 40.334 0.163 8.03 3.65 11.92
12/12/2020 11:45:00 PM 4.61 40.298 0.163 8.03 3.71 11.92
12/13/2020 12:00:00 AM 4.6 40.28 0.163 8.02 3.33 11.92
12/13/2020 12:15:00 AM 4.57 40.226 0.163 8.02 3.05 11.92
12/13/2020 12:30:00 AM 4.55 40.19 0.163 8.01 3.27 11.93
12/13/2020 12:45:00 AM 4.52 40.136 0.163 8.01 3.58 11.94
12/13/2020 1:00:00 AM 4.5 40.1 0.163 8 3.88 11.94
12/13/2020 1:15:00 AM 4.47 40.046 0.162 8 3.96 11.95
12/13/2020 1:30:00 AM 4.45 40.01 0.162 8 3.91 11.95
12/13/2020 1:45:00 AM 4.43 39.974 0.162 8.01 3.58 11.97
12/13/2020 2:00:00 AM 4.41 39.938 0.162 8 4.15 11.97
12/13/2020 2:15:00 AM 4.4 39.92 0.162 8 4.22 11.97
12/13/2020 2:30:00 AM 4.41 39.938 0.161 8.01 3.98 11.97
12/13/2020 2:45:00 AM 4.41 39.938 0.161 7.99 4.35 11.98
12/13/2020 3:00:00 AM 4.41 39.938 0.161 8.01 4.18 11.98
12/13/2020 3:15:00 AM 4.41 39.938 0.161 8.01 3.65 11.98
12/13/2020 3:30:00 AM 4.42 39.956 0.161 7.99 3.46 11.99
12/13/2020 3:45:00 AM 4.43 39.974 0.16 7.99 3.43 11.98
12/13/2020 4:00:00 AM 4.44 39.992 0.16 7.98 3.41 11.98
12/13/2020 4:15:00 AM 4.45 40.01 0.16 7.98 3.54 11.97
12/13/2020 4:30:00 AM 4.45 40.01 0.16 7.99 3.76 11.96
12/13/2020 4:45:00 AM 4.45 40.01 0.16 7.99 3.59 11.97
12/13/2020 5:00:00 AM 4.45 40.01 0.159 7.99 3.47 11.96
12/13/2020 5:15:00 AM 4.46 40.028 0.159 8 3.41 11.97
12/13/2020 5:30:00 AM 4.46 40.028 0.159 7.99 3.59 11.96
12/13/2020 5:45:00 AM 4.46 40.028 0.159 7.98 3.6 11.96
12/13/2020 6:00:00 AM 4.45 40.01 0.159 7.98 3.41 11.96
12/13/2020 6:15:00 AM 4.44 39.992 0.159 7.98 3.42 11.96
12/13/2020 6:30:00 AM 4.43 39.974 0.159 7.98 3.58 11.97
12/13/2020 6:45:00 AM 4.42 39.956 0.159 7.98 3.34 11.97
12/13/2020 7:00:00 AM 4.41 39.938 0.159 7.98 3.49 11.97
12/13/2020 7:15:00 AM 4.41 39.938 0.159 7.97 3.57 11.97
12/13/2020 7:30:00 AM 4.42 39.956 0.159 7.98 3.67 11.98
12/13/2020 7:45:00 AM 4.42 39.956 0.159 7.99 3.56 11.99
12/13/2020 8:00:00 AM 4.43 39.974 0.158 7.99 3.39 12.01
12/13/2020 8:15:00 AM 4.46 40.028 0.158 8 3.19 12.04
12/13/2020 8:30:00 AM 4.48 40.064 0.158 8.01 3.21 12.06
12/13/2020 8:45:00 AM 4.52 40.136 0.158 8.01 3.22 12.11
12/13/2020 9:00:00 AM 4.56 40.208 0.158 8.03 3.07 12.19
12/13/2020 9:15:00 AM 4.61 40.298 0.158 8.05 3.13 12.27
12/13/2020 9:30:00 AM 4.66 40.388 0.158 8.07 3.02 12.35
12/13/2020 9:45:00 AM 4.74 40.532 0.157 8.08 3.06 12.42
12/13/2020 10:00:00 AM 4.8 40.64 0.157 8.11 2.97 12.5
12/13/2020 10:15:00 AM 4.88 40.784 0.157 8.12 3.05 12.57
12/13/2020 10:30:00 AM 4.94 40.892 0.157 8.14 2.96 12.62
12/13/2020 10:45:00 AM 4.98 40.964 0.156 8.16 2.99 12.62
12/13/2020 11:00:00 AM 5.03 41.054 0.156 8.17 2.92 12.6
12/13/2020 11:15:00 AM 5.11 41.198 0.156 8.19 2.98 12.64
12/13/2020 11:30:00 AM 5.16 41.288 0.156 8.2 2.85 12.68
12/13/2020 11:45:00 AM 5.22 41.396 0.155 8.22 2.92 12.7
12/13/2020 12:00:00 PM 5.29 41.522 0.155 8.24 2.83 12.73
12/13/2020 12:15:00 PM 5.37 41.666 0.155 8.27 2.76 12.77
12/13/2020 12:30:00 PM 5.4 41.72 0.155 8.29 2.78 12.8
12/13/2020 12:45:00 PM 5.4 41.72 0.154 8.3 2.82 12.79
12/13/2020 1:00:00 PM 5.42 41.756 0.154 8.31 2.77 12.77
12/13/2020 1:15:00 PM 5.45 41.81 0.154 8.31 2.92 12.76
12/13/2020 1:30:00 PM 5.47 41.846 0.154 8.31 2.7 12.76
12/13/2020 1:45:00 PM 5.51 41.918 0.153 8.32 3.1 12.79
12/13/2020 2:00:00 PM 5.51 41.918 0.153 8.34 2.81 12.81
12/13/2020 2:15:00 PM 5.5 41.9 0.153 8.33 2.74 12.78
12/13/2020 2:30:00 PM 5.49 41.882 0.153 8.34 2.79 12.76
12/13/2020 2:45:00 PM 5.49 41.882 0.153 8.33 2.88 12.72
12/13/2020 3:00:00 PM 5.48 41.864 0.153 8.32 2.92 12.69
12/13/2020 3:15:00 PM 5.47 41.846 0.153 8.31 2.86 12.66
12/13/2020 3:30:00 PM 5.46 41.828 0.153 8.31 2.95 12.61
12/13/2020 3:45:00 PM 5.44 41.792 0.152 8.29 2.81 12.56
12/13/2020 4:00:00 PM 5.42 41.756 0.152 8.27 2.81 12.5
12/13/2020 4:15:00 PM 5.41 41.738 0.152 8.26 2.8 12.44
12/13/2020 4:30:00 PM 5.39 41.702 0.152 8.24 2.77 12.36
12/13/2020 4:45:00 PM 5.37 41.666 0.152 8.22 2.7 12.29
12/13/2020 5:00:00 PM 5.34 41.612 0.152 8.2 2.78 12.22
12/13/2020 5:15:00 PM 5.33 41.594 0.152 8.19 2.82 12.17
12/13/2020 5:30:00 PM 5.3 41.54 0.152 8.15 2.8 12.12
12/13/2020 5:45:00 PM 5.27 41.486 0.152 8.13 2.83 12.07
12/13/2020 6:00:00 PM 5.25 41.45 0.152 8.13 3.02 12.04
12/13/2020 6:15:00 PM 5.23 41.414 0.152 8.1 2.92 12
12/13/2020 6:30:00 PM 5.2 41.36 0.152 8.11 2.84 11.99
12/13/2020 6:45:00 PM 5.17 41.306 0.152 8.1 2.9 11.96
12/13/2020 7:00:00 PM 5.15 41.27 0.152 8.08 2.87 11.95
12/13/2020 7:15:00 PM 5.13 41.234 0.152 8.07 3.21 11.92
12/13/2020 7:30:00 PM 5.1 41.18 0.152 8.06 3.01 11.92
12/13/2020 7:45:00 PM 5.08 41.144 0.152 8.06 3.04 11.92
12/13/2020 8:00:00 PM 5.05 41.09 0.152 8.05 3.16 11.92
12/13/2020 8:15:00 PM 5.03 41.054 0.152 8.05 3.14 11.92
12/13/2020 8:30:00 PM 5 41 0.152 8.04 3.1 11.92
12/13/2020 8:45:00 PM 4.98 40.964 0.152 8.03 3.08 11.93
12/13/2020 9:00:00 PM 4.95 40.91 0.152 8.03 3.19 11.92
12/13/2020 9:15:00 PM 4.93 40.874 0.151 8.02 3.4 11.93
12/13/2020 9:30:00 PM 4.91 40.838 0.151 8.02 4.11 11.92
12/13/2020 9:45:00 PM 4.88 40.784 0.151 8.02 4.64 11.93
12/13/2020 10:00:00 PM 4.86 40.748 0.151 8.01 4.93 11.92
12/13/2020 10:15:00 PM 4.83 40.694 0.151 8.01 3.11 11.94
12/13/2020 10:30:00 PM 4.81 40.658 0.151 8.02 3.16 11.94
12/13/2020 10:45:00 PM 4.79 40.622 0.151 8.01 4.04 11.93
12/13/2020 11:00:00 PM 4.76 40.568 0.151 8 3.09 11.95
12/13/2020 11:15:00 PM 4.74 40.532 0.151 8 3.04 11.94
12/13/2020 11:30:00 PM 4.73 40.514 0.151 7.98 3.04 11.94
12/13/2020 11:45:00 PM 4.71 40.478 0.151 7.97 3.91 11.93
12/14/2020 12:00:00 AM 4.69 40.442 0.151 7.97 3.93 11.95
12/14/2020 12:15:00 AM 4.67 40.406 0.151 7.97 3.36 11.94
12/14/2020 12:30:00 AM 4.66 40.388 0.151 7.94 4.25 11.92
12/14/2020 12:45:00 AM 4.64 40.352 0.151 7.95 4.44 11.93
12/14/2020 1:00:00 AM 4.62 40.316 0.151 7.95 3.7 11.93
12/14/2020 1:15:00 AM 4.6 40.28 0.151 7.96 3.22 11.94
12/14/2020 1:30:00 AM 4.59 40.262 0.151 7.97 2.98 11.94
12/14/2020 1:45:00 AM 4.58 40.244 0.151 7.96 3.18 11.92
12/14/2020 2:00:00 AM 4.55 40.19 0.151 7.97 3.09 11.96
12/14/2020 2:15:00 AM 4.55 40.19 0.151 7.96 3.06 11.93
12/14/2020 2:30:00 AM 4.52 40.136 0.151 7.97 3.12 11.97
12/14/2020 2:45:00 AM 4.51 40.118 0.151 7.97 3.15 11.96
12/14/2020 3:00:00 AM 4.5 40.1 0.151 7.97 2.97 11.97
12/14/2020 3:15:00 AM 4.49 40.082 0.151 7.95 3.11 11.93
12/14/2020 3:30:00 AM 4.48 40.064 0.151 7.94 3.09 11.93
12/14/2020 3:45:00 AM 4.47 40.046 0.151 7.95 3.08 11.95
12/14/2020 4:00:00 AM 4.45 40.01 0.151 7.95 3.12 11.97
12/14/2020 4:15:00 AM 4.44 39.992 0.151 7.95 3.38 11.95
12/14/2020 4:30:00 AM 4.43 39.974 0.151 7.95 3.16 11.97
12/14/2020 4:45:00 AM 4.41 39.938 0.152 7.96 3.31 12
12/14/2020 5:00:00 AM 4.4 39.92 0.152 7.96 3.2 11.98
12/14/2020 5:15:00 AM 4.4 39.92 0.151 7.95 3.12 11.96
12/14/2020 5:30:00 AM 4.39 39.902 0.151 7.95 3.18 11.98
12/14/2020 5:45:00 AM 4.39 39.902 0.151 7.95 3.16 11.96
12/14/2020 6:00:00 AM 4.37 39.866 0.151 7.95 3.19 11.97
12/14/2020 6:15:00 AM 4.34 39.812 0.152 7.97 3.14 12.01
12/14/2020 6:30:00 AM 4.33 39.794 0.151 7.95 3.12 11.98
12/14/2020 6:45:00 AM 4.29 39.722 0.152 7.95 3.06 12.01
12/14/2020 7:00:00 AM 4.27 39.686 0.152 7.96 3.07 12.01
12/14/2020 7:15:00 AM 4.25 39.65 0.152 7.95 3.15 12.01
12/14/2020 7:30:00 AM 4.22 39.596 0.152 7.95 3.28 12.02
12/14/2020 7:45:00 AM 4.2 39.56 0.152 7.94 3.35 12.02
12/14/2020 8:00:00 AM 4.19 39.542 0.152 7.95 3.28 12.03
12/14/2020 8:15:00 AM 4.17 39.506 0.152 7.94 2.96 12.08
12/14/2020 8:30:00 AM 4.16 39.488 0.152 7.95 3.16 12.1
12/14/2020 8:45:00 AM 4.14 39.452 0.152 7.96 3.04 12.17
12/14/2020 9:00:00 AM 4.13 39.434 0.152 7.97 2.86 12.22
12/14/2020 9:15:00 AM 4.14 39.452 0.152 7.99 2.82 12.28
12/14/2020 9:30:00 AM 4.12 39.416 0.152 8 2.81 12.34
12/14/2020 9:45:00 AM 4.13 39.434 0.151 8 2.89 12.39
12/14/2020 10:00:00 AM 4.13 39.434 0.152 8.02 2.85 12.46
12/14/2020 10:15:00 AM 4.15 39.47 0.151 8.02 2.69 12.54
12/14/2020 10:30:00 AM 4.18 39.524 0.151 8.04 2.7 12.62
12/14/2020 10:45:00 AM 4.2 39.56 0.151 8.06 2.8 12.7
12/14/2020 11:00:00 AM 4.21 39.578 0.151 8.08 2.74 12.72
12/14/2020 11:15:00 AM 4.22 39.596 0.151 8.12 2.73 12.77
12/14/2020 11:30:00 AM 4.23 39.614 0.151 8.11 2.61 12.77
12/14/2020 11:45:00 AM 4.24 39.632 0.151 8.12 2.68 12.79
12/14/2020 12:00:00 PM 4.28 39.704 0.151 8.11 2.63 12.78
12/14/2020 12:15:00 PM 4.28 39.704 0.151 8.14 2.58 12.82
12/14/2020 12:30:00 PM 4.3 39.74 0.151 8.16 2.71 12.82
12/14/2020 12:45:00 PM 4.33 39.794 0.151 8.13 2.65 12.81
12/14/2020 1:00:00 PM 4.34 39.812 0.151 8.16 2.63 12.82
12/14/2020 1:15:00 PM 4.35 39.83 0.151 8.18 2.62 12.85
12/14/2020 1:30:00 PM 4.36 39.848 0.151 8.2 2.51 12.85
12/14/2020 1:45:00 PM 4.37 39.866 0.151 8.22 2.58 12.87
12/14/2020 2:00:00 PM 4.4 39.92 0.151 8.21 2.61 12.9
12/14/2020 2:15:00 PM 4.42 39.956 0.151 8.17 2.49 12.85
12/14/2020 2:30:00 PM 4.43 39.974 0.151 8.16 2.58 12.81
12/14/2020 2:45:00 PM 4.44 39.992 0.151 8.18 2.61 12.82
12/14/2020 3:00:00 PM 4.44 39.992 0.151 8.19 2.55 12.82
12/14/2020 3:15:00 PM 4.45 40.01 0.151 8.17 2.55 12.77
12/14/2020 3:30:00 PM 4.44 39.992 0.151 8.16 2.61 12.71
12/14/2020 3:45:00 PM 4.42 39.956 0.152 8.18 2.47 12.66
12/14/2020 4:00:00 PM 4.42 39.956 0.152 8.13 2.41 12.57
12/14/2020 4:15:00 PM 4.33 39.794 0.152 8.13 2.55 12.53
12/14/2020 4:30:00 PM 4.3 39.74 0.152 8.13 2.61 12.49
12/14/2020 4:45:00 PM 4.28 39.704 0.152 8.11 2.49 12.43
12/14/2020 5:00:00 PM 4.25 39.65 0.152 8.1 2.47 12.4
12/14/2020 5:15:00 PM 4.21 39.578 0.152 8.08 2.47 12.35
12/14/2020 5:30:00 PM 4.18 39.524 0.152 8.09 2.6 12.31
12/14/2020 5:45:00 PM 4.16 39.488 0.152 8.06 2.44 12.26
12/14/2020 6:00:00 PM 4.11 39.398 0.152 8.04 2.71 12.24
12/14/2020 6:15:00 PM 4.06 39.308 0.152 8.04 2.65 12.24
12/14/2020 6:30:00 PM 4.01 39.218 0.153 8.04 2.6 12.23
12/14/2020 6:45:00 PM 3.97 39.146 0.152 8.02 2.6 12.2
12/14/2020 7:00:00 PM 3.91 39.038 0.153 8.01 2.61 12.23
12/14/2020 7:15:00 PM 3.86 38.948 0.153 7.99 2.67 12.22
12/14/2020 7:30:00 PM 3.81 38.858 0.153 7.98 2.6 12.24
12/14/2020 7:45:00 PM 3.75 38.75 0.153 7.99 2.58 12.26
12/14/2020 8:00:00 PM 3.71 38.678 0.153 7.97 2.65 12.25
12/14/2020 8:15:00 PM 3.65 38.57 0.153 7.97 2.73 12.29
12/14/2020 8:30:00 PM 3.6 38.48 0.153 7.95 2.63 12.27
12/14/2020 8:45:00 PM 3.55 38.39 0.153 7.97 2.68 12.32
12/14/2020 9:00:00 PM 3.5 38.3 0.153 7.96 2.77 12.33
12/14/2020 9:15:00 PM 3.45 38.21 0.153 7.97 2.83 12.34
12/14/2020 9:30:00 PM 3.41 38.138 0.153 7.97 2.82 12.34
12/14/2020 9:45:00 PM 3.39 38.102 0.153 7.96 2.72 12.33
12/14/2020 10:00:00 PM 3.32 37.976 0.154 7.97 2.9 12.38
12/14/2020 10:15:00 PM 3.3 37.94 0.153 7.94 2.87 12.37
12/14/2020 10:30:00 PM 3.26 37.868 0.153 7.94 2.92 12.39
12/14/2020 10:45:00 PM 3.23 37.814 0.154 7.94 2.8 12.39
12/14/2020 11:00:00 PM 3.2 37.76 0.154 7.94 3.03 12.43
12/14/2020 11:15:00 PM 3.15 37.67 0.154 7.94 3.49 12.46
12/14/2020 11:30:00 PM 3.1 37.58 0.154 7.91 3.35 12.46
12/14/2020 11:45:00 PM 3.06 37.508 0.154 7.91 3.12 12.47
12/15/2020 12:00:00 AM 3.03 37.454 0.154 7.92 2.95 12.48
12/15/2020 12:15:00 AM 3 37.4 0.154 7.91 3 12.47
12/15/2020 12:30:00 AM 2.97 37.346 0.154 7.91 2.97 12.49
12/15/2020 12:45:00 AM 2.93 37.274 0.154 7.9 2.88 12.5
12/15/2020 1:00:00 AM 2.88 37.184 0.154 7.91 3.07 12.52
12/15/2020 1:15:00 AM 2.83 37.094 0.154 7.9 3.09 12.52
12/15/2020 1:30:00 AM 2.78 37.004 0.155 7.89 2.93 12.55
12/15/2020 1:45:00 AM 2.74 36.932 0.155 7.89 2.81 12.55
12/15/2020 2:00:00 AM 2.69 36.842 0.155 7.89 3.45 12.59
12/15/2020 2:15:00 AM 2.65 36.77 0.155 7.89 2.89 12.58
12/15/2020 2:30:00 AM 2.61 36.698 0.155 7.89 2.98 12.61
12/15/2020 2:45:00 AM 2.58 36.644 0.155 7.89 3.24 12.62
12/15/2020 3:00:00 AM 2.56 36.608 0.155 7.9 3.32 12.64
12/15/2020 3:15:00 AM 2.53 36.554 0.155 7.9 3.25 12.67
12/15/2020 3:30:00 AM 2.5 36.5 0.155 7.9 3.29 12.68
12/15/2020 3:45:00 AM 2.49 36.482 0.155 7.9 3.23 12.69
12/15/2020 4:00:00 AM 2.46 36.428 0.156 7.9 3.28 12.72
12/15/2020 4:15:00 AM 2.45 36.41 0.156 7.89 3.16 12.71
12/15/2020 4:30:00 AM 2.44 36.392 0.156 7.89 3.23 12.72
12/15/2020 4:45:00 AM 2.43 36.374 0.156 7.88 3.37 12.74
12/15/2020 5:00:00 AM 2.41 36.338 0.156 7.88 3.22 12.75
12/15/2020 5:15:00 AM 2.41 36.338 0.156 7.88 3.16 12.75
12/15/2020 5:30:00 AM 2.4 36.32 0.156 7.88 3.09 12.75
12/15/2020 5:45:00 AM 2.39 36.302 0.156 7.87 3.19 12.74
12/15/2020 6:00:00 AM 2.36 36.248 0.156 7.87 3.01 12.78
12/15/2020 6:15:00 AM 2.34 36.212 0.156 7.88 3.22 12.78
12/15/2020 6:30:00 AM 2.34 36.212 0.156 7.88 3.45 12.79
12/15/2020 6:45:00 AM 2.33 36.194 0.156 7.88 3.31 12.8
12/15/2020 7:00:00 AM 2.32 36.176 0.156 7.87 3.31 12.8
12/15/2020 7:15:00 AM 2.31 36.158 0.156 7.91 3.23 12.8
12/15/2020 7:30:00 AM 2.3 36.14 0.156 7.89 3.16 12.8
12/15/2020 7:45:00 AM 2.25 36.05 0.156 7.89 2.99 12.83
12/15/2020 8:00:00 AM 2.22 35.996 0.156 7.89 2.78 12.86
12/15/2020 8:15:00 AM 2.22 35.996 0.156 7.89 2.85 12.92
12/15/2020 8:30:00 AM 2.22 35.996 0.156 7.91 2.81 13.01
12/15/2020 8:45:00 AM 2.17 35.906 0.156 7.92 2.7 13.05
12/15/2020 9:00:00 AM 2.1 35.78 0.156 7.91 2.7 13.07
12/15/2020 9:15:00 AM 2.08 35.744 0.156 7.91 2.63 13.13
12/15/2020 9:30:00 AM 2.06 35.708 0.156 7.91 2.65 13.2
12/15/2020 9:45:00 AM 2.1 35.78 0.156 7.94 2.5 13.3
12/15/2020 10:00:00 AM 2.13 35.834 0.156 7.96 2.61 13.42
12/15/2020 10:15:00 AM 2.18 35.924 0.156 7.97 2.72 13.53
12/15/2020 10:30:00 AM 2.2 35.96 0.156 8 2.47 13.61
12/15/2020 10:45:00 AM 2.23 36.014 0.155 8.01 2.49 13.69
12/15/2020 11:00:00 AM 2.24 36.032 0.155 8.03 2.58 13.74
12/15/2020 11:15:00 AM 2.3 36.14 0.155 8.05 2.53 13.8
12/15/2020 11:30:00 AM 2.33 36.194 0.155 8.08 2.5 13.85
12/15/2020 11:45:00 AM 2.37 36.266 0.155 8.1 2.54 13.9
12/15/2020 12:00:00 PM 2.39 36.302 0.155 8.11 2.55 13.92
12/15/2020 12:15:00 PM 2.4 36.32 0.155 8.12 2.62 13.93
12/15/2020 12:30:00 PM 2.42 36.356 0.155 8.13 2.52 13.95
12/15/2020 12:45:00 PM 2.44 36.392 0.155 8.15 2.44 13.95
12/15/2020 1:00:00 PM 2.48 36.464 0.155 8.17 2.49 14
12/15/2020 1:15:00 PM 2.53 36.554 0.155 8.18 2.5 14.01
12/15/2020 1:30:00 PM 2.57 36.626 0.155 8.19 2.54 14.02
12/15/2020 1:45:00 PM 2.56 36.608 0.155 8.21 2.46 14.02
12/15/2020 2:00:00 PM 2.57 36.626 0.155 8.21 2.49 14.01
12/15/2020 2:15:00 PM 2.57 36.626 0.155 8.22 2.44 13.99
12/15/2020 2:30:00 PM 2.55 36.59 0.155 8.22 2.44 13.96
12/15/2020 2:45:00 PM 2.55 36.59 0.155 8.19 7.41 13.93
12/15/2020 3:00:00 PM 2.56 36.608 0.155 8.2 3.18 13.92
12/15/2020 3:15:00 PM 2.56 36.608 0.155 8.21 3.72 13.92
12/15/2020 3:30:00 PM 2.53 36.554 0.155 8.21 3.62 13.89
12/15/2020 3:45:00 PM 2.52 36.536 0.155 8.2 2.61 13.87
12/15/2020 4:00:00 PM 2.49 36.482 0.155 8.18 3.28 13.8
12/15/2020 4:15:00 PM 2.45 36.41 0.156 8.17 4.19 13.71
12/15/2020 4:30:00 PM 2.41 36.338 0.156 8.14 4.32 13.63
12/15/2020 4:45:00 PM 2.37 36.266 0.156 8.11 4.98 13.54
12/15/2020 5:00:00 PM 2.32 36.176 0.156 8.1 2.8 13.49
12/15/2020 5:15:00 PM 2.28 36.104 0.156 8.08 2.38 13.42
12/15/2020 5:30:00 PM 2.23 36.014 0.156 8.06 2.66 13.39
12/15/2020 5:45:00 PM 2.18 35.924 0.156 8.05 2.58 13.34
12/15/2020 6:00:00 PM 2.11 35.798 0.157 8.03 2.62 13.3
12/15/2020 6:15:00 PM 2.06 35.708 0.157 8.02 2.6 13.27
12/15/2020 6:30:00 PM 2.01 35.618 0.157 8.01 2.7 13.23
12/15/2020 6:45:00 PM 1.96 35.528 0.157 7.99 2.38 13.22
12/15/2020 7:00:00 PM 1.91 35.438 0.157 7.98 2.74 13.2
12/15/2020 7:15:00 PM 1.86 35.348 0.157 7.97 2.61 13.2
12/15/2020 7:30:00 PM 1.83 35.294 0.157 7.96 2.49 13.18
12/15/2020 7:45:00 PM 1.78 35.204 0.157 7.95 2.5 13.18
12/15/2020 8:00:00 PM 1.73 35.114 0.157 7.94 2.62 13.21
12/15/2020 8:15:00 PM 1.69 35.042 0.157 7.93 2.6 13.2
12/15/2020 8:30:00 PM 1.65 34.97 0.157 7.93 2.67 13.22
12/15/2020 8:45:00 PM 1.6 34.88 0.157 7.93 2.72 13.22
12/15/2020 9:00:00 PM 1.57 34.826 0.157 7.92 2.66 13.22
12/15/2020 9:15:00 PM 1.53 34.754 0.157 7.92 2.73 13.22
12/15/2020 9:30:00 PM 1.49 34.682 0.157 7.92 2.64 13.22
12/15/2020 9:45:00 PM 1.45 34.61 0.157 7.91 2.92 13.24
12/15/2020 10:00:00 PM 1.4 34.52 0.157 7.91 2.99 13.24
12/15/2020 10:15:00 PM 1.36 34.448 0.157 7.91 2.72 13.25
12/15/2020 10:30:00 PM 1.32 34.376 0.157 7.9 2.79 13.26
12/15/2020 10:45:00 PM 1.29 34.322 0.157 7.9 2.91 13.28
12/15/2020 11:00:00 PM 1.25 34.25 0.157 7.89 2.96 13.29
12/15/2020 11:15:00 PM 1.22 34.196 0.158 7.89 3.07 13.31
12/15/2020 11:30:00 PM 1.19 34.142 0.158 7.89 3 13.3
12/15/2020 11:45:00 PM 1.15 34.07 0.158 7.89 2.79 13.33
12/16/2020 12:00:00 AM 1.13 34.034 0.158 7.9 2.78 13.33
12/16/2020 12:15:00 AM 1.1 33.98 0.158 7.9 2.9 13.35
12/16/2020 12:30:00 AM 1.06 33.908 0.158 7.89 3.18 13.37
12/16/2020 12:45:00 AM 1.04 33.872 0.158 7.89 2.93 13.37
12/16/2020 1:00:00 AM 1.01 33.818 0.158 7.89 2.66 13.38
12/16/2020 1:15:00 AM 0.98 33.764 0.159 7.88 2.78 13.39
12/16/2020 1:30:00 AM 0.96 33.728 0.159 7.88 2.98 13.41
12/16/2020 1:45:00 AM 0.92 33.656 0.159 7.88 2.84 13.41
12/16/2020 2:00:00 AM 0.9 33.62 0.159 7.88 2.74 13.42
12/16/2020 2:15:00 AM 0.87 33.566 0.159 7.88 2.88 13.43
12/16/2020 2:30:00 AM 0.82 33.476 0.159 7.87 3.67 13.45
12/16/2020 2:45:00 AM 0.79 33.422 0.16 7.87 4.07 13.45
12/16/2020 3:00:00 AM 0.75 33.35 0.16 7.88 3.27 13.47
12/16/2020 3:15:00 AM 0.73 33.314 0.16 7.87 4.13 13.47
12/16/2020 3:30:00 AM 0.72 33.296 0.16 7.88 3.67 13.49
12/16/2020 3:45:00 AM 0.69 33.242 0.16 7.87 3.99 13.51
12/16/2020 4:00:00 AM 0.67 33.206 0.16 7.87 3.97 13.5
12/16/2020 4:15:00 AM 0.64 33.152 0.16 7.87 4.37 13.52
12/16/2020 4:30:00 AM 0.64 33.152 0.16 7.87 3.08 13.53
12/16/2020 4:45:00 AM 0.62 33.116 0.16 7.87 3.35 13.52
12/16/2020 5:00:00 AM 0.59 33.062 0.16 7.87 3 13.55
12/16/2020 5:15:00 AM 0.57 33.026 0.16 7.87 3.11 13.55
12/16/2020 5:30:00 AM 0.56 33.008 0.16 7.87 2.92 13.56
12/16/2020 5:45:00 AM 0.54 32.972 0.16 7.86 3.58 13.55
12/16/2020 6:00:00 AM 0.54 32.972 0.16 7.86 3.29 13.57
12/16/2020 6:15:00 AM 0.53 32.954 0.16 7.86 3.33 13.56
12/16/2020 6:30:00 AM 0.5 32.9 0.16 7.86 3.56 13.57
12/16/2020 6:45:00 AM 0.5 32.9 0.16 7.86 3.26 13.57
12/16/2020 7:00:00 AM 0.49 32.882 0.16 7.86 3.25 13.58
12/16/2020 7:15:00 AM 0.48 32.864 0.16 7.87 3.44 13.59
12/16/2020 7:30:00 AM 0.48 32.864 0.16 7.87 3.19 13.59
12/16/2020 7:45:00 AM 0.46 32.828 0.16 7.88 2.89 13.6
12/16/2020 8:00:00 AM 0.46 32.828 0.16 7.88 2.85 13.63
12/16/2020 8:15:00 AM 0.46 32.828 0.16 7.89 2.79 13.65
12/16/2020 8:30:00 AM 0.47 32.846 0.16 7.9 2.68 13.68
12/16/2020 8:45:00 AM 0.48 32.864 0.16 7.9 2.61 13.73
12/16/2020 9:00:00 AM 0.49 32.882 0.16 7.9 2.5 13.78
12/16/2020 9:15:00 AM 0.52 32.936 0.16 7.91 2.52 13.84
12/16/2020 9:30:00 AM 0.55 32.99 0.16 7.94 2.6 13.95
12/16/2020 9:45:00 AM 0.61 33.098 0.16 7.95 2.66 14.04
12/16/2020 10:00:00 AM 0.65 33.17 0.16 7.97 2.55 14.13
12/16/2020 10:15:00 AM 0.68 33.224 0.159 7.98 2.59 14.17
12/16/2020 10:30:00 AM 0.73 33.314 0.159 7.99 2.4 14.24
12/16/2020 10:45:00 AM 0.78 33.404 0.159 8.01 2.53 14.28
12/16/2020 11:00:00 AM 0.84 33.512 0.159 8.02 2.47 14.32
12/16/2020 11:15:00 AM 0.89 33.602 0.159 8.05 2.44 14.36
12/16/2020 11:30:00 AM 0.95 33.71 0.159 8.06 2.49 14.4
12/16/2020 11:45:00 AM 1 33.8 0.158 8.08 2.44 14.42
12/16/2020 12:00:00 PM 1.04 33.872 0.158 8.1 2.46 14.42
12/16/2020 12:15:00 PM 1.06 33.908 0.158 8.1 2.48 14.38
12/16/2020 12:30:00 PM 1.08 33.944 0.158 8.1 2.49 14.34
12/16/2020 12:45:00 PM 1.11 33.998 0.158 8.11 2.45 14.26
12/16/2020 1:00:00 PM 1.11 33.998 0.158 8.11 2.51 14.22
12/16/2020 1:15:00 PM 1.12 34.016 0.158 8.1 2.49 14.21
12/16/2020 1:30:00 PM 1.11 33.998 0.158 8.1 2.45 14.19
12/16/2020 1:45:00 PM 1.08 33.944 0.158 8.1 2.38 14.17
12/16/2020 2:00:00 PM 1.05 33.89 0.158 8.1 2.91 14.17
12/16/2020 2:15:00 PM 1.02 33.836 0.158 8.1 2.42 14.14
12/16/2020 2:30:00 PM 0.99 33.782 0.158 8.1 2.49 14.13
12/16/2020 2:45:00 PM 0.99 33.782 0.157 8.09 2.51 14.08
12/16/2020 3:00:00 PM 0.96 33.728 0.157 8.08 2.49 14.05
12/16/2020 3:15:00 PM 0.91 33.638 0.158 8.07 2.54 14
12/16/2020 3:30:00 PM 0.84 33.512 0.158 8.06 2.52 13.96
12/16/2020 3:45:00 PM 0.78 33.404 0.157 8.02 2.42 13.9
12/16/2020 4:00:00 PM 0.72 33.296 0.157 8.01 2.46 13.86
12/16/2020 4:15:00 PM 0.66 33.188 0.157 8 2.37 13.84
12/16/2020 4:30:00 PM 0.6 33.08 0.157 7.99 2.51 13.83
12/16/2020 4:45:00 PM 0.55 32.99 0.157 7.98 2.46 13.8
12/16/2020 5:00:00 PM 0.51 32.918 0.157 7.96 2.62 13.74
12/16/2020 5:15:00 PM 0.43 32.774 0.157 7.96 2.47 13.75
12/16/2020 5:30:00 PM 0.32 32.576 0.157 7.95 2.37 13.75
12/16/2020 5:45:00 PM 0.24 32.432 0.157 7.94 2.53 13.73
12/16/2020 6:00:00 PM 0.17 32.306 0.157 7.93 2.69 13.72
12/16/2020 6:15:00 PM 0.08 32.144 0.157 7.92 2.74 13.72
12/16/2020 6:30:00 PM 0.02 32.036 0.157 7.91 3.36 13.71
12/16/2020 6:45:00 PM -0.03 31.946 0.157 7.9 2.59 13.72
12/16/2020 7:00:00 PM -0.06 31.892 0.157 7.9 2.68 13.73
12/16/2020 7:15:00 PM -0.07 31.874 0.157 7.9 2.62 13.73
12/16/2020 7:30:00 PM -0.08 31.856 0.157 7.89 2.97 13.74
12/16/2020 7:45:00 PM -0.07 31.874 0.157 7.88 3.22 13.71
12/16/2020 8:00:00 PM -0.09 31.838 0.157 7.88 3.02 13.74
12/16/2020 8:15:00 PM -0.07 31.874 0.157 7.85 4.84 13.68
12/16/2020 8:30:00 PM -0.07 31.874 0.157 7.86 4.17 13.67
12/16/2020 8:45:00 PM -0.11 31.802 0.158 7.88 4.15 13.76
12/16/2020 9:00:00 PM -0.05 31.91 0.157 7.84 4.06 13.65
12/16/2020 9:15:00 PM -0.08 31.856 0.157 7.83 5.59 13.62
12/16/2020 9:30:00 PM 0.06 32.108 0.156 7.75 4.76 13.3
12/16/2020 9:45:00 PM 0.08 32.144 0.157 7.71 4.23 13.24
12/16/2020 10:00:00 PM 0.06 32.108 0.157 7.7 4.33 13.21
12/16/2020 10:15:00 PM 0.07 32.126 0.158 7.7 4.33 13.19
12/16/2020 10:30:00 PM 0.08 32.144 0.158 7.69 3.46 13.09
12/16/2020 10:45:00 PM 0.14 32.252 0.158 7.64 3.44 12.89
12/16/2020 11:00:00 PM 0.17 32.306 0.158 7.6 3.37 12.63
12/16/2020 11:15:00 PM 0.16 32.288 0.159 7.59 3.31 12.54
12/16/2020 11:30:00 PM 0.15 32.27 0.159 7.57 3.52 12.4
12/16/2020 11:45:00 PM 0.14 32.252 0.159 7.55 3.31 12.35
12/17/2020 12:00:00 AM 0.15 32.27 0.159 7.54 3.3 12.32
12/17/2020 12:15:00 AM 0.1 32.18 0.159 7.54 3.3 12.34
12/17/2020 12:30:00 AM 0.14 32.252 0.16 7.54 3.04 12.28
12/17/2020 12:45:00 AM 0.18 32.324 0.159 7.52 3.14 12.18
12/17/2020 1:00:00 AM 0.19 32.342 0.16 7.52 3.15 12.14
12/17/2020 1:15:00 AM 0.1 32.18 0.16 7.53 3.46 12.25
12/17/2020 1:30:00 AM 0.1 32.18 0.16 7.54 3.27 12.16
12/17/2020 1:45:00 AM 0.11 32.198 0.16 7.52 3.32 12.15
12/17/2020 2:00:00 AM 0.02 32.036 0.16 7.53 3.32 12.33
12/17/2020 2:15:00 AM 0.04 32.072 0.16 7.55 3.52 12.33
12/17/2020 2:30:00 AM 0 32 0.16 7.56 3.42 12.37
12/17/2020 2:45:00 AM 0.08 32.144 0.16 7.55 3.42 12.21
12/17/2020 3:00:00 AM 0.04 32.072 0.159 7.52 3.42 12.2
12/17/2020 3:15:00 AM 0.06 32.108 0.159 7.53 3.46 12.15
12/17/2020 3:30:00 AM 0.08 32.144 0.16 7.52 3.31 12.1
12/17/2020 3:45:00 AM 0.09 32.162 0.16 7.52 3.36 12.06
12/17/2020 4:00:00 AM 0.16 32.288 0.16 7.51 3.16 11.92
12/17/2020 4:15:00 AM 0.22 32.396 0.16 7.49 2.95 11.77
12/17/2020 4:30:00 AM 0.26 32.468 0.16 7.48 2.92 11.62
12/17/2020 4:45:00 AM 0.28 32.504 0.16 7.46 3.29 11.49
12/17/2020 5:00:00 AM 0.31 32.558 0.16 7.44 2.83 11.32
12/17/2020 5:15:00 AM 0.3 32.54 0.161 7.43 3.06 11.22
12/17/2020 5:30:00 AM 0.28 32.504 0.161 7.41 2.96 11.03
12/17/2020 5:45:00 AM 0.22 32.396 0.161 7.39 3.15 10.89
12/17/2020 6:00:00 AM 0.16 32.288 0.161 7.39 3.25 10.85
12/17/2020 6:15:00 AM 0.14 32.252 0.161 7.39 3.12 10.89
12/17/2020 6:30:00 AM 0.1 32.18 0.161 7.4 3.01 11.04
12/17/2020 6:45:00 AM 0.1 32.18 0.161 7.4 3.32 11.16
12/17/2020 7:00:00 AM 0.08 32.144 0.161 7.41 3.35 11.28
12/17/2020 7:15:00 AM 0.07 32.126 0.16 7.42 3.33 11.4
12/17/2020 7:30:00 AM 0.05 32.09 0.16 7.44 3.49 11.55
12/17/2020 7:45:00 AM 0.04 32.072 0.161 7.44 3.62 11.64
12/17/2020 8:00:00 AM 0.03 32.054 0.161 7.45 3.28 11.76
12/17/2020 8:15:00 AM 0.08 32.144 0.161 7.45 3.43 11.7
12/17/2020 8:30:00 AM 0.06 32.108 0.161 7.47 4.08 11.95
12/17/2020 8:45:00 AM 0.01 32.018 0.161 7.53 4.64 12.41
12/17/2020 9:00:00 AM -0.01 31.982 0.161 7.57 4.01 12.57
12/17/2020 9:15:00 AM 0 32 0.161 7.56 4.19 12.61
12/17/2020 9:30:00 AM 0 32 0.161 7.58 4.09 12.71
12/17/2020 9:45:00 AM 0.01 32.018 0.161 7.58 4.14 12.74
12/17/2020 10:00:00 AM 0.05 32.09 0.16 7.59 4.16 12.86
12/17/2020 10:15:00 AM 0.07 32.126 0.16 7.6 3.81 12.94
12/17/2020 10:30:00 AM -0.03 31.946 0.16 7.62 4.39 13.05
12/17/2020 10:45:00 AM -0.01 31.982 0.16 7.64 4.21 13.1
12/17/2020 11:00:00 AM 0.01 32.018 0.16 7.64 4.21 13.12
12/17/2020 11:15:00 AM 0.01 32.018 0.159 7.65 5.04 13.19
12/17/2020 11:30:00 AM -0.01 31.982 0.159 7.66 4.31 13.25
12/17/2020 11:45:00 AM 0 32 0.159 7.66 4.69 13.27
12/17/2020 12:00:00 PM -0.01 31.982 0.159 7.68 4.52 13.33
12/17/2020 12:15:00 PM -0.01 31.982 0.159 7.68 3.81 13.35
12/17/2020 12:30:00 PM -0.01 31.982 0.159 7.68 3.95 13.41
12/17/2020 12:45:00 PM 0.01 32.018 0.159 7.68 4.15 13.39
12/17/2020 1:00:00 PM 0.01 32.018 0.159 7.69 3.85 13.42
12/17/2020 1:15:00 PM 0 32 0.16 7.7 3.62 13.48
12/17/2020 1:30:00 PM 0.01 32.018 0.16 7.71 3.66 13.52
12/17/2020 1:45:00 PM -0.01 31.982 0.161 7.72 3.67 13.57
12/17/2020 2:00:00 PM -0.03 31.946 0.161 7.73 3.62 13.6
12/17/2020 2:15:00 PM -0.02 31.964 0.161 7.73 3.37 13.6
12/17/2020 2:30:00 PM -0.01 31.982 0.162 7.73 3.39 13.62
12/17/2020 2:45:00 PM 0 32 0.162 7.73 3.48 13.61
12/17/2020 3:00:00 PM -0.02 31.964 0.162 7.74 3.74 13.64
12/17/2020 3:15:00 PM -0.03 31.946 0.163 7.75 3.61 13.65
12/17/2020 3:30:00 PM -0.05 31.91 0.163 7.76 3.57 13.66
12/17/2020 3:45:00 PM -0.06 31.892 0.164 7.76 3.42 13.66
12/17/2020 4:00:00 PM -0.07 31.874 0.164 7.78 3.64 13.68
12/17/2020 4:15:00 PM -0.07 31.874 0.164 7.77 3.4 13.66
12/17/2020 4:30:00 PM -0.07 31.874 0.164 7.78 3.87 13.65
12/17/2020 4:45:00 PM -0.08 31.856 0.164 7.78 3.71 13.63
12/17/2020 5:00:00 PM -0.07 31.874 0.165 7.78 3.38 13.61
12/17/2020 5:15:00 PM -0.05 31.91 0.165 7.77 3.51 13.57
12/17/2020 5:30:00 PM -0.05 31.91 0.165 7.77 3.48 13.55
12/17/2020 5:45:00 PM -0.04 31.928 0.165 7.77 3.24 13.53
12/17/2020 6:00:00 PM -0.05 31.91 0.165 7.76 3.25 13.53
12/17/2020 6:15:00 PM -0.05 31.91 0.165 7.77 3.23 13.52
12/17/2020 6:30:00 PM -0.06 31.892 0.166 7.77 3.3 13.5
12/17/2020 6:45:00 PM -0.04 31.928 0.166 7.77 3.43 13.48
12/17/2020 7:00:00 PM -0.04 31.928 0.166 7.77 3.84 13.44
12/17/2020 7:15:00 PM -0.04 31.928 0.166 7.76 3.73 13.44
12/17/2020 7:30:00 PM -0.07 31.874 0.167 7.77 3.79 13.45
12/17/2020 7:45:00 PM -0.05 31.91 0.166 7.77 4.14 13.42
12/17/2020 8:00:00 PM -0.07 31.874 0.167 7.77 3.97 13.44
12/17/2020 8:15:00 PM -0.08 31.856 0.167 7.78 3.91 13.44
12/17/2020 8:30:00 PM -0.07 31.874 0.166 7.77 4.06 13.42
12/17/2020 8:45:00 PM -0.07 31.874 0.166 7.78 4.09 13.4
12/17/2020 9:00:00 PM -0.07 31.874 0.166 7.77 3.92 13.41
12/17/2020 9:15:00 PM -0.07 31.874 0.165 7.77 4.16 13.4
12/17/2020 9:30:00 PM -0.08 31.856 0.165 7.75 3.67 13.42
12/17/2020 9:45:00 PM -0.07 31.874 0.164 7.75 3.84 13.41
12/17/2020 10:00:00 PM -0.07 31.874 0.163 7.75 3.76 13.4
12/17/2020 10:15:00 PM -0.07 31.874 0.162 7.76 4.06 13.42
12/17/2020 10:30:00 PM -0.07 31.874 0.161 7.76 4.13 13.41
12/17/2020 10:45:00 PM -0.07 31.874 0.16 7.75 3.9 13.41
12/17/2020 11:00:00 PM -0.07 31.874 0.159 7.75 3.86 13.42
12/17/2020 11:15:00 PM -0.07 31.874 0.158 7.75 3.86 13.42
12/17/2020 11:30:00 PM -0.07 31.874 0.157 7.75 4.27 13.42
12/17/2020 11:45:00 PM -0.07 31.874 0.156 7.75 4.33 13.42
12/18/2020 12:00:00 AM -0.07 31.874 0.155 7.74 4.03 13.42
12/18/2020 12:15:00 AM -0.07 31.874 0.154 7.74 4.21 13.42
12/18/2020 12:30:00 AM -0.09 31.838 0.154 7.74 4.18 13.42
12/18/2020 12:45:00 AM -0.09 31.838 0.153 7.74 4.59 13.42
12/18/2020 1:00:00 AM -0.09 31.838 0.152 7.73 3.99 13.42
12/18/2020 1:15:00 AM -0.09 31.838 0.152 7.73 4.06 13.43
12/18/2020 1:30:00 AM -0.09 31.838 0.151 7.74 4.2 13.43
12/18/2020 1:45:00 AM -0.09 31.838 0.151 7.73 4.13 13.42
12/18/2020 2:00:00 AM -0.09 31.838 0.151 7.72 3.66 13.41
12/18/2020 2:15:00 AM -0.09 31.838 0.15 7.73 3.76 13.41
12/18/2020 2:30:00 AM -0.09 31.838 0.15 7.72 3.77 13.41
12/18/2020 2:45:00 AM -0.09 31.838 0.15 7.73 3.94 13.41
12/18/2020 3:00:00 AM -0.09 31.838 0.15 7.72 4.06 13.41
12/18/2020 3:15:00 AM -0.09 31.838 0.15 7.73 4.12 13.41
12/18/2020 3:30:00 AM -0.09 31.838 0.151 7.73 3.97 13.41
12/18/2020 3:45:00 AM -0.09 31.838 0.151 7.73 3.95 13.41
12/18/2020 4:00:00 AM -0.09 31.838 0.151 7.72 3.96 13.42
12/18/2020 4:15:00 AM -0.09 31.838 0.151 7.72 3.99 13.42
12/18/2020 4:30:00 AM -0.09 31.838 0.152 7.72 3.9 13.41
12/18/2020 4:45:00 AM -0.09 31.838 0.152 7.72 4.04 13.41
12/18/2020 5:00:00 AM -0.09 31.838 0.152 7.73 4.1 13.42
12/18/2020 5:15:00 AM -0.09 31.838 0.153 7.73 4.28 13.43
12/18/2020 5:30:00 AM -0.09 31.838 0.153 7.73 4.17 13.43
12/18/2020 5:45:00 AM -0.09 31.838 0.153 7.73 4.04 13.44
12/18/2020 6:00:00 AM -0.09 31.838 0.154 7.73 3.98 13.44
12/18/2020 6:15:00 AM -0.09 31.838 0.154 7.74 4.11 13.44
12/18/2020 6:30:00 AM -0.09 31.838 0.154 7.74 4.1 13.44
12/18/2020 6:45:00 AM -0.09 31.838 0.154 7.74 4.03 13.43
12/18/2020 7:00:00 AM -0.09 31.838 0.155 7.74 4.13 13.44
12/18/2020 7:15:00 AM -0.09 31.838 0.155 7.75 4.03 13.44
12/18/2020 7:30:00 AM -0.09 31.838 0.155 7.74 3.62 13.42
12/18/2020 7:45:00 AM -0.09 31.838 0.156 7.74 3.72 13.44
12/18/2020 8:00:00 AM -0.09 31.838 0.156 7.75 3.98 13.45
12/18/2020 8:15:00 AM -0.09 31.838 0.156 7.76 3.97 13.48
12/18/2020 8:30:00 AM -0.09 31.838 0.156 7.75 4.4 13.48
12/18/2020 8:45:00 AM -0.09 31.838 0.156 7.75 3.89 13.5
12/18/2020 9:00:00 AM -0.09 31.838 0.156 7.76 3.91 13.52
12/18/2020 9:15:00 AM -0.08 31.856 0.156 7.76 3.84 13.54
12/18/2020 9:30:00 AM -0.08 31.856 0.156 7.77 3.64 13.56
12/18/2020 9:45:00 AM -0.08 31.856 0.156 7.76 3.65 13.57
12/18/2020 10:00:00 AM -0.08 31.856 0.156 7.77 3.5 13.62
12/18/2020 10:15:00 AM -0.08 31.856 0.155 7.78 3.7 13.65
12/18/2020 10:30:00 AM -0.08 31.856 0.155 7.78 3.55 13.69
12/18/2020 10:45:00 AM -0.08 31.856 0.155 7.79 3.59 13.73
12/18/2020 11:00:00 AM -0.08 31.856 0.155 7.79 3.56 13.76
12/18/2020 11:15:00 AM -0.08 31.856 0.155 7.8 3.52 13.78
12/18/2020 11:30:00 AM -0.05 31.91 0.154 7.8 3.62 13.79
12/18/2020 11:45:00 AM -0.07 31.874 0.154 7.8 3.55 13.86
12/18/2020 12:00:00 PM -0.07 31.874 0.154 7.81 3.4 13.89
12/18/2020 12:15:00 PM -0.07 31.874 0.154 7.82 3.5 13.93
12/18/2020 12:30:00 PM -0.07 31.874 0.153 7.83 3.56 13.98
12/18/2020 12:45:00 PM -0.07 31.874 0.153 7.83 3.24 13.99
12/18/2020 1:00:00 PM -0.05 31.91 0.153 7.84 3.48 14.04
12/18/2020 1:15:00 PM -0.04 31.928 0.153 7.84 3.6 14.07
12/18/2020 1:30:00 PM -0.01 31.982 0.152 7.85 3.53 14.07
12/18/2020 1:45:00 PM -0.04 31.928 0.152 7.84 3.2 14.09
12/18/2020 2:00:00 PM -0.03 31.946 0.152 7.86 3.52 14.12
12/18/2020 2:15:00 PM -0.05 31.91 0.152 7.86 3.37 14.14
12/18/2020 2:30:00 PM -0.07 31.874 0.152 7.86 3.55 14.15
12/18/2020 2:45:00 PM -0.08 31.856 0.152 7.86 3.47 14.13
12/18/2020 3:00:00 PM -0.08 31.856 0.152 7.87 3.4 14.13
12/18/2020 3:15:00 PM -0.04 31.928 0.152 7.86 3.36 14.08
12/18/2020 3:30:00 PM -0.08 31.856 0.152 7.86 3.36 14.1
12/18/2020 3:45:00 PM -0.05 31.91 0.152 7.85 3.38 14.03
12/18/2020 4:00:00 PM -0.04 31.928 0.152 7.84 3.26 14.01
12/18/2020 4:15:00 PM -0.06 31.892 0.152 7.84 3.31 14.01
12/18/2020 4:30:00 PM -0.05 31.91 0.152 7.84 3.42 13.97
12/18/2020 4:45:00 PM -0.05 31.91 0.152 7.83 3.29 13.93
12/18/2020 5:00:00 PM -0.04 31.928 0.152 7.82 3.26 13.89
12/18/2020 5:15:00 PM -0.04 31.928 0.152 7.82 3.39 13.84
12/18/2020 5:30:00 PM -0.03 31.946 0.152 7.81 3.23 13.82
12/18/2020 5:45:00 PM -0.05 31.91 0.153 7.81 3.17 13.8
12/18/2020 6:00:00 PM -0.04 31.928 0.153 7.8 3.04 13.77
12/18/2020 6:15:00 PM -0.04 31.928 0.153 7.79 3.13 13.77
12/18/2020 6:30:00 PM -0.03 31.946 0.153 7.79 3.19 13.73
12/18/2020 6:45:00 PM -0.04 31.928 0.153 7.79 3.09 13.73
12/18/2020 7:00:00 PM -0.03 31.946 0.153 7.77 3.02 13.7
12/18/2020 7:15:00 PM -0.04 31.928 0.153 7.78 3.2 13.69
12/18/2020 7:30:00 PM -0.04 31.928 0.153 7.77 3.19 13.67
12/18/2020 7:45:00 PM -0.04 31.928 0.153 7.77 3.16 13.65
12/18/2020 8:00:00 PM -0.04 31.928 0.153 7.78 3.16 13.65
12/18/2020 8:15:00 PM -0.04 31.928 0.153 7.77 3.23 13.64
12/18/2020 8:30:00 PM -0.04 31.928 0.154 7.77 3.49 13.64
12/18/2020 8:45:00 PM -0.04 31.928 0.154 7.76 3.34 13.63
12/18/2020 9:00:00 PM -0.04 31.928 0.154 7.75 3.23 13.64
12/18/2020 9:15:00 PM -0.04 31.928 0.154 7.76 3.03 13.62
12/18/2020 9:30:00 PM -0.04 31.928 0.154 7.75 3.27 13.61
12/18/2020 9:45:00 PM -0.04 31.928 0.154 7.75 3.19 13.61
12/18/2020 10:00:00 PM -0.04 31.928 0.154 7.75 3.24 13.62
12/18/2020 10:15:00 PM -0.04 31.928 0.154 7.74 3.15 13.62
12/18/2020 10:30:00 PM -0.04 31.928 0.154 7.74 3.1 13.63
12/18/2020 10:45:00 PM -0.04 31.928 0.154 7.75 3.32 13.61
12/18/2020 11:00:00 PM -0.04 31.928 0.154 7.75 3.07 13.61
12/18/2020 11:15:00 PM -0.04 31.928 0.154 7.75 2.97 13.61
12/18/2020 11:30:00 PM -0.03 31.946 0.155 7.75 2.94 13.6
12/18/2020 11:45:00 PM -0.04 31.928 0.155 7.74 3.32 13.6
12/19/2020 12:00:00 AM -0.03 31.946 0.155 7.74 3.31 13.58
12/19/2020 12:15:00 AM -0.04 31.928 0.155 7.75 3.57 13.59
12/19/2020 12:30:00 AM -0.03 31.946 0.155 7.74 3.36 13.58
12/19/2020 12:45:00 AM -0.04 31.928 0.156 7.74 3.47 13.59
12/19/2020 1:00:00 AM -0.03 31.946 0.156 7.74 3.24 13.6
12/19/2020 1:15:00 AM -0.03 31.946 0.156 7.74 3.35 13.6
12/19/2020 1:30:00 AM -0.03 31.946 0.156 7.75 3.46 13.59
12/19/2020 1:45:00 AM -0.03 31.946 0.156 7.75 3.31 13.58
12/19/2020 2:00:00 AM -0.03 31.946 0.157 7.74 3.15 13.58
12/19/2020 2:15:00 AM -0.02 31.964 0.157 7.74 3.18 13.56
12/19/2020 2:30:00 AM -0.03 31.946 0.157 7.75 3.11 13.58
12/19/2020 2:45:00 AM -0.02 31.964 0.157 7.74 3.3 13.56
12/19/2020 3:00:00 AM -0.02 31.964 0.157 7.73 3.28 13.57
12/19/2020 3:15:00 AM -0.02 31.964 0.157 7.73 3.47 13.56
12/19/2020 3:30:00 AM -0.03 31.946 0.158 7.73 3.22 13.57
12/19/2020 3:45:00 AM -0.02 31.964 0.158 7.72 3.19 13.56
12/19/2020 4:00:00 AM -0.03 31.946 0.158 7.72 3.43 13.55
12/19/2020 4:15:00 AM -0.02 31.964 0.158 7.72 3.37 13.55
12/19/2020 4:30:00 AM -0.03 31.946 0.158 7.73 3.39 13.55
12/19/2020 4:45:00 AM -0.01 31.982 0.159 7.71 3.35 13.53
12/19/2020 5:00:00 AM -0.02 31.964 0.159 7.72 3.43 13.54
12/19/2020 5:15:00 AM -0.01 31.982 0.159 7.72 3.42 13.53
12/19/2020 5:30:00 AM -0.02 31.964 0.159 7.72 3.31 13.54
12/19/2020 5:45:00 AM -0.02 31.964 0.159 7.71 3.47 13.53
12/19/2020 6:00:00 AM -0.02 31.964 0.16 7.71 3.46 13.53
12/19/2020 6:15:00 AM -0.02 31.964 0.16 7.72 3.44 13.52
12/19/2020 6:30:00 AM -0.02 31.964 0.16 7.72 3.1 13.53
12/19/2020 6:45:00 AM -0.02 31.964 0.16 7.71 3.28 13.52
12/19/2020 7:00:00 AM -0.02 31.964 0.16 7.71 3.39 13.52
12/19/2020 7:15:00 AM -0.02 31.964 0.161 7.71 3.35 13.51
12/19/2020 7:30:00 AM -0.02 31.964 0.161 7.72 3.28 13.52
12/19/2020 7:45:00 AM -0.02 31.964 0.161 7.72 3.22 13.52
12/19/2020 8:00:00 AM -0.02 31.964 0.161 7.71 3.28 13.54
12/19/2020 8:15:00 AM -0.01 31.982 0.161 7.72 3.27 13.55
12/19/2020 8:30:00 AM 0 32 0.161 7.72 3.12 13.57
12/19/2020 8:45:00 AM 0 32 0.161 7.72 3.18 13.63
12/19/2020 9:00:00 AM -0.01 31.982 0.162 7.73 2.99 13.66
12/19/2020 9:15:00 AM 0 32 0.162 7.74 3.03 13.72
12/19/2020 9:30:00 AM 0 32 0.162 7.75 3.18 13.77
12/19/2020 9:45:00 AM -0.01 31.982 0.162 7.71 3.01 13.8
12/19/2020 10:00:00 AM 0 32 0.162 7.71 2.96 13.83
12/19/2020 10:15:00 AM 0 32 0.162 7.72 2.94 13.89
12/19/2020 10:30:00 AM 0 32 0.162 7.73 3.01 13.92
12/19/2020 10:45:00 AM 0.01 32.018 0.162 7.75 3.02 13.95
12/19/2020 11:00:00 AM 0.03 32.054 0.161 7.75 3.07 13.97
12/19/2020 11:15:00 AM 0.04 32.072 0.161 7.76 3.22 13.99
12/19/2020 11:30:00 AM 0.01 32.018 0.161 7.77 3.24 14.08
12/19/2020 11:45:00 AM 0 32 0.161 7.79 3.41 14.15
12/19/2020 12:00:00 PM -0.02 31.964 0.161 7.8 3.49 14.2
12/19/2020 12:15:00 PM -0.02 31.964 0.161 7.81 3.29 14.25
12/19/2020 12:30:00 PM -0.02 31.964 0.16 7.82 3.63 14.27
12/19/2020 12:45:00 PM -0.03 31.946 0.16 7.84 3.61 14.3
12/19/2020 1:00:00 PM -0.03 31.946 0.16 7.85 3.43 14.32
12/19/2020 1:15:00 PM -0.04 31.928 0.16 7.87 3.32 14.36
12/19/2020 1:30:00 PM -0.02 31.964 0.16 7.85 3.58 14.36
12/19/2020 1:45:00 PM 0 32 0.159 7.85 3.28 14.37
12/19/2020 2:00:00 PM 0.01 32.018 0.159 7.86 3.32 14.36
12/19/2020 2:15:00 PM -0.02 31.964 0.159 7.86 3.38 14.36
12/19/2020 2:30:00 PM 0 32 0.159 7.86 3.19 14.35
12/19/2020 2:45:00 PM -0.03 31.946 0.159 7.87 3.18 14.36
12/19/2020 3:00:00 PM -0.02 31.964 0.159 7.87 3.15 14.33
12/19/2020 3:15:00 PM -0.03 31.946 0.159 7.87 3.18 14.33
12/19/2020 3:30:00 PM -0.03 31.946 0.159 7.87 3.12 14.31
12/19/2020 3:45:00 PM -0.03 31.946 0.159 7.87 3.35 14.27
12/19/2020 4:00:00 PM -0.04 31.928 0.159 7.87 3.1 14.24
12/19/2020 4:15:00 PM -0.04 31.928 0.159 7.87 3.1 14.2
12/19/2020 4:30:00 PM -0.05 31.91 0.159 7.87 3.34 14.15
12/19/2020 4:45:00 PM -0.05 31.91 0.159 7.86 3.18 14.09
12/19/2020 5:00:00 PM -0.04 31.928 0.159 7.87 3.16 14.04
12/19/2020 5:15:00 PM -0.04 31.928 0.159 7.86 3.3 13.99
12/19/2020 5:30:00 PM -0.05 31.91 0.16 7.86 3.21 13.95
12/19/2020 5:45:00 PM -0.04 31.928 0.16 7.84 3.18 13.91
12/19/2020 6:00:00 PM -0.05 31.91 0.16 7.84 3.03 13.89
12/19/2020 6:15:00 PM -0.05 31.91 0.16 7.84 3.28 13.85
12/19/2020 6:30:00 PM -0.05 31.91 0.16 7.83 3.22 13.81
12/19/2020 6:45:00 PM -0.05 31.91 0.161 7.83 3.34 13.77
12/19/2020 7:00:00 PM -0.04 31.928 0.161 7.82 3.28 13.73
12/19/2020 7:15:00 PM -0.03 31.946 0.161 7.81 3.17 13.69
12/19/2020 7:30:00 PM -0.03 31.946 0.161 7.8 3.34 13.67
12/19/2020 7:45:00 PM -0.02 31.964 0.161 7.8 3.35 13.63
12/19/2020 8:00:00 PM -0.03 31.946 0.161 7.8 3.22 13.61
12/19/2020 8:15:00 PM -0.03 31.946 0.161 7.8 3.29 13.59
12/19/2020 8:30:00 PM -0.03 31.946 0.161 7.78 3.41 13.58
12/19/2020 8:45:00 PM -0.02 31.964 0.161 7.78 3.31 13.56
12/19/2020 9:00:00 PM -0.03 31.946 0.161 7.78 3.43 13.56
12/19/2020 9:15:00 PM -0.04 31.928 0.16 7.78 3.32 13.54
12/19/2020 9:30:00 PM -0.03 31.946 0.16 7.78 3.53 13.53
12/19/2020 9:45:00 PM -0.04 31.928 0.16 7.78 3.38 13.54
12/19/2020 10:00:00 PM -0.04 31.928 0.159 7.78 3.31 13.52
12/19/2020 10:15:00 PM -0.04 31.928 0.159 7.77 3.24 13.5
12/19/2020 10:30:00 PM -0.04 31.928 0.159 7.77 3.48 13.51
12/19/2020 10:45:00 PM -0.04 31.928 0.159 7.77 3.38 13.49
12/19/2020 11:00:00 PM -0.04 31.928 0.158 7.77 3.65 13.49
12/19/2020 11:15:00 PM -0.03 31.946 0.158 7.77 3.43 13.5
12/19/2020 11:30:00 PM -0.03 31.946 0.158 7.77 3.39 13.49
12/19/2020 11:45:00 PM -0.03 31.946 0.157 7.77 3.66 13.47
12/20/2020 12:00:00 AM -0.03 31.946 0.157 7.77 3.44 13.48
12/20/2020 12:15:00 AM -0.03 31.946 0.157 7.76 3.53 13.48
12/20/2020 12:30:00 AM -0.04 31.928 0.157 7.77 3.56 13.47
12/20/2020 12:45:00 AM -0.04 31.928 0.157 7.77 3.63 13.48
12/20/2020 1:00:00 AM -0.04 31.928 0.157 7.76 3.51 13.46
12/20/2020 1:15:00 AM -0.04 31.928 0.157 7.77 3.58 13.49
12/20/2020 1:30:00 AM -0.05 31.91 0.158 7.77 3.66 13.48
12/20/2020 1:45:00 AM -0.04 31.928 0.158 7.77 3.57 13.48
12/20/2020 2:00:00 AM -0.03 31.946 0.158 7.77 3.4 13.47
12/20/2020 2:15:00 AM -0.04 31.928 0.159 7.77 3.59 13.46
12/20/2020 2:30:00 AM -0.04 31.928 0.159 7.77 3.47 13.47
12/20/2020 2:45:00 AM -0.04 31.928 0.159 7.78 3.79 13.47
12/20/2020 3:00:00 AM -0.03 31.946 0.16 7.78 3.45 13.46
12/20/2020 3:15:00 AM -0.04 31.928 0.16 7.78 3.59 13.47
12/20/2020 3:30:00 AM -0.04 31.928 0.161 7.78 3.7 13.47
12/20/2020 3:45:00 AM -0.06 31.892 0.161 7.79 3.81 13.5
12/20/2020 4:00:00 AM -0.04 31.928 0.161 7.79 3.53 13.46
12/20/2020 4:15:00 AM -0.04 31.928 0.162 7.78 3.58 13.46
12/20/2020 4:30:00 AM -0.03 31.946 0.162 7.77 3.54 13.46
12/20/2020 4:45:00 AM -0.03 31.946 0.162 7.78 3.36 13.45
12/20/2020 5:00:00 AM -0.03 31.946 0.163 7.78 3.67 13.45
12/20/2020 5:15:00 AM -0.03 31.946 0.163 7.78 3.64 13.45
12/20/2020 5:30:00 AM -0.03 31.946 0.163 7.79 3.46 13.44
12/20/2020 5:45:00 AM -0.03 31.946 0.163 7.79 3.7 13.43
12/20/2020 6:00:00 AM -0.03 31.946 0.163 7.8 3.74 13.44
12/20/2020 6:15:00 AM -0.03 31.946 0.164 7.79 3.69 13.44
12/20/2020 6:30:00 AM -0.03 31.946 0.164 7.79 3.71 13.43
12/20/2020 6:45:00 AM -0.07 31.874 0.164 7.81 3.37 13.49
12/20/2020 7:00:00 AM -0.08 31.856 0.164 7.82 3.53 13.49
12/20/2020 7:15:00 AM -0.07 31.874 0.164 7.82 3.64 13.49
12/20/2020 7:30:00 AM -0.07 31.874 0.164 7.82 3.47 13.5
12/20/2020 7:45:00 AM -0.07 31.874 0.164 7.82 3.3 13.49
12/20/2020 8:00:00 AM -0.03 31.946 0.164 7.81 3.35 13.44
12/20/2020 8:15:00 AM -0.02 31.964 0.164 7.81 3.36 13.44
12/20/2020 8:30:00 AM -0.02 31.964 0.164 7.81 3.34 13.46
12/20/2020 8:45:00 AM -0.01 31.982 0.164 7.81 3.17 13.47
12/20/2020 9:00:00 AM -0.02 31.964 0.164 7.82 3.27 13.5
12/20/2020 9:15:00 AM -0.01 31.982 0.164 7.81 3.19 13.51
12/20/2020 9:30:00 AM -0.02 31.964 0.164 7.82 3.2 13.54
12/20/2020 9:45:00 AM -0.01 31.982 0.163 7.82 3.18 13.56
12/20/2020 10:00:00 AM -0.01 31.982 0.163 7.83 3.01 13.6
12/20/2020 10:15:00 AM -0.01 31.982 0.163 7.83 3.09 13.64
12/20/2020 10:30:00 AM -0.01 31.982 0.163 7.82 3.15 13.66
12/20/2020 10:45:00 AM -0.02 31.964 0.163 7.83 3.09 13.68
12/20/2020 11:00:00 AM -0.03 31.946 0.163 7.85 3.3 13.7
12/20/2020 11:15:00 AM -0.04 31.928 0.162 7.85 3.11 13.71
12/20/2020 11:30:00 AM -0.03 31.946 0.162 7.85 3.02 13.72
12/20/2020 11:45:00 AM -0.03 31.946 0.162 7.86 2.89 13.76
12/20/2020 12:00:00 PM -0.03 31.946 0.162 7.87 3 13.78
12/20/2020 12:15:00 PM -0.02 31.964 0.162 7.88 2.84 13.8
12/20/2020 12:30:00 PM -0.01 31.982 0.161 7.88 2.95 13.81
12/20/2020 12:45:00 PM -0.02 31.964 0.161 7.9 2.94 13.83
12/20/2020 1:00:00 PM -0.02 31.964 0.161 7.9 2.9 13.84
12/20/2020 1:15:00 PM -0.02 31.964 0.161 7.9 2.87 13.85
12/20/2020 1:30:00 PM -0.01 31.982 0.16 7.91 2.9 13.86
12/20/2020 1:45:00 PM -0.02 31.964 0.16 7.9 2.95 13.85
12/20/2020 2:00:00 PM -0.02 31.964 0.16 7.9 2.91 13.84
12/20/2020 2:15:00 PM -0.03 31.946 0.16 7.91 2.89 13.84
12/20/2020 2:30:00 PM -0.02 31.964 0.16 7.9 2.94 13.84
12/20/2020 2:45:00 PM -0.02 31.964 0.16 7.91 2.91 13.83
12/20/2020 3:00:00 PM -0.02 31.964 0.16 7.9 3.01 13.8
12/20/2020 3:15:00 PM -0.02 31.964 0.159 7.91 2.94 13.78
12/20/2020 3:30:00 PM -0.02 31.964 0.159 7.9 2.86 13.74
12/20/2020 3:45:00 PM -0.01 31.982 0.159 7.89 3.05 13.71
12/20/2020 4:00:00 PM -0.02 31.964 0.159 7.9 2.97 13.69
12/20/2020 4:15:00 PM -0.01 31.982 0.159 7.89 2.88 13.67
12/20/2020 4:30:00 PM -0.01 31.982 0.159 7.89 2.88 13.65
12/20/2020 4:45:00 PM -0.01 31.982 0.159 7.88 2.89 13.62
12/20/2020 5:00:00 PM -0.01 31.982 0.159 7.89 2.98 13.59
12/20/2020 5:15:00 PM -0.01 31.982 0.159 7.88 3.01 13.55
12/20/2020 5:30:00 PM -0.01 31.982 0.159 7.88 3.09 13.5
12/20/2020 5:45:00 PM -0.01 31.982 0.159 7.88 3.14 13.49
12/20/2020 6:00:00 PM -0.01 31.982 0.159 7.88 3.07 13.47
12/20/2020 6:15:00 PM -0.01 31.982 0.159 7.88 3.14 13.44
12/20/2020 6:30:00 PM 0 32 0.159 7.87 3.12 13.42
12/20/2020 6:45:00 PM 0 32 0.159 7.87 3.07 13.39
12/20/2020 7:00:00 PM 0 32 0.159 7.89 3.14 13.38
12/20/2020 7:15:00 PM 0.01 32.018 0.159 7.89 3.06 13.35
12/20/2020 7:30:00 PM 0.01 32.018 0.159 7.87 3.04 13.35
12/20/2020 7:45:00 PM 0.01 32.018 0.159 7.85 3.09 13.33
12/20/2020 8:00:00 PM 0.02 32.036 0.159 7.85 3.13 13.32
12/20/2020 8:15:00 PM 0.02 32.036 0.159 7.85 3.18 13.32
12/20/2020 8:30:00 PM 0.03 32.054 0.159 7.84 3.17 13.29
12/20/2020 8:45:00 PM 0 32 0.159 7.85 3.19 13.33
12/20/2020 9:00:00 PM 0.04 32.072 0.159 7.84 3.27 13.27
12/20/2020 9:15:00 PM 0.02 32.036 0.159 7.85 3.25 13.32
12/20/2020 9:30:00 PM 0.03 32.054 0.159 7.85 3.34 13.3
12/20/2020 9:45:00 PM 0.03 32.054 0.159 7.85 3.23 13.3
12/20/2020 10:00:00 PM 0.07 32.126 0.159 7.84 3.06 13.25
12/20/2020 10:15:00 PM 0.04 32.072 0.159 7.85 3.09 13.28
12/20/2020 10:30:00 PM 0.05 32.09 0.159 7.86 3.2 13.3
12/20/2020 10:45:00 PM 0.09 32.162 0.159 7.84 3.24 13.25
12/20/2020 11:00:00 PM 0.06 32.108 0.159 7.85 3.18 13.28
12/20/2020 11:15:00 PM 0.07 32.126 0.159 7.86 3.23 13.28
12/20/2020 11:30:00 PM 0.1 32.18 0.159 7.85 3.15 13.25
12/20/2020 11:45:00 PM 0.08 32.144 0.159 7.85 3.25 13.27
12/21/2020 12:00:00 AM 0.09 32.162 0.159 7.86 3.2 13.27
12/21/2020 12:15:00 AM 0.1 32.18 0.159 7.86 3.18 13.27
12/21/2020 12:30:00 AM 0.11 32.198 0.159 7.86 3.21 13.27
12/21/2020 12:45:00 AM 0.13 32.234 0.159 7.86 3.22 13.27
12/21/2020 1:00:00 AM 0.14 32.252 0.159 7.86 3.34 13.25
12/21/2020 1:15:00 AM 0.15 32.27 0.159 7.86 3.27 13.27
12/21/2020 1:30:00 AM 0.17 32.306 0.16 7.87 3.19 13.25
12/21/2020 1:45:00 AM 0.17 32.306 0.16 7.86 3.23 13.25
12/21/2020 2:00:00 AM 0.19 32.342 0.16 7.86 3.13 13.24
12/21/2020 2:15:00 AM 0.2 32.36 0.16 7.87 3.15 13.24
12/21/2020 2:30:00 AM 0.21 32.378 0.16 7.88 3.17 13.23
12/21/2020 2:45:00 AM 0.23 32.414 0.16 7.88 3.14 13.24
12/21/2020 3:00:00 AM 0.25 32.45 0.16 7.88 3.21 13.22
12/21/2020 3:15:00 AM 0.26 32.468 0.16 7.88 3.21 13.22
12/21/2020 3:30:00 AM 0.31 32.558 0.16 7.87 3.16 13.18
12/21/2020 3:45:00 AM 0.31 32.558 0.16 7.87 3.11 13.2
12/21/2020 4:00:00 AM 0.32 32.576 0.16 7.88 3.22 13.22
12/21/2020 4:15:00 AM 0.34 32.612 0.16 7.88 3.19 13.21
12/21/2020 4:30:00 AM 0.36 32.648 0.16 7.89 3.18 13.2
12/21/2020 4:45:00 AM 0.38 32.684 0.16 7.89 3.2 13.19
12/21/2020 5:00:00 AM 0.4 32.72 0.16 7.89 3.25 13.2
12/21/2020 5:15:00 AM 0.42 32.756 0.16 7.89 3.33 13.19
12/21/2020 5:30:00 AM 0.44 32.792 0.16 7.88 3.44 13.19
12/21/2020 5:45:00 AM 0.46 32.828 0.16 7.89 3.43 13.19
12/21/2020 6:00:00 AM 0.48 32.864 0.16 7.89 3.18 13.18
12/21/2020 6:15:00 AM 0.5 32.9 0.161 7.89 3.24 13.18
12/21/2020 6:30:00 AM 0.51 32.918 0.161 7.89 3.08 13.17
12/21/2020 6:45:00 AM 0.53 32.954 0.161 7.9 3.19 13.17
12/21/2020 7:00:00 AM 0.55 32.99 0.161 7.89 3.13 13.17
12/21/2020 7:15:00 AM 0.55 32.99 0.161 7.89 3.09 13.16
12/21/2020 7:30:00 AM 0.56 33.008 0.161 7.89 3.21 13.16
12/21/2020 7:45:00 AM 0.56 33.008 0.161 7.9 3.1 13.17
12/21/2020 8:00:00 AM 0.59 33.062 0.161 7.89 3.05 13.18
12/21/2020 8:15:00 AM 0.6 33.08 0.161 7.9 3.14 13.2
12/21/2020 8:30:00 AM 0.63 33.134 0.161 7.91 3.06 13.22
12/21/2020 8:45:00 AM 0.66 33.188 0.161 7.92 3.05 13.26
12/21/2020 9:00:00 AM 0.68 33.224 0.161 7.92 2.9 13.3
12/21/2020 9:15:00 AM 0.7 33.26 0.161 7.93 2.89 13.34
12/21/2020 9:30:00 AM 0.73 33.314 0.161 7.94 2.98 13.39
12/21/2020 9:45:00 AM 0.76 33.368 0.161 7.94 3.16 13.42
12/21/2020 10:00:00 AM 0.79 33.422 0.161 7.96 3.02 13.49
12/21/2020 10:15:00 AM 0.87 33.566 0.16 7.94 3.01 13.47
12/21/2020 10:30:00 AM 0.89 33.602 0.16 7.94 2.87 13.51
12/21/2020 10:45:00 AM 0.94 33.692 0.16 7.98 2.97 13.58
12/21/2020 11:00:00 AM 1 33.8 0.16 7.97 3.94 13.59
12/21/2020 11:15:00 AM 1.04 33.872 0.16 7.97 3.81 13.58
12/21/2020 11:30:00 AM 1.09 33.962 0.159 7.99 4.09 13.6
12/21/2020 11:45:00 AM 1.16 34.088 0.159 8.02 4.01 13.62
12/21/2020 12:00:00 PM 1.23 34.214 0.159 8.01 3.22 13.6
12/21/2020 12:15:00 PM 1.29 34.322 0.159 8.02 2.98 13.61
12/21/2020 12:30:00 PM 1.36 34.448 0.159 8.06 3.36 13.61
12/21/2020 12:45:00 PM 1.42 34.556 0.159 8.04 2.95 13.59
12/21/2020 1:00:00 PM 1.45 34.61 0.159 8.05 2.87 13.59
12/21/2020 1:15:00 PM 1.49 34.682 0.159 8.08 2.93 13.59
12/21/2020 1:30:00 PM 1.54 34.772 0.159 8.07 2.92 13.58
12/21/2020 1:45:00 PM 1.61 34.898 0.159 8.09 3.12 13.56
12/21/2020 2:00:00 PM 1.65 34.97 0.159 8.11 2.97 13.55
12/21/2020 2:15:00 PM 1.69 35.042 0.159 8.11 3.06 13.51
12/21/2020 2:30:00 PM 1.74 35.132 0.159 8.09 2.98 13.48
12/21/2020 2:45:00 PM 1.78 35.204 0.159 8.09 3.08 13.46
12/21/2020 3:00:00 PM 1.8 35.24 0.159 8.13 2.84 13.45
12/21/2020 3:15:00 PM 1.81 35.258 0.159 8.11 3.1 13.43
12/21/2020 3:30:00 PM 1.85 35.33 0.159 8.11 2.97 13.4
12/21/2020 3:45:00 PM 1.89 35.402 0.159 8.09 2.85 13.35
12/21/2020 4:00:00 PM 1.88 35.384 0.159 8.09 2.89 13.31
12/21/2020 4:15:00 PM 1.92 35.456 0.159 8.08 2.9 13.24
12/21/2020 4:30:00 PM 1.94 35.492 0.159 8.1 2.85 13.22
12/21/2020 4:45:00 PM 1.95 35.51 0.16 8.1 2.95 13.17
12/21/2020 5:00:00 PM 1.95 35.51 0.16 8.08 2.97 13.12
12/21/2020 5:15:00 PM 1.95 35.51 0.16 8.09 3.07 13.1
12/21/2020 5:30:00 PM 1.96 35.528 0.16 8.07 3.04 13.07
12/21/2020 5:45:00 PM 1.97 35.546 0.16 8.06 2.95 13.04
12/21/2020 6:00:00 PM 1.97 35.546 0.16 8.05 2.88 12.99
12/21/2020 6:15:00 PM 1.97 35.546 0.16 8.04 2.88 12.96
12/21/2020 6:30:00 PM 1.98 35.564 0.16 8.04 2.88 12.93
12/21/2020 6:45:00 PM 1.98 35.564 0.16 8.03 2.85 12.9
12/21/2020 7:00:00 PM 1.98 35.564 0.16 8.03 2.76 12.88
12/21/2020 7:15:00 PM 1.99 35.582 0.16 8.02 2.73 12.87
12/21/2020 7:30:00 PM 1.99 35.582 0.16 8.02 2.81 12.85
12/21/2020 7:45:00 PM 1.99 35.582 0.16 8.01 2.79 12.83
12/21/2020 8:00:00 PM 1.99 35.582 0.161 8.01 2.74 12.83
12/21/2020 8:15:00 PM 1.99 35.582 0.161 7.99 2.82 12.82
12/21/2020 8:30:00 PM 2 35.6 0.161 8 2.81 12.81
12/21/2020 8:45:00 PM 2 35.6 0.161 7.98 3.04 12.79
12/21/2020 9:00:00 PM 2.02 35.636 0.16 7.98 2.91 12.77
12/21/2020 9:15:00 PM 2.01 35.618 0.161 7.98 2.97 12.79
12/21/2020 9:30:00 PM 2.02 35.636 0.161 7.98 2.98 12.78
12/21/2020 9:45:00 PM 2.02 35.636 0.161 7.97 2.97 12.78
12/21/2020 10:00:00 PM 2.04 35.672 0.161 7.95 2.86 12.73
12/21/2020 10:15:00 PM 2.04 35.672 0.161 7.95 2.91 12.74
12/21/2020 10:30:00 PM 2.05 35.69 0.161 7.96 3.02 12.72
12/21/2020 10:45:00 PM 2.06 35.708 0.161 7.95 2.9 12.74
12/21/2020 11:00:00 PM 2.07 35.726 0.161 7.95 3.22 12.73
12/21/2020 11:15:00 PM 2.07 35.726 0.161 7.96 2.99 12.75
12/21/2020 11:30:00 PM 2.07 35.726 0.161 7.97 3.09 12.75
12/21/2020 11:45:00 PM 2.08 35.744 0.161 7.95 3.01 12.73
12/22/2020 12:00:00 AM 2.09 35.762 0.161 7.96 2.91 12.75
12/22/2020 12:15:00 AM 2.1 35.78 0.161 7.96 3.09 12.74
12/22/2020 12:30:00 AM 2.11 35.798 0.161 7.94 3.22 12.71
12/22/2020 12:45:00 AM 2.11 35.798 0.161 7.93 3.71 12.68
12/22/2020 1:00:00 AM 2.1 35.78 0.161 7.93 3.26 12.69
12/22/2020 1:15:00 AM 2.1 35.78 0.161 7.93 3.46 12.68
12/22/2020 1:30:00 AM 2.09 35.762 0.161 7.94 3.07 12.72
12/22/2020 1:45:00 AM 2.08 35.744 0.161 7.95 3.05 12.73
12/22/2020 2:00:00 AM 2.09 35.762 0.161 7.94 2.85 12.7
12/22/2020 2:15:00 AM 2.08 35.744 0.162 7.94 2.91 12.71
12/22/2020 2:30:00 AM 2.08 35.744 0.162 7.95 2.98 12.73
12/22/2020 2:45:00 AM 2.07 35.726 0.162 7.95 3.03 12.71
12/22/2020 3:00:00 AM 2.07 35.726 0.162 7.94 2.92 12.68
12/22/2020 3:15:00 AM 2.06 35.708 0.162 7.94 3.02 12.69
12/22/2020 3:30:00 AM 2.04 35.672 0.162 7.95 3.06 12.72
12/22/2020 3:45:00 AM 2.02 35.636 0.162 7.95 2.97 12.74
12/22/2020 4:00:00 AM 2.01 35.618 0.162 7.96 3.01 12.71
12/22/2020 4:15:00 AM 2 35.6 0.162 7.96 3.06 12.72
12/22/2020 4:30:00 AM 1.99 35.582 0.162 7.96 2.94 12.71
12/22/2020 4:45:00 AM 1.97 35.546 0.163 7.96 3.15 12.72
12/22/2020 5:00:00 AM 1.97 35.546 0.163 7.96 3.1 12.72
12/22/2020 5:15:00 AM 1.96 35.528 0.163 7.95 3.08 12.73
12/22/2020 5:30:00 AM 1.95 35.51 0.163 7.96 2.99 12.74
12/22/2020 5:45:00 AM 1.94 35.492 0.163 7.95 2.93 12.75
12/22/2020 6:00:00 AM 1.94 35.492 0.163 7.96 3.15 12.77
12/22/2020 6:15:00 AM 1.94 35.492 0.163 7.96 2.94 12.76
12/22/2020 6:30:00 AM 1.94 35.492 0.163 7.96 3.04 12.78
12/22/2020 6:45:00 AM 1.95 35.51 0.163 7.95 2.92 12.77
12/22/2020 7:00:00 AM 1.95 35.51 0.163 7.95 3.09 12.77
12/22/2020 7:15:00 AM 1.96 35.528 0.163 7.95 3.11 12.77
12/22/2020 7:30:00 AM 1.97 35.546 0.163 7.95 3.39 12.77
12/22/2020 7:45:00 AM 1.98 35.564 0.163 7.95 3.23 12.76
12/22/2020 8:00:00 AM 1.98 35.564 0.163 7.96 3.16 12.77
12/22/2020 8:15:00 AM 1.99 35.582 0.163 7.95 3.04 12.76
12/22/2020 8:30:00 AM 1.97 35.546 0.163 7.97 3.05 12.81
12/22/2020 8:45:00 AM 1.92 35.456 0.163 7.97 3.06 12.8
12/22/2020 9:00:00 AM 1.91 35.438 0.163 7.97 3.02 12.83
12/22/2020 9:15:00 AM 1.93 35.474 0.163 7.97 3.03 12.83
12/22/2020 9:30:00 AM 1.94 35.492 0.163 7.98 3.02 12.88
12/22/2020 9:45:00 AM 1.99 35.582 0.162 7.98 3.12 12.89
12/22/2020 10:00:00 AM 2.05 35.69 0.162 7.98 3.01 12.94
12/22/2020 10:15:00 AM 2.09 35.762 0.162 7.99 3.13 13
12/22/2020 10:30:00 AM 2.1 35.78 0.162 7.99 3.12 13.05
12/22/2020 10:45:00 AM 2.13 35.834 0.162 8.01 3.16 13.11
12/22/2020 11:00:00 AM 2.17 35.906 0.162 8.03 3.02 13.14
12/22/2020 11:15:00 AM 2.21 35.978 0.162 8.04 2.96 13.18
12/22/2020 11:30:00 AM 2.27 36.086 0.161 8.04 2.96 13.21
12/22/2020 11:45:00 AM 2.31 36.158 0.161 8.05 3.02 13.25
12/22/2020 12:00:00 PM 2.35 36.23 0.161 8.08 3.01 13.3
12/22/2020 12:15:00 PM 2.4 36.32 0.161 8.09 2.95 13.33
12/22/2020 12:30:00 PM 2.44 36.392 0.161 8.09 2.85 13.35
12/22/2020 12:45:00 PM 2.49 36.482 0.161 8.11 2.83 13.37
12/22/2020 1:00:00 PM 2.53 36.554 0.161 8.11 2.88 13.38
12/22/2020 1:15:00 PM 2.54 36.572 0.161 8.12 2.85 13.37
12/22/2020 1:30:00 PM 2.56 36.608 0.161 8.12 2.8 13.38
12/22/2020 1:45:00 PM 2.64 36.752 0.16 8.13 2.8 13.39
12/22/2020 2:00:00 PM 2.65 36.77 0.16 8.12 3.02 13.36
12/22/2020 2:15:00 PM 2.67 36.806 0.16 8.13 2.9 13.37
12/22/2020 2:30:00 PM 2.67 36.806 0.16 8.16 2.92 13.38
12/22/2020 2:45:00 PM 2.69 36.842 0.16 8.13 2.9 13.35
12/22/2020 3:00:00 PM 2.71 36.878 0.16 8.12 2.83 13.32
12/22/2020 3:15:00 PM 2.71 36.878 0.161 8.13 2.77 13.29
12/22/2020 3:30:00 PM 2.7 36.86 0.161 8.13 2.74 13.25
12/22/2020 3:45:00 PM 2.69 36.842 0.161 8.11 2.69 13.18
12/22/2020 4:00:00 PM 2.68 36.824 0.161 8.11 2.76 13.15
12/22/2020 4:15:00 PM 2.67 36.806 0.161 8.11 2.68 13.13
12/22/2020 4:30:00 PM 2.66 36.788 0.161 8.08 2.73 13.08
12/22/2020 4:45:00 PM 2.64 36.752 0.161 8.09 2.81 13.05
12/22/2020 5:00:00 PM 2.64 36.752 0.161 8.06 2.83 12.99
12/22/2020 5:15:00 PM 2.62 36.716 0.162 8.04 3.07 12.98
12/22/2020 5:30:00 PM 2.61 36.698 0.162 8.05 2.79 12.92
12/22/2020 5:45:00 PM 2.59 36.662 0.162 8.05 2.81 12.92
12/22/2020 6:00:00 PM 2.57 36.626 0.162 8.03 2.95 12.88
12/22/2020 6:15:00 PM 2.55 36.59 0.162 8.02 2.84 12.87
12/22/2020 6:30:00 PM 2.53 36.554 0.162 8.02 2.79 12.85
12/22/2020 6:45:00 PM 2.51 36.518 0.162 8 2.82 12.85
12/22/2020 7:00:00 PM 2.48 36.464 0.162 8.01 2.82 12.86
12/22/2020 7:15:00 PM 2.48 36.464 0.162 7.98 2.8 12.82
12/22/2020 7:30:00 PM 2.45 36.41 0.162 8 2.8 12.85
12/22/2020 7:45:00 PM 2.43 36.374 0.163 8 2.84 12.86
12/22/2020 8:00:00 PM 2.42 36.356 0.162 7.98 2.84 12.84
12/22/2020 8:15:00 PM 2.39 36.302 0.163 7.98 2.97 12.86
12/22/2020 8:30:00 PM 2.38 36.284 0.163 7.97 2.92 12.85
12/22/2020 8:45:00 PM 2.36 36.248 0.163 7.97 2.81 12.86
12/22/2020 9:00:00 PM 2.35 36.23 0.163 7.95 2.88 12.83
12/22/2020 9:15:00 PM 2.33 36.194 0.163 7.95 2.85 12.85
12/22/2020 9:30:00 PM 2.33 36.194 0.162 7.95 2.91 12.84
12/22/2020 9:45:00 PM 2.31 36.158 0.163 7.96 2.82 12.86
12/22/2020 10:00:00 PM 2.3 36.14 0.163 7.96 2.96 12.88
12/22/2020 10:15:00 PM 2.3 36.14 0.163 7.94 2.88 12.85
12/22/2020 10:30:00 PM 2.28 36.104 0.163 7.96 2.93 12.89
12/22/2020 10:45:00 PM 2.29 36.122 0.163 7.94 2.88 12.87
12/22/2020 11:00:00 PM 2.27 36.086 0.163 7.95 3.06 12.9
12/22/2020 11:15:00 PM 2.28 36.104 0.163 7.95 2.97 12.89
12/22/2020 11:30:00 PM 2.26 36.068 0.163 7.96 2.98 12.92
12/22/2020 11:45:00 PM 2.27 36.086 0.163 7.93 2.91 12.88
12/23/2020 12:00:00 AM 2.25 36.05 0.163 7.93 2.97 12.91
12/23/2020 12:15:00 AM 2.23 36.014 0.163 7.95 3.14 12.93
12/23/2020 12:30:00 AM 2.23 36.014 0.163 7.95 3.08 12.92
12/23/2020 12:45:00 AM 2.24 36.032 0.163 7.93 3.25 12.89
12/23/2020 1:00:00 AM 2.22 35.996 0.164 7.95 3.34 12.94
12/23/2020 1:15:00 AM 2.22 35.996 0.164 7.94 3.15 12.93
12/23/2020 1:30:00 AM 2.22 35.996 0.164 7.94 3.17 12.93
12/23/2020 1:45:00 AM 2.21 35.978 0.164 7.93 3.16 12.92
12/23/2020 2:00:00 AM 2.21 35.978 0.164 7.92 3 12.92
12/23/2020 2:15:00 AM 2.2 35.96 0.164 7.93 3.03 12.94
12/23/2020 2:30:00 AM 2.19 35.942 0.164 7.93 2.95 12.94
12/23/2020 2:45:00 AM 2.19 35.942 0.164 7.93 2.97 12.94
12/23/2020 3:00:00 AM 2.18 35.924 0.164 7.92 4.19 12.95
12/23/2020 3:15:00 AM 2.17 35.906 0.164 7.92 3.12 12.94
12/23/2020 3:30:00 AM 2.16 35.888 0.164 7.93 3.11 12.94
12/23/2020 3:45:00 AM 2.16 35.888 0.164 7.92 3.16 12.93
12/23/2020 4:00:00 AM 2.14 35.852 0.165 7.92 3.1 12.95
12/23/2020 4:15:00 AM 2.13 35.834 0.165 7.92 3.05 12.95
12/23/2020 4:30:00 AM 2.13 35.834 0.164 7.91 3.08 12.94
12/23/2020 4:45:00 AM 2.11 35.798 0.165 7.91 3.2 12.95
12/23/2020 5:00:00 AM 2.09 35.762 0.165 7.9 3.33 12.96
12/23/2020 5:15:00 AM 2.08 35.744 0.164 7.9 3.24 12.96
12/23/2020 5:30:00 AM 2.06 35.708 0.164 7.9 3.29 12.96
12/23/2020 5:45:00 AM 2.03 35.654 0.164 7.89 3.25 12.96
12/23/2020 6:00:00 AM 1.99 35.582 0.164 7.89 3.26 12.99
12/23/2020 6:15:00 AM 1.96 35.528 0.164 7.88 3.33 12.99
12/23/2020 6:30:00 AM 1.93 35.474 0.164 7.88 3.22 13
12/23/2020 6:45:00 AM 1.9 35.42 0.164 7.88 3.34 13.01
12/23/2020 7:00:00 AM 1.85 35.33 0.164 7.87 3.16 13.03
12/23/2020 7:15:00 AM 1.81 35.258 0.164 7.87 3.17 13.04
12/23/2020 7:30:00 AM 1.77 35.186 0.165 7.87 3.11 13.08
12/23/2020 7:45:00 AM 1.74 35.132 0.165 7.87 3.13 13.09
12/23/2020 8:00:00 AM 1.71 35.078 0.165 7.87 3.19 13.14
12/23/2020 8:15:00 AM 1.69 35.042 0.165 7.88 3.23 13.19
12/23/2020 8:30:00 AM 1.68 35.024 0.165 7.88 3.23 13.23
12/23/2020 8:45:00 AM 1.69 35.042 0.165 7.89 3.11 13.28
12/23/2020 9:00:00 AM 1.7 35.06 0.164 7.88 3.11 13.32
12/23/2020 9:15:00 AM 1.71 35.078 0.164 7.9 2.96 13.39
12/23/2020 9:30:00 AM 1.74 35.132 0.164 7.91 2.87 13.45
12/23/2020 9:45:00 AM 1.73 35.114 0.164 7.91 2.85 13.49
12/23/2020 10:00:00 AM 1.73 35.114 0.164 7.93 2.94 13.55
12/23/2020 10:15:00 AM 1.77 35.186 0.164 7.94 2.91 13.6
12/23/2020 10:30:00 AM 1.82 35.276 0.164 7.94 2.83 13.62
12/23/2020 10:45:00 AM 1.87 35.366 0.164 7.95 2.88 13.64
12/23/2020 11:00:00 AM 1.9 35.42 0.164 7.97 2.8 13.68
12/23/2020 11:15:00 AM 1.95 35.51 0.164 7.97 2.79 13.7
12/23/2020 11:30:00 AM 2.03 35.654 0.163 7.98 2.81 13.72
12/23/2020 11:45:00 AM 2.13 35.834 0.163 8 2.84 13.75
12/23/2020 12:00:00 PM 2.18 35.924 0.163 8 2.78 13.76
12/23/2020 12:15:00 PM 2.28 36.104 0.163 8.02 2.73 13.78
12/23/2020 12:30:00 PM 2.39 36.302 0.163 8.04 2.8 13.8
12/23/2020 12:45:00 PM 2.48 36.464 0.163 8.05 2.7 13.79
12/23/2020 1:00:00 PM 2.6 36.68 0.162 8.05 2.72 13.77
12/23/2020 1:15:00 PM 2.65 36.77 0.162 8.07 2.85 13.75
12/23/2020 1:30:00 PM 2.71 36.878 0.162 8.07 2.87 13.72
12/23/2020 1:45:00 PM 2.75 36.95 0.162 8.09 2.9 13.71
12/23/2020 2:00:00 PM 2.8 37.04 0.162 8.08 2.89 13.7
12/23/2020 2:15:00 PM 2.85 37.13 0.162 8.09 2.72 13.69
12/23/2020 2:30:00 PM 2.87 37.166 0.162 8.11 2.68 13.69
12/23/2020 2:45:00 PM 2.89 37.202 0.162 8.11 2.7 13.66
12/23/2020 3:00:00 PM 2.89 37.202 0.162 8.1 2.79 13.63
12/23/2020 3:15:00 PM 2.88 37.184 0.162 8.1 2.67 13.6
12/23/2020 3:30:00 PM 2.88 37.184 0.162 8.1 2.67 13.57
12/23/2020 3:45:00 PM 2.86 37.148 0.162 8.1 2.7 13.53
12/23/2020 4:00:00 PM 2.84 37.112 0.163 8.09 2.79 13.48
12/23/2020 4:15:00 PM 2.83 37.094 0.163 8.08 2.74 13.41
12/23/2020 4:30:00 PM 2.79 37.022 0.163 8.07 2.72 13.35
12/23/2020 4:45:00 PM 2.78 37.004 0.163 8.05 2.74 13.28
12/23/2020 5:00:00 PM 2.76 36.968 0.163 8.04 2.76 13.22
12/23/2020 5:15:00 PM 2.72 36.896 0.163 8.03 2.73 13.16
12/23/2020 5:30:00 PM 2.7 36.86 0.163 8.01 2.72 13.11
12/23/2020 5:45:00 PM 2.67 36.806 0.163 8.01 2.76 13.08
12/23/2020 6:00:00 PM 2.64 36.752 0.164 7.99 2.77 13.05
12/23/2020 6:15:00 PM 2.61 36.698 0.164 7.99 2.66 13.01
12/23/2020 6:30:00 PM 2.58 36.644 0.164 7.98 2.68 12.98
12/23/2020 6:45:00 PM 2.56 36.608 0.164 7.97 2.68 12.96
12/23/2020 7:00:00 PM 2.54 36.572 0.164 7.96 2.68 12.94
12/23/2020 7:15:00 PM 2.52 36.536 0.164 7.95 2.7 12.91
12/23/2020 7:30:00 PM 2.51 36.518 0.164 7.94 2.65 12.89
12/23/2020 7:45:00 PM 2.49 36.482 0.164 7.94 2.65 12.88
12/23/2020 8:00:00 PM 2.48 36.464 0.164 7.93 2.75 12.87
12/23/2020 8:15:00 PM 2.46 36.428 0.164 7.92 2.71 12.86
12/23/2020 8:30:00 PM 2.46 36.428 0.164 7.92 2.74 12.85
12/23/2020 8:45:00 PM 2.44 36.392 0.164 7.92 2.79 12.86
12/23/2020 9:00:00 PM 2.44 36.392 0.164 7.92 2.69 12.85
12/23/2020 9:15:00 PM 2.43 36.374 0.164 7.92 2.81 12.85
12/23/2020 9:30:00 PM 2.43 36.374 0.164 7.92 2.8 12.84
12/23/2020 9:45:00 PM 2.43 36.374 0.164 7.91 2.81 12.82
12/23/2020 10:00:00 PM 2.44 36.392 0.164 7.91 2.78 12.82
12/23/2020 10:15:00 PM 2.43 36.374 0.165 7.91 2.78 12.83
12/23/2020 10:30:00 PM 2.42 36.356 0.165 7.92 2.85 12.83
12/23/2020 10:45:00 PM 2.43 36.374 0.165 7.91 2.81 12.82
12/23/2020 11:00:00 PM 2.44 36.392 0.165 7.9 2.92 12.8
12/23/2020 11:15:00 PM 2.43 36.374 0.165 7.9 2.98 12.8
12/23/2020 11:30:00 PM 2.44 36.392 0.165 7.89 2.93 12.8
12/23/2020 11:45:00 PM 2.43 36.374 0.165 7.9 2.95 12.81
12/24/2020 12:00:00 AM 2.44 36.392 0.165 7.9 2.94 12.8
12/24/2020 12:15:00 AM 2.43 36.374 0.165 7.9 2.9 12.8
12/24/2020 12:30:00 AM 2.43 36.374 0.165 7.9 2.98 12.79
12/24/2020 12:45:00 AM 2.44 36.392 0.165 7.89 3.1 12.77
12/24/2020 1:00:00 AM 2.44 36.392 0.165 7.89 3.04 12.78
12/24/2020 1:15:00 AM 2.44 36.392 0.165 7.89 3.14 12.78
12/24/2020 1:30:00 AM 2.43 36.374 0.165 7.89 3.2 12.79
12/24/2020 1:45:00 AM 2.44 36.392 0.165 7.88 3.38 12.78
12/24/2020 2:00:00 AM 2.42 36.356 0.165 7.89 3.33 12.79
12/24/2020 2:15:00 AM 2.42 36.356 0.165 7.88 3.32 12.79
12/24/2020 2:30:00 AM 2.41 36.338 0.165 7.88 3.15 12.78
12/24/2020 2:45:00 AM 2.4 36.32 0.165 7.89 3.23 12.79
12/24/2020 3:00:00 AM 2.4 36.32 0.165 7.88 3.06 12.77
12/24/2020 3:15:00 AM 2.4 36.32 0.165 7.87 2.95 12.78
12/24/2020 3:30:00 AM 2.39 36.302 0.165 7.87 2.97 12.76
12/24/2020 3:45:00 AM 2.38 36.284 0.166 7.88 3.04 12.79
12/24/2020 4:00:00 AM 2.39 36.302 0.166 7.87 3.06 12.78
12/24/2020 4:15:00 AM 2.4 36.32 0.165 7.87 3.01 12.78
12/24/2020 4:30:00 AM 2.42 36.356 0.165 7.87 2.94 12.76
12/24/2020 4:45:00 AM 2.43 36.374 0.166 7.88 3.07 12.77
12/24/2020 5:00:00 AM 2.44 36.392 0.165 7.87 3.06 12.76
12/24/2020 5:15:00 AM 2.46 36.428 0.166 7.87 3.19 12.76
12/24/2020 5:30:00 AM 2.47 36.446 0.166 7.87 3.17 12.74
12/24/2020 5:45:00 AM 2.5 36.5 0.165 7.87 3.07 12.73
12/24/2020 6:00:00 AM 2.52 36.536 0.165 7.88 3.12 12.73
12/24/2020 6:15:00 AM 2.54 36.572 0.165 7.88 3.04 12.72
12/24/2020 6:30:00 AM 2.56 36.608 0.165 7.88 3.06 12.71
12/24/2020 6:45:00 AM 2.59 36.662 0.165 7.88 3.03 12.7
12/24/2020 7:00:00 AM 2.62 36.716 0.165 7.89 2.94 12.68
12/24/2020 7:15:00 AM 2.64 36.752 0.165 7.88 2.93 12.68
12/24/2020 7:30:00 AM 2.67 36.806 0.165 7.87 2.87 12.65
12/24/2020 7:45:00 AM 2.69 36.842 0.165 7.88 2.95 12.65
12/24/2020 8:00:00 AM 2.72 36.896 0.165 7.88 2.88 12.65
12/24/2020 8:15:00 AM 2.75 36.95 0.165 7.88 2.97 12.65
12/24/2020 8:30:00 AM 2.77 36.986 0.165 7.88 3 12.65
12/24/2020 8:45:00 AM 2.8 37.04 0.165 7.88 3.01 12.67
12/24/2020 9:00:00 AM 2.84 37.112 0.165 7.89 3.04 12.68
12/24/2020 9:15:00 AM 2.86 37.148 0.165 7.9 2.97 12.71
12/24/2020 9:30:00 AM 2.9 37.22 0.164 7.9 2.95 12.72
12/24/2020 9:45:00 AM 2.94 37.292 0.164 7.9 2.87 12.72
12/24/2020 10:00:00 AM 2.95 37.31 0.164 7.91 2.9 12.77
12/24/2020 10:15:00 AM 2.99 37.382 0.164 7.91 2.88 12.79
12/24/2020 10:30:00 AM 3.02 37.436 0.164 7.93 2.86 12.84
12/24/2020 10:45:00 AM 3.06 37.508 0.163 7.94 2.85 12.87
12/24/2020 11:00:00 AM 3.11 37.598 0.163 7.95 2.92 12.91
12/24/2020 11:15:00 AM 3.13 37.634 0.163 7.97 2.89 12.94
12/24/2020 11:30:00 AM 3.15 37.67 0.162 7.98 2.96 12.97
12/24/2020 11:45:00 AM 3.17 37.706 0.162 7.98 2.99 12.97
12/24/2020 12:00:00 PM 3.21 37.778 0.161 7.96 3.03 12.94
12/24/2020 12:15:00 PM 3.22 37.796 0.16 7.96 3.18 12.97
12/24/2020 12:30:00 PM 3.21 37.778 0.159 7.97 3.29 12.98
12/24/2020 12:45:00 PM 3.2 37.76 0.159 7.98 3.37 13
12/24/2020 1:00:00 PM 3.2 37.76 0.158 7.99 3.6 13
12/24/2020 1:15:00 PM 3.15 37.67 0.155 7.97 4.05 12.99
12/24/2020 1:30:00 PM 3.07 37.526 0.153 7.93 4.93 12.97
12/24/2020 1:45:00 PM 2.98 37.364 0.151 7.91 6.19 12.95
12/24/2020 2:00:00 PM 2.87 37.166 0.149 7.9 7.74 12.95
12/24/2020 2:15:00 PM 2.74 36.932 0.147 7.87 11.36 12.92
12/24/2020 2:30:00 PM 2.58 36.644 0.144 7.82 15.29 12.93
12/24/2020 2:45:00 PM 2.28 36.104 0.139 7.76 40.86 12.98
12/24/2020 3:00:00 PM 2.03 35.654 0.136 7.74 32.44 13.02
12/24/2020 3:15:00 PM 1.84 35.312 0.136 7.69 38.09 13.05
12/24/2020 3:30:00 PM 1.64 34.952 0.138 7.66 60.87 13.09
12/24/2020 3:45:00 PM 1.5 34.7 0.141 7.62 69.79 13.1
12/24/2020 4:00:00 PM 1.41 34.538 0.141 7.61 94.53 13.12
12/24/2020 4:15:00 PM 1.3 34.34 0.138 7.56 97.02 13.16
12/24/2020 4:30:00 PM 1.19 34.142 0.135 7.53 101.08 13.16
12/24/2020 4:45:00 PM 1.08 33.944 0.134 7.5 222.31 13.16
12/24/2020 5:00:00 PM 0.98 33.764 0.128 7.47 230.48 13.14
12/24/2020 5:15:00 PM 0.95 33.71 0.122 7.47 204.26 13.14
12/24/2020 5:30:00 PM 0.94 33.692 0.114 7.45 183.24 13.14
12/24/2020 5:45:00 PM 0.86 33.548 0.107 7.4 184.72 13.17
12/24/2020 6:00:00 PM 0.82 33.476 0.103 7.37 208.6 13.19
12/24/2020 6:15:00 PM 0.82 33.476 0.102 7.33 199.54 13.16
12/24/2020 6:30:00 PM 0.87 33.566 0.103 7.33 200.34 13.16
12/24/2020 6:45:00 PM 0.9 33.62 0.101 7.34 204.1 13.16
12/24/2020 7:00:00 PM 0.92 33.656 0.098 7.33 242.29 13.18
12/24/2020 7:15:00 PM 0.94 33.692 0.094 7.33 255.81 13.2
12/24/2020 7:30:00 PM 0.93 33.674 0.09 7.3 269.74 13.2
12/24/2020 7:45:00 PM 0.87 33.566 0.086 7.26 274.42 13.22
12/24/2020 8:00:00 PM 0.81 33.458 0.084 7.19 341.83 13.19
12/24/2020 8:15:00 PM 0.78 33.404 0.082 7.12 340.29 13.21
12/24/2020 8:30:00 PM 0.71 33.278 0.062 7.07 374.53 13.24
12/24/2020 8:45:00 PM 0.64 33.152 0.08 7.05 371.35 13.25
12/24/2020 9:00:00 PM 0.64 33.152 0.037 7.04 316.51 13.26
12/24/2020 9:15:00 PM 0.65 33.17 0.036 6.99 402.59 13.25
12/24/2020 9:30:00 PM 0.66 33.188 0.034 6.96 326.4 13.24
12/24/2020 9:45:00 PM 0.67 33.206 0.07 6.94 340.65 13.25
12/24/2020 10:00:00 PM 0.72 33.296 0.069 6.96 299.68 13.24
12/24/2020 10:15:00 PM 0.74 33.332 0.07 6.93 341 13.23
12/24/2020 10:30:00 PM 0.72 33.296 0.069 6.92 296.02 13.22
12/24/2020 10:45:00 PM 0.67 33.206 0.068 6.88 298.71 13.23
12/24/2020 11:00:00 PM 0.68 33.224 0.067 6.87 297.47 13.22
12/24/2020 11:15:00 PM 0.68 33.224 0.065 6.87 276.36 13.23
12/24/2020 11:30:00 PM 0.66 33.188 0.064 6.89 285.02 13.22
12/24/2020 11:45:00 PM 0.63 33.134 0.064 6.67 303.97 13.21
12/25/2020 12:00:00 AM 0.6 33.08 0.063 6.77 261.98 13.19
12/25/2020 12:15:00 AM 0.55 32.99 0.062 6.77 264.03 13.19
12/25/2020 12:30:00 AM 0.51 32.918 0.061 6.74 262.89 13.18
12/25/2020 12:45:00 AM 0.51 32.918 0.061 6.7 304.25 13.17
12/25/2020 1:00:00 AM 0.52 32.936 0.061 6.75 279.52 13.16
12/25/2020 1:15:00 AM 0.57 33.026 0.06 6.8 244.91 13.15
12/25/2020 1:30:00 AM 0.61 33.098 0.06 6.74 211.92 13.13
12/25/2020 1:45:00 AM 0.67 33.206 0.028 6.72 260.08 13.13
12/25/2020 2:00:00 AM 0.73 33.314 0.058 6.65 201.6 13.12
12/25/2020 2:15:00 AM 0.78 33.404 0.058 6.71 243.06 13.11
12/25/2020 2:30:00 AM 0.84 33.512 0.057 6.68 38.21 13.12
12/25/2020 2:45:00 AM 0.92 33.656 0.056 6.74 222.18 13.12
12/25/2020 3:00:00 AM 1 33.8 0.033 6.76 211.58 13.1
12/25/2020 3:15:00 AM 1.08 33.944 0.027 6.72 159 13.09
12/25/2020 3:30:00 AM 1.16 34.088 0.051 6.59 188.63 13.08
12/25/2020 3:45:00 AM 1.23 34.214 0.053 6.75 184.01 13.05
12/25/2020 4:00:00 AM 1.3 34.34 0.054 6.76 199.13 13.04
12/25/2020 4:15:00 AM 1.38 34.484 0.053 6.74 240.92 13.02
12/25/2020 4:30:00 AM 1.45 34.61 0.044 6.76 231.34 13.01
12/25/2020 4:45:00 AM 1.53 34.754 0.052 6.77 183.17 13
12/25/2020 5:00:00 AM 1.59 34.862 0.052 6.76 223.7 13
12/25/2020 5:15:00 AM 1.65 34.97 0.052 6.78 191.09 12.98
12/25/2020 5:30:00 AM 1.69 35.042 0.028 6.76 229.51 12.97
12/25/2020 5:45:00 AM 1.72 35.096 0.036 6.79 3079.27 12.97
12/25/2020 6:00:00 AM 1.76 35.168 0.022 6.66 193.81 12.95
12/25/2020 6:15:00 AM 1.79 35.222 0.048 6.79 204.94 12.94
12/25/2020 6:30:00 AM 1.81 35.258 0.045 6.83 214.69 12.94
12/25/2020 6:45:00 AM 1.83 35.294 0.043 6.83 217.78 12.93
12/25/2020 7:00:00 AM 1.85 35.33 0.041 6.82 185.81 12.93
12/25/2020 7:15:00 AM 1.88 35.384 0.038 6.83 184.63 12.92
12/25/2020 7:30:00 AM 1.91 35.438 0.034 6.81 187.81 12.92
12/25/2020 7:45:00 AM 1.95 35.51 0.031 6.85 164.27 12.91
12/25/2020 8:00:00 AM 1.98 35.564 0.028 6.86 172.66 12.9
12/25/2020 8:15:00 AM 2.02 35.636 0.027 6.88 169.22 12.89
12/25/2020 8:30:00 AM 2.06 35.708 0.025 6.86 145.51 12.88
12/25/2020 8:45:00 AM 2.1 35.78 0.023 6.87 175.61 12.87
12/25/2020 9:00:00 AM 2.14 35.852 0.041 6.86 473.88 12.87
12/25/2020 9:15:00 AM 2.18 35.924 0.04 6.87 1271.2 12.86
12/25/2020 9:30:00 AM 2.2 35.96 0.038 6.89 921.33 12.86
12/25/2020 9:45:00 AM 2.22 35.996 0.037 6.89 813.07 12.85
12/25/2020 10:00:00 AM 2.23 36.014 0.036 6.9 143.1 12.84
12/25/2020 10:15:00 AM 2.25 36.05 0.035 6.92 145.44 12.85
12/25/2020 10:30:00 AM 2.29 36.122 0.034 6.92 135.93 12.83
12/25/2020 10:45:00 AM 2.32 36.176 0.033 6.92 157.98 12.83
12/25/2020 11:00:00 AM 2.34 36.212 0.033 6.92 130.52 12.82
12/25/2020 11:15:00 AM 2.37 36.266 0.032 6.93 153.32 12.8
12/25/2020 11:30:00 AM 2.4 36.32 0.032 6.94 107.04 12.8
12/25/2020 11:45:00 AM 2.43 36.374 0.031 6.94 119.1 12.8
12/25/2020 12:00:00 PM 2.46 36.428 0.031 6.95 135.67 12.78
12/25/2020 12:15:00 PM 2.49 36.482 0.03 6.97 106.5 12.78
12/25/2020 12:30:00 PM 2.51 36.518 0.03 6.97 103.97 12.76
12/25/2020 12:45:00 PM 2.52 36.536 0.029 6.99 70.09 12.75
12/25/2020 1:00:00 PM 2.54 36.572 0.029 6.99 708.99 12.74
12/25/2020 1:15:00 PM 2.57 36.626 0.029 7 1360.8 12.74
12/25/2020 1:30:00 PM 2.59 36.662 0.028 7 209.86 12.73
12/25/2020 1:45:00 PM 2.61 36.698 0.028 7.02 78.11 12.72
12/25/2020 2:00:00 PM 2.63 36.734 0.027 7.02 114.61 12.71
12/25/2020 2:15:00 PM 2.65 36.77 0.027 7.02 66.96 12.7
12/25/2020 2:30:00 PM 2.66 36.788 0.027 7.02 65.76 12.7
12/25/2020 2:45:00 PM 2.68 36.824 0.026 7.02 48.82 12.69
12/25/2020 3:00:00 PM 2.69 36.842 0.026 7.04 53.23 12.69
12/25/2020 3:15:00 PM 2.71 36.878 0.025 7.04 216.02 12.69
12/25/2020 3:30:00 PM 2.72 36.896 0.025 7.03 58.64 12.68
12/25/2020 3:45:00 PM 2.72 36.896 0.024 7.05 44.3 12.68
12/25/2020 4:00:00 PM 2.73 36.914 0.024 7.07 51.91 12.68
12/25/2020 4:15:00 PM 2.73 36.914 0.023 7.07 70.39 12.67
12/25/2020 4:30:00 PM 2.73 36.914 0.023 7.08 40.09 12.67
12/25/2020 4:45:00 PM 2.72 36.896 0.023 7.08 50.97 12.66
12/25/2020 5:00:00 PM 2.71 36.878 0.023 7.08 45.02 12.66
12/25/2020 5:15:00 PM 2.71 36.878 0.022 7.08 41.36 12.67
12/25/2020 5:30:00 PM 2.7 36.86 0.022 7.08 41.11 12.67
12/25/2020 5:45:00 PM 2.69 36.842 0.022 7.09 50.88 12.67
12/25/2020 6:00:00 PM 2.69 36.842 0.022 7.08 40.79 12.67
12/25/2020 6:15:00 PM 2.67 36.806 0.022 7.08 45.35 12.67
12/25/2020 6:30:00 PM 2.67 36.806 0.022 7.09 50.43 12.68
12/25/2020 6:45:00 PM 2.66 36.788 0.022 7.09 51.63 12.68
12/25/2020 7:00:00 PM 2.64 36.752 0.023 7.09 52.79 12.68
12/25/2020 7:15:00 PM 2.62 36.716 0.024 7.09 150.74 12.69
12/25/2020 7:30:00 PM 2.61 36.698 0.052 7.1 47.88 12.69
12/25/2020 7:45:00 PM 2.58 36.644 0.05 7.1 97.88 12.7
12/25/2020 8:00:00 PM 2.55 36.59 0.042 7.08 900.61 12.72
12/25/2020 8:15:00 PM 2.53 36.554 0.035 7.08 550.94 12.73
12/25/2020 8:30:00 PM 2.51 36.518 0.029 7.09 55.12 12.74
12/25/2020 8:45:00 PM 2.48 36.464 0.038 7.1 38.77 12.75
12/25/2020 9:00:00 PM 2.46 36.428 0.04 7.1 34.45 12.76
12/25/2020 9:15:00 PM 2.42 36.356 0.062 7.09 50.72 12.78
12/25/2020 9:30:00 PM 2.4 36.32 0.037 7.08 39 12.79
12/25/2020 9:45:00 PM 2.36 36.248 0.062 7.05 40.79 12.81
12/25/2020 10:00:00 PM 2.33 36.194 0.062 7.06 43.74 12.82
12/25/2020 10:15:00 PM 2.3 36.14 0.062 7.07 4674.28 12.84
12/25/2020 10:30:00 PM 2.27 36.086 0.063 7.09 24.67 12.85
12/25/2020 10:45:00 PM 2.24 36.032 0.063 7.06 28.59 12.86
12/25/2020 11:00:00 PM 2.2 35.96 0.063 7.08 36.77 12.87
12/25/2020 11:15:00 PM 2.17 35.906 0.063 7.07 66.73 12.89
12/25/2020 11:30:00 PM 2.14 35.852 0.063 7.06 38.56 12.9
12/25/2020 11:45:00 PM 2.11 35.798 0.064 7.03 768.42 12.91
12/26/2020 12:00:00 AM 2.07 35.726 0.064 7.09 72.38 12.91
12/26/2020 12:15:00 AM 2.04 35.672 0.064 7.05 147.61 12.92
12/26/2020 12:30:00 AM 2.01 35.618 0.064 7.08 105.6 12.94
12/26/2020 12:45:00 AM 1.97 35.546 0.064 7.08 30.08 12.96
12/26/2020 1:00:00 AM 1.94 35.492 0.065 7.06 29.56 12.97
12/26/2020 1:15:00 AM 1.9 35.42 0.065 7.06 27.26 12.98
12/26/2020 1:30:00 AM 1.87 35.366 0.065 7.05 32.87 13
12/26/2020 1:45:00 AM 1.83 35.294 0.065 7.06 38.45 13.01
12/26/2020 2:00:00 AM 1.8 35.24 0.065 7.06 36.87 13.03
12/26/2020 2:15:00 AM 1.77 35.186 0.066 7.06 48 13.04
12/26/2020 2:30:00 AM 1.73 35.114 0.066 7.04 64.93 13.06
12/26/2020 2:45:00 AM 1.7 35.06 0.066 7.07 53.03 13.07
12/26/2020 3:00:00 AM 1.67 35.006 0.066 7.06 44.53 13.08
12/26/2020 3:15:00 AM 1.64 34.952 0.067 7.09 31.77 13.09
12/26/2020 3:30:00 AM 1.61 34.898 0.067 7.09 24.52 13.11
12/26/2020 3:45:00 AM 1.58 34.844 0.067 7.1 21.94 13.12
12/26/2020 4:00:00 AM 1.56 34.808 0.067 7.1 20.95 13.13
12/26/2020 4:15:00 AM 1.53 34.754 0.067 7.09 21.91 13.14
12/26/2020 4:30:00 AM 1.51 34.718 0.067 7.09 231.33 13.15
12/26/2020 4:45:00 AM 1.48 34.664 0.068 7.09 28.38 13.16
12/26/2020 5:00:00 AM 1.46 34.628 0.068 7.09 28.9 13.16
12/26/2020 5:15:00 AM 1.44 34.592 0.068 7.1 25.36 13.17
12/26/2020 5:30:00 AM 1.42 34.556 0.068 7.09 23.33 13.18
12/26/2020 5:45:00 AM 1.4 34.52 0.068 7.09 17.6 13.19
12/26/2020 6:00:00 AM 1.38 34.484 0.069 7.11 26.47 13.19
12/26/2020 6:15:00 AM 1.37 34.466 0.069 7.1 23.8 13.2
12/26/2020 6:30:00 AM 1.34 34.412 0.069 7.1 24.81 13.21
12/26/2020 6:45:00 AM 1.32 34.376 0.069 7.11 18.92 13.23
12/26/2020 7:00:00 AM 1.29 34.322 0.069 7.09 21.75 13.23
12/26/2020 7:15:00 AM 1.27 34.286 0.07 7.07 25.52 13.25
12/26/2020 7:30:00 AM 1.25 34.25 0.07 7.09 20.89 13.26
12/26/2020 7:45:00 AM 1.23 34.214 0.07 7.11 21.16 13.27
12/26/2020 8:00:00 AM 1.21 34.178 0.07 7.1 16.09 13.28
12/26/2020 8:15:00 AM 1.2 34.16 0.07 7.08 24.29 13.29
12/26/2020 8:30:00 AM 1.19 34.142 0.07 7.08 23.63 13.3
12/26/2020 8:45:00 AM 1.19 34.142 0.071 7.12 268.36 13.3
12/26/2020 9:00:00 AM 1.2 34.16 0.071 7.11 24.15 13.32
12/26/2020 9:15:00 AM 1.21 34.178 0.071 7.1 3486 13.32
12/26/2020 9:30:00 AM 1.23 34.214 0.071 7.14 18.5 13.32
12/26/2020 9:45:00 AM 1.24 34.232 0.071 7.12 23.94 13.32
12/26/2020 10:00:00 AM 1.26 34.268 0.072 7.15 26.17 13.32
12/26/2020 10:15:00 AM 1.27 34.286 0.072 7.14 17.1 13.32
12/26/2020 10:30:00 AM 1.29 34.322 0.072 7.13 19.19 13.33
12/26/2020 10:45:00 AM 1.31 34.358 0.072 7.13 18.59 13.33
12/26/2020 11:00:00 AM 1.33 34.394 0.072 7.13 18.07 13.32
12/26/2020 11:15:00 AM 1.35 34.43 0.072 7.15 21.99 13.32
12/26/2020 11:30:00 AM 1.36 34.448 0.072 7.16 25.32 13.31
12/26/2020 11:45:00 AM 1.37 34.466 0.073 7.18 16.23 13.31
12/26/2020 12:00:00 PM 1.39 34.502 0.073 7.17 19.2 13.31
12/26/2020 12:15:00 PM 1.4 34.52 0.073 7.18 15.09 13.3
12/26/2020 12:30:00 PM 1.41 34.538 0.073 7.17 19.56 13.3
12/26/2020 12:45:00 PM 1.44 34.592 0.073 7.18 14.69 13.29
12/26/2020 1:00:00 PM 1.47 34.646 0.073 7.18 15.61 13.29
12/26/2020 1:15:00 PM 1.5 34.7 0.074 7.18 22.84 13.28
12/26/2020 1:30:00 PM 1.53 34.754 0.074 7.19 104.08 13.28
12/26/2020 1:45:00 PM 1.55 34.79 0.074 7.18 16.15 13.27
12/26/2020 2:00:00 PM 1.58 34.844 0.074 7.2 14.92 13.26
12/26/2020 2:15:00 PM 1.59 34.862 0.074 7.2 15.72 13.26
12/26/2020 2:30:00 PM 1.6 34.88 0.074 7.2 33.28 13.25
12/26/2020 2:45:00 PM 1.62 34.916 0.074 7.22 26.8 13.24
12/26/2020 3:00:00 PM 1.62 34.916 0.075 7.19 2361.88 13.23
12/26/2020 3:15:00 PM 1.62 34.916 0.075 7.18 1392.35 13.23
12/26/2020 3:30:00 PM 1.61 34.898 0.075 7.19 27.48 13.23
12/26/2020 3:45:00 PM 1.61 34.898 0.075 7.19 14.51 13.22
12/26/2020 4:00:00 PM 1.61 34.898 0.075 7.19 25.02 13.22
12/26/2020 4:15:00 PM 1.61 34.898 0.075 7.19 22.55 13.22
12/26/2020 4:30:00 PM 1.6 34.88 0.076 7.18 17.91 13.22
12/26/2020 4:45:00 PM 1.6 34.88 0.076 7.18 827.71 13.22
12/26/2020 5:00:00 PM 1.59 34.862 0.076 7.19 27.72 13.22
12/26/2020 5:15:00 PM 1.58 34.844 0.076 7.18 29.91 13.22
12/26/2020 5:30:00 PM 1.57 34.826 0.076 7.2 35.14 13.23
12/26/2020 5:45:00 PM 1.56 34.808 0.077 7.2 30.84 13.23
12/26/2020 6:00:00 PM 1.54 34.772 0.077 7.19 32.16 13.23
12/26/2020 6:15:00 PM 1.53 34.754 0.077 7.18 34.33 13.24
12/26/2020 6:30:00 PM 1.51 34.718 0.077 7.18 14.38 13.24
12/26/2020 6:45:00 PM 1.49 34.682 0.077 7.18 57.04 13.24
12/26/2020 7:00:00 PM 1.47 34.646 0.078 7.19 28.86 13.25
12/26/2020 7:15:00 PM 1.44 34.592 0.078 7.18 143.34 13.26
12/26/2020 7:30:00 PM 1.42 34.556 0.078 7.21 31.73 13.26
12/26/2020 7:45:00 PM 1.4 34.52 0.078 7.19 14.54 13.27
12/26/2020 8:00:00 PM 1.38 34.484 0.078 7.18 358.58 13.28
12/26/2020 8:15:00 PM 1.36 34.448 0.079 7.18 115.95 13.29
12/26/2020 8:30:00 PM 1.35 34.43 0.079 7.18 37.31 13.3
12/26/2020 8:45:00 PM 1.33 34.394 0.079 7.19 79.96 13.31
12/26/2020 9:00:00 PM 1.32 34.376 0.079 7.17 139.04 13.31
12/26/2020 9:15:00 PM 1.3 34.34 0.079 7.18 30.28 13.32
12/26/2020 9:30:00 PM 1.29 34.322 0.08 7.18 54.7 13.33
12/26/2020 9:45:00 PM 1.27 34.286 0.08 7.18 26.6 13.34
12/26/2020 10:00:00 PM 1.26 34.268 0.08 7.21 26.11 13.35
12/26/2020 10:15:00 PM 1.25 34.25 0.08 7.21 22.72 13.35
12/26/2020 10:30:00 PM 1.23 34.214 0.081 7.21 36.51 13.36
12/26/2020 10:45:00 PM 1.22 34.196 0.081 7.22 21.72 13.36
12/26/2020 11:00:00 PM 1.21 34.178 0.081 7.22 11.89 13.38
12/26/2020 11:15:00 PM 1.2 34.16 0.081 7.19 22.93 13.38
12/26/2020 11:30:00 PM 1.19 34.142 0.082 7.21 13.76 13.38
12/26/2020 11:45:00 PM 1.18 34.124 0.082 7.21 12.63 13.39
12/27/2020 12:00:00 AM 1.18 34.124 0.082 7.22 12.29 13.39
12/27/2020 12:15:00 AM 1.17 34.106 0.082 7.21 14.28 13.4
12/27/2020 12:30:00 AM 1.17 34.106 0.083 7.21 16.22 13.4
12/27/2020 12:45:00 AM 1.17 34.106 0.083 7.22 12.77 13.4
12/27/2020 1:00:00 AM 1.17 34.106 0.083 7.24 12.06 13.41
12/27/2020 1:15:00 AM 1.16 34.088 0.083 7.21 12.85 13.41
12/27/2020 1:30:00 AM 1.16 34.088 0.084 7.23 11.95 13.41
12/27/2020 1:45:00 AM 1.16 34.088 0.084 7.21 20.62 13.41
12/27/2020 2:00:00 AM 1.16 34.088 0.084 7.24 10.98 13.42
12/27/2020 2:15:00 AM 1.16 34.088 0.084 7.24 15.08 13.42
12/27/2020 2:30:00 AM 1.16 34.088 0.085 7.23 23.43 13.42
12/27/2020 2:45:00 AM 1.16 34.088 0.085 7.24 11.19 13.42
12/27/2020 3:00:00 AM 1.16 34.088 0.085 7.22 23.68 13.43
12/27/2020 3:15:00 AM 1.16 34.088 0.085 7.22 30.38 13.43
12/27/2020 3:30:00 AM 1.17 34.106 0.085 7.25 12.47 13.43
12/27/2020 3:45:00 AM 1.17 34.106 0.086 7.26 13.6 13.44
12/27/2020 4:00:00 AM 1.17 34.106 0.086 7.24 12.92 13.44
12/27/2020 4:15:00 AM 1.17 34.106 0.086 7.24 21.21 13.44
12/27/2020 4:30:00 AM 1.17 34.106 0.086 7.25 25.23 13.43
12/27/2020 4:45:00 AM 1.18 34.124 0.087 7.26 18.75 13.43
12/27/2020 5:00:00 AM 1.18 34.124 0.087 7.25 13.04 13.44
12/27/2020 5:15:00 AM 1.19 34.142 0.087 7.24 13 13.44
12/27/2020 5:30:00 AM 1.19 34.142 0.087 7.24 43.39 13.44
12/27/2020 5:45:00 AM 1.19 34.142 0.087 7.23 15.01 13.44
12/27/2020 6:00:00 AM 1.2 34.16 0.088 7.25 17.21 13.44
12/27/2020 6:15:00 AM 1.2 34.16 0.088 7.27 12.13 13.45
12/27/2020 6:30:00 AM 1.2 34.16 0.088 7.27 14.55 13.45
12/27/2020 6:45:00 AM 1.2 34.16 0.088 7.28 14.64 13.45
12/27/2020 7:00:00 AM 1.2 34.16 0.089 7.27 12.27 13.45
12/27/2020 7:15:00 AM 1.2 34.16 0.089 7.29 12.31 13.46
12/27/2020 7:30:00 AM 1.2 34.16 0.089 7.28 14.24 13.46
12/27/2020 7:45:00 AM 1.2 34.16 0.089 7.28 11.91 13.45
12/27/2020 8:00:00 AM 1.2 34.16 0.089 7.29 12.94 13.46
12/27/2020 8:15:00 AM 1.2 34.16 0.09 7.29 11.96 13.47
12/27/2020 8:30:00 AM 1.21 34.178 0.09 7.28 12.73 13.47
12/27/2020 8:45:00 AM 1.22 34.196 0.09 7.28 9.96 13.47
12/27/2020 9:00:00 AM 1.23 34.214 0.09 7.29 10.29 13.47
12/27/2020 9:15:00 AM 1.24 34.232 0.09 7.28 13.52 13.48
12/27/2020 9:30:00 AM 1.25 34.25 0.091 7.28 25.31 13.48
12/27/2020 9:45:00 AM 1.27 34.286 0.091 7.29 13.9 13.48
12/27/2020 10:00:00 AM 1.29 34.322 0.091 7.3 12.17 13.48
12/27/2020 10:15:00 AM 1.31 34.358 0.091 7.27 48.56 13.48
12/27/2020 10:30:00 AM 1.33 34.394 0.091 7.31 15.4 13.47
12/27/2020 10:45:00 AM 1.35 34.43 0.091 7.32 13.82 13.47
12/27/2020 11:00:00 AM 1.38 34.484 0.092 7.33 9.43 13.47
12/27/2020 11:15:00 AM 1.41 34.538 0.092 7.3 14.82 13.47
12/27/2020 11:30:00 AM 1.44 34.592 0.092 7.33 21.38 13.47
12/27/2020 11:45:00 AM 1.47 34.646 0.092 7.33 14.43 13.46
12/27/2020 12:00:00 PM 1.5 34.7 0.092 7.32 9.98 13.46
12/27/2020 12:15:00 PM 1.54 34.772 0.092 7.33 19.28 13.45
12/27/2020 12:30:00 PM 1.58 34.844 0.093 7.34 9.21 13.44
12/27/2020 12:45:00 PM 1.62 34.916 0.093 7.31 111.69 13.43
12/27/2020 1:00:00 PM 1.69 35.042 0.093 7.34 291.84 13.41
12/27/2020 1:15:00 PM 1.74 35.132 0.093 7.36 8.72 13.41
12/27/2020 1:30:00 PM 1.79 35.222 0.093 7.37 8.05 13.38
12/27/2020 1:45:00 PM 1.83 35.294 0.093 7.38 8.09 13.37
12/27/2020 2:00:00 PM 1.85 35.33 0.093 7.37 8.34 13.36
12/27/2020 2:15:00 PM 1.87 35.366 0.094 7.38 8.63 13.34
12/27/2020 2:30:00 PM 1.88 35.384 0.094 7.39 8.26 13.33
12/27/2020 2:45:00 PM 1.9 35.42 0.094 7.39 8.44 13.32
12/27/2020 3:00:00 PM 1.91 35.438 0.094 7.39 8.42 13.31
12/27/2020 3:15:00 PM 1.9 35.42 0.094 7.39 8.92 13.31
12/27/2020 3:30:00 PM 1.89 35.402 0.094 7.38 8.31 13.3
12/27/2020 3:45:00 PM 1.88 35.384 0.094 7.39 7.7 13.3
12/27/2020 4:00:00 PM 1.87 35.366 0.094 7.39 8.35 13.29
12/27/2020 4:15:00 PM 1.87 35.366 0.095 7.39 7.54 13.29
12/27/2020 4:30:00 PM 1.86 35.348 0.095 7.39 7.64 13.28
12/27/2020 4:45:00 PM 1.85 35.33 0.095 7.4 7.53 13.28
12/27/2020 5:00:00 PM 1.84 35.312 0.095 7.4 7.7 13.28
12/27/2020 5:15:00 PM 1.84 35.312 0.095 7.41 7.53 13.27
12/27/2020 5:30:00 PM 1.84 35.312 0.095 7.41 7.76 13.26
12/27/2020 5:45:00 PM 1.85 35.33 0.095 7.4 7.22 13.26
12/27/2020 6:00:00 PM 1.85 35.33 0.096 7.41 7.77 13.25
12/27/2020 6:15:00 PM 1.84 35.312 0.096 7.41 8.24 13.25
12/27/2020 6:30:00 PM 1.84 35.312 0.096 7.42 7.89 13.24
12/27/2020 6:45:00 PM 1.83 35.294 0.096 7.41 7.78 13.25
12/27/2020 7:00:00 PM 1.82 35.276 0.096 7.4 7.3 13.25
12/27/2020 7:15:00 PM 1.81 35.258 0.096 7.41 7.86 13.24
12/27/2020 7:30:00 PM 1.79 35.222 0.096 7.4 7.79 13.26
12/27/2020 7:45:00 PM 1.78 35.204 0.097 7.4 9.22 13.27
12/27/2020 8:00:00 PM 1.76 35.168 0.097 7.4 9.6 13.27
12/27/2020 8:15:00 PM 1.74 35.132 0.097 7.4 8.64 13.28
12/27/2020 8:30:00 PM 1.72 35.096 0.097 7.4 8.86 13.28
12/27/2020 8:45:00 PM 1.7 35.06 0.097 7.39 8.27 13.29
12/27/2020 9:00:00 PM 1.68 35.024 0.097 7.39 8.31 13.3
12/27/2020 9:15:00 PM 1.66 34.988 0.097 7.39 8.52 13.3
12/27/2020 9:30:00 PM 1.64 34.952 0.098 7.39 8.28 13.31
12/27/2020 9:45:00 PM 1.63 34.934 0.098 7.4 8.78 13.32
12/27/2020 10:00:00 PM 1.61 34.898 0.098 7.4 8.71 13.32
12/27/2020 10:15:00 PM 1.59 34.862 0.098 7.39 8.83 13.33
12/27/2020 10:30:00 PM 1.58 34.844 0.098 7.4 8.53 13.33
12/27/2020 10:45:00 PM 1.56 34.808 0.098 7.39 8.16 13.34
12/27/2020 11:00:00 PM 1.55 34.79 0.099 7.39 8.1 13.34
12/27/2020 11:15:00 PM 1.54 34.772 0.099 7.4 8.04 13.34
12/27/2020 11:30:00 PM 1.53 34.754 0.099 7.4 8.19 13.35
12/27/2020 11:45:00 PM 1.52 34.736 0.099 7.4 8.25 13.35
12/28/2020 12:00:00 AM 1.51 34.718 0.099 7.4 8.06 13.35
12/28/2020 12:15:00 AM 1.5 34.7 0.099 7.4 7.84 13.36
12/28/2020 12:30:00 AM 1.49 34.682 0.099 7.4 8.38 13.35
12/28/2020 12:45:00 AM 1.48 34.664 0.099 7.4 7.71 13.36
12/28/2020 1:00:00 AM 1.47 34.646 0.099 7.41 7.61 13.35
12/28/2020 1:15:00 AM 1.46 34.628 0.1 7.4 8.02 13.35
12/28/2020 1:30:00 AM 1.45 34.61 0.1 7.41 8.02 13.36
12/28/2020 1:45:00 AM 1.44 34.592 0.1 7.4 7.79 13.36
12/28/2020 2:00:00 AM 1.43 34.574 0.1 7.4 7.57 13.36
12/28/2020 2:15:00 AM 1.43 34.574 0.1 7.4 7.73 13.36
12/28/2020 2:30:00 AM 1.42 34.556 0.1 7.4 7.5 13.36
12/28/2020 2:45:00 AM 1.41 34.538 0.1 7.41 7.9 13.36
12/28/2020 3:00:00 AM 1.41 34.538 0.101 7.4 7.65 13.36
12/28/2020 3:15:00 AM 1.4 34.52 0.101 7.4 8.14 13.35
12/28/2020 3:30:00 AM 1.4 34.52 0.101 7.39 7.82 13.36
12/28/2020 3:45:00 AM 1.4 34.52 0.101 7.41 7.66 13.36
12/28/2020 4:00:00 AM 1.4 34.52 0.101 7.4 7.63 13.36
12/28/2020 4:15:00 AM 1.4 34.52 0.101 7.41 7.43 13.35
12/28/2020 4:30:00 AM 1.41 34.538 0.101 7.41 7.62 13.35
12/28/2020 4:45:00 AM 1.41 34.538 0.102 7.41 7.65 13.35
12/28/2020 5:00:00 AM 1.42 34.556 0.102 7.41 8.18 13.34
12/28/2020 5:15:00 AM 1.43 34.574 0.102 7.42 7.8 13.35
12/28/2020 5:30:00 AM 1.44 34.592 0.102 7.4 7.71 13.34
12/28/2020 5:45:00 AM 1.45 34.61 0.102 7.42 7.44 13.34
12/28/2020 6:00:00 AM 1.47 34.646 0.102 7.42 7.27 13.33
12/28/2020 6:15:00 AM 1.47 34.646 0.102 7.43 7.32 13.33
12/28/2020 6:30:00 AM 1.4 34.52 0.102 7.41 7.78 13.32
12/28/2020 6:45:00 AM 1.39 34.502 0.103 7.41 7.31 13.32
12/28/2020 7:00:00 AM 1.37 34.466 0.103 7.42 7.42 13.32
12/28/2020 7:15:00 AM 1.37 34.466 0.103 7.41 7.1 13.32
12/28/2020 7:30:00 AM 1.4 34.52 0.103 7.41 7.33 13.33
12/28/2020 7:45:00 AM 1.42 34.556 0.103 7.42 7.1 13.32
12/28/2020 8:00:00 AM 1.45 34.61 0.103 7.43 7.24 13.33
12/28/2020 8:15:00 AM 1.47 34.646 0.103 7.41 7.12 13.33
12/28/2020 8:30:00 AM 1.5 34.7 0.103 7.43 6.86 13.33
12/28/2020 8:45:00 AM 1.53 34.754 0.103 7.45 6.96 13.33
12/28/2020 9:00:00 AM 1.57 34.826 0.103 7.44 6.72 13.32
12/28/2020 9:15:00 AM</